<?xml version="1.0" encoding="UTF-8" standalone="no" ?>
<gpx xmlns="http://www.topografix.com/GPX/1/1" xmlns:xsi="http://www.w3.org/2001/XMLSchema-instance" xsi:schemaLocation="http://www.topografix.com/GPX/1/1 http://www.topografix.com/GPX/1/1/gpx.xsd" version="1.1" creator="VisuGPX - https://www.visugpx.com">
  <metadata>
    <name>Croix de Millet</name>
    <desc><![CDATA[Tour de la croix de Millet]]></desc>
  </metadata>
  <trk>
    <name><![CDATA[Croix de Millet_1]]></name>
    <trkseg>
      <trkpt lat="42.90255" lon="1.93434">
        <ele>497</ele>
        <time>2012-09-30T07:31:39Z</time>
      </trkpt>
      <trkpt lat="42.90255" lon="1.93437">
        <ele>497</ele>
        <time>2012-09-30T07:31:41Z</time>
      </trkpt>
      <trkpt lat="42.90257" lon="1.93443">
        <ele>497</ele>
        <time>2012-09-30T07:31:44Z</time>
      </trkpt>
      <trkpt lat="42.90257" lon="1.93446">
        <ele>497</ele>
        <time>2012-09-30T07:31:45Z</time>
      </trkpt>
      <trkpt lat="42.90256" lon="1.93449">
        <ele>497</ele>
        <time>2012-09-30T07:31:47Z</time>
      </trkpt>
      <trkpt lat="42.90263" lon="1.93457">
        <ele>497</ele>
        <time>2012-09-30T07:31:50Z</time>
      </trkpt>
      <trkpt lat="42.90265" lon="1.93459">
        <ele>497</ele>
        <time>2012-09-30T07:31:51Z</time>
      </trkpt>
      <trkpt lat="42.90275" lon="1.93471">
        <ele>497</ele>
        <time>2012-09-30T07:31:55Z</time>
      </trkpt>
      <trkpt lat="42.90287" lon="1.93484">
        <ele>497</ele>
        <time>2012-09-30T07:32:00Z</time>
      </trkpt>
      <trkpt lat="42.90292" lon="1.93494">
        <ele>497</ele>
        <time>2012-09-30T07:32:03Z</time>
      </trkpt>
      <trkpt lat="42.90288" lon="1.93509">
        <ele>496</ele>
        <time>2012-09-30T07:32:08Z</time>
      </trkpt>
      <trkpt lat="42.90277" lon="1.93525">
        <ele>496</ele>
        <time>2012-09-30T07:32:14Z</time>
      </trkpt>
      <trkpt lat="42.90267" lon="1.93535">
        <ele>496</ele>
        <time>2012-09-30T07:32:19Z</time>
      </trkpt>
      <trkpt lat="42.90259" lon="1.93542">
        <ele>496</ele>
        <time>2012-09-30T07:32:23Z</time>
      </trkpt>
      <trkpt lat="42.90262" lon="1.93554">
        <ele>496</ele>
        <time>2012-09-30T07:32:28Z</time>
      </trkpt>
      <trkpt lat="42.90265" lon="1.93557">
        <ele>496</ele>
        <time>2012-09-30T07:32:29Z</time>
      </trkpt>
      <trkpt lat="42.90279" lon="1.93568">
        <ele>496</ele>
        <time>2012-09-30T07:32:34Z</time>
      </trkpt>
      <trkpt lat="42.90295" lon="1.93585">
        <ele>495</ele>
        <time>2012-09-30T07:32:40Z</time>
      </trkpt>
      <trkpt lat="42.90315" lon="1.93591">
        <ele>495</ele>
        <time>2012-09-30T07:32:45Z</time>
      </trkpt>
      <trkpt lat="42.90313" lon="1.93602">
        <ele>495</ele>
        <time>2012-09-30T07:32:49Z</time>
      </trkpt>
      <trkpt lat="42.90314" lon="1.93616">
        <ele>495</ele>
        <time>2012-09-30T07:32:55Z</time>
      </trkpt>
      <trkpt lat="42.90319" lon="1.93628">
        <ele>495</ele>
        <time>2012-09-30T07:33:00Z</time>
      </trkpt>
      <trkpt lat="42.90324" lon="1.93638">
        <ele>495</ele>
        <time>2012-09-30T07:33:04Z</time>
      </trkpt>
      <trkpt lat="42.90328" lon="1.93649">
        <ele>495</ele>
        <time>2012-09-30T07:33:08Z</time>
      </trkpt>
      <trkpt lat="42.90336" lon="1.9366">
        <ele>495</ele>
        <time>2012-09-30T07:33:13Z</time>
      </trkpt>
      <trkpt lat="42.9035" lon="1.93672">
        <ele>496</ele>
        <time>2012-09-30T07:33:19Z</time>
      </trkpt>
      <trkpt lat="42.90364" lon="1.93681">
        <ele>497</ele>
        <time>2012-09-30T07:33:24Z</time>
      </trkpt>
      <trkpt lat="42.90374" lon="1.93689">
        <ele>497</ele>
        <time>2012-09-30T07:33:29Z</time>
      </trkpt>
      <trkpt lat="42.90382" lon="1.93695">
        <ele>497</ele>
        <time>2012-09-30T07:33:32Z</time>
      </trkpt>
      <trkpt lat="42.90392" lon="1.937">
        <ele>497</ele>
        <time>2012-09-30T07:33:36Z</time>
      </trkpt>
      <trkpt lat="42.90398" lon="1.93706">
        <ele>497</ele>
        <time>2012-09-30T07:33:40Z</time>
      </trkpt>
      <trkpt lat="42.90408" lon="1.93714">
        <ele>497</ele>
        <time>2012-09-30T07:33:46Z</time>
      </trkpt>
      <trkpt lat="42.90413" lon="1.93719">
        <ele>497</ele>
        <time>2012-09-30T07:33:49Z</time>
      </trkpt>
      <trkpt lat="42.9042" lon="1.93729">
        <ele>495</ele>
        <time>2012-09-30T07:33:54Z</time>
      </trkpt>
      <trkpt lat="42.90427" lon="1.9374">
        <ele>496</ele>
        <time>2012-09-30T07:33:59Z</time>
      </trkpt>
      <trkpt lat="42.90436" lon="1.93757">
        <ele>498</ele>
        <time>2012-09-30T07:34:05Z</time>
      </trkpt>
      <trkpt lat="42.9044" lon="1.93771">
        <ele>498</ele>
        <time>2012-09-30T07:34:10Z</time>
      </trkpt>
      <trkpt lat="42.90452" lon="1.93785">
        <ele>499</ele>
        <time>2012-09-30T07:34:16Z</time>
      </trkpt>
      <trkpt lat="42.90459" lon="1.93794">
        <ele>499</ele>
        <time>2012-09-30T07:34:21Z</time>
      </trkpt>
      <trkpt lat="42.90466" lon="1.93806">
        <ele>499</ele>
        <time>2012-09-30T07:34:26Z</time>
      </trkpt>
      <trkpt lat="42.90474" lon="1.93813">
        <ele>499</ele>
        <time>2012-09-30T07:34:30Z</time>
      </trkpt>
      <trkpt lat="42.90482" lon="1.93822">
        <ele>499</ele>
        <time>2012-09-30T07:34:34Z</time>
      </trkpt>
      <trkpt lat="42.90491" lon="1.93831">
        <ele>500</ele>
        <time>2012-09-30T07:34:38Z</time>
      </trkpt>
      <trkpt lat="42.90499" lon="1.93841">
        <ele>502</ele>
        <time>2012-09-30T07:34:43Z</time>
      </trkpt>
      <trkpt lat="42.90506" lon="1.93849">
        <ele>501</ele>
        <time>2012-09-30T07:34:47Z</time>
      </trkpt>
      <trkpt lat="42.90511" lon="1.93863">
        <ele>501</ele>
        <time>2012-09-30T07:34:52Z</time>
      </trkpt>
      <trkpt lat="42.90519" lon="1.93874">
        <ele>501</ele>
        <time>2012-09-30T07:34:57Z</time>
      </trkpt>
      <trkpt lat="42.9052" lon="1.93876">
        <ele>501</ele>
        <time>2012-09-30T07:34:59Z</time>
      </trkpt>
      <trkpt lat="42.9052" lon="1.93879">
        <ele>501</ele>
        <time>2012-09-30T07:35:06Z</time>
      </trkpt>
      <trkpt lat="42.90519" lon="1.93881">
        <ele>501</ele>
        <time>2012-09-30T07:35:07Z</time>
      </trkpt>
      <trkpt lat="42.90519" lon="1.93891">
        <ele>502</ele>
        <time>2012-09-30T07:35:12Z</time>
      </trkpt>
      <trkpt lat="42.90523" lon="1.93899">
        <ele>502</ele>
        <time>2012-09-30T07:35:16Z</time>
      </trkpt>
      <trkpt lat="42.90525" lon="1.93908">
        <ele>502</ele>
        <time>2012-09-30T07:35:20Z</time>
      </trkpt>
      <trkpt lat="42.90524" lon="1.93913">
        <ele>502</ele>
        <time>2012-09-30T07:35:22Z</time>
      </trkpt>
      <trkpt lat="42.90522" lon="1.9392">
        <ele>506</ele>
        <time>2012-09-30T07:35:25Z</time>
      </trkpt>
      <trkpt lat="42.90523" lon="1.9393">
        <ele>506</ele>
        <time>2012-09-30T07:35:29Z</time>
      </trkpt>
      <trkpt lat="42.90522" lon="1.93936">
        <ele>507</ele>
        <time>2012-09-30T07:35:33Z</time>
      </trkpt>
      <trkpt lat="42.90521" lon="1.9394">
        <ele>507</ele>
        <time>2012-09-30T07:35:35Z</time>
      </trkpt>
      <trkpt lat="42.9052" lon="1.93942">
        <ele>507</ele>
        <time>2012-09-30T07:35:36Z</time>
      </trkpt>
      <trkpt lat="42.9052" lon="1.93943">
        <ele>507</ele>
        <time>2012-09-30T07:35:37Z</time>
      </trkpt>
      <trkpt lat="42.90517" lon="1.93958">
        <ele>508</ele>
        <time>2012-09-30T07:35:44Z</time>
      </trkpt>
      <trkpt lat="42.90515" lon="1.93962">
        <ele>509</ele>
        <time>2012-09-30T07:35:46Z</time>
      </trkpt>
      <trkpt lat="42.90516" lon="1.93967">
        <ele>509</ele>
        <time>2012-09-30T07:35:48Z</time>
      </trkpt>
      <trkpt lat="42.90519" lon="1.93979">
        <ele>510</ele>
        <time>2012-09-30T07:35:54Z</time>
      </trkpt>
      <trkpt lat="42.90523" lon="1.9399">
        <ele>511</ele>
        <time>2012-09-30T07:36:00Z</time>
      </trkpt>
      <trkpt lat="42.90529" lon="1.93995">
        <ele>510</ele>
        <time>2012-09-30T07:36:04Z</time>
      </trkpt>
      <trkpt lat="42.9053" lon="1.94001">
        <ele>516</ele>
        <time>2012-09-30T07:36:07Z</time>
      </trkpt>
      <trkpt lat="42.90531" lon="1.94008">
        <ele>516</ele>
        <time>2012-09-30T07:36:11Z</time>
      </trkpt>
      <trkpt lat="42.90532" lon="1.94016">
        <ele>516</ele>
        <time>2012-09-30T07:36:16Z</time>
      </trkpt>
      <trkpt lat="42.90532" lon="1.9402">
        <ele>516</ele>
        <time>2012-09-30T07:36:18Z</time>
      </trkpt>
      <trkpt lat="42.90532" lon="1.94022">
        <ele>516</ele>
        <time>2012-09-30T07:36:19Z</time>
      </trkpt>
      <trkpt lat="42.90533" lon="1.94025">
        <ele>517</ele>
        <time>2012-09-30T07:36:21Z</time>
      </trkpt>
      <trkpt lat="42.90537" lon="1.94039">
        <ele>517</ele>
        <time>2012-09-30T07:36:27Z</time>
      </trkpt>
      <trkpt lat="42.90536" lon="1.94047">
        <ele>518</ele>
        <time>2012-09-30T07:36:33Z</time>
      </trkpt>
      <trkpt lat="42.90536" lon="1.94053">
        <ele>518</ele>
        <time>2012-09-30T07:36:37Z</time>
      </trkpt>
      <trkpt lat="42.90536" lon="1.94061">
        <ele>518</ele>
        <time>2012-09-30T07:36:43Z</time>
      </trkpt>
      <trkpt lat="42.90538" lon="1.94072">
        <ele>519</ele>
        <time>2012-09-30T07:36:48Z</time>
      </trkpt>
      <trkpt lat="42.90539" lon="1.94075">
        <ele>519</ele>
        <time>2012-09-30T07:36:52Z</time>
      </trkpt>
      <trkpt lat="42.90537" lon="1.94082">
        <ele>519</ele>
        <time>2012-09-30T07:36:56Z</time>
      </trkpt>
      <trkpt lat="42.90533" lon="1.9409">
        <ele>526</ele>
        <time>2012-09-30T07:37:01Z</time>
      </trkpt>
      <trkpt lat="42.90533" lon="1.9409">
        <ele>526</ele>
        <time>2012-09-30T07:37:02Z</time>
      </trkpt>
      <trkpt lat="42.9053" lon="1.94097">
        <ele>527</ele>
        <time>2012-09-30T07:37:07Z</time>
      </trkpt>
      <trkpt lat="42.9053" lon="1.94102">
        <ele>527</ele>
        <time>2012-09-30T07:37:10Z</time>
      </trkpt>
      <trkpt lat="42.9053" lon="1.94115">
        <ele>528</ele>
        <time>2012-09-30T07:37:16Z</time>
      </trkpt>
      <trkpt lat="42.90529" lon="1.94121">
        <ele>528</ele>
        <time>2012-09-30T07:37:18Z</time>
      </trkpt>
      <trkpt lat="42.90529" lon="1.94136">
        <ele>529</ele>
        <time>2012-09-30T07:37:24Z</time>
      </trkpt>
      <trkpt lat="42.90529" lon="1.94138">
        <ele>529</ele>
        <time>2012-09-30T07:37:25Z</time>
      </trkpt>
      <trkpt lat="42.9053" lon="1.94146">
        <ele>530</ele>
        <time>2012-09-30T07:37:28Z</time>
      </trkpt>
      <trkpt lat="42.9053" lon="1.94149">
        <ele>530</ele>
        <time>2012-09-30T07:37:29Z</time>
      </trkpt>
      <trkpt lat="42.90531" lon="1.94152">
        <ele>530</ele>
        <time>2012-09-30T07:37:30Z</time>
      </trkpt>
      <trkpt lat="42.90532" lon="1.94156">
        <ele>531</ele>
        <time>2012-09-30T07:37:32Z</time>
      </trkpt>
      <trkpt lat="42.90533" lon="1.94164">
        <ele>531</ele>
        <time>2012-09-30T07:37:36Z</time>
      </trkpt>
      <trkpt lat="42.90535" lon="1.94168">
        <ele>537</ele>
        <time>2012-09-30T07:37:39Z</time>
      </trkpt>
      <trkpt lat="42.90533" lon="1.94179">
        <ele>537</ele>
        <time>2012-09-30T07:37:44Z</time>
      </trkpt>
      <trkpt lat="42.90532" lon="1.94181">
        <ele>537</ele>
        <time>2012-09-30T07:37:45Z</time>
      </trkpt>
      <trkpt lat="42.90532" lon="1.94188">
        <ele>538</ele>
        <time>2012-09-30T07:37:48Z</time>
      </trkpt>
      <trkpt lat="42.90528" lon="1.94201">
        <ele>538</ele>
        <time>2012-09-30T07:37:55Z</time>
      </trkpt>
      <trkpt lat="42.90527" lon="1.9421">
        <ele>539</ele>
        <time>2012-09-30T07:37:59Z</time>
      </trkpt>
      <trkpt lat="42.90523" lon="1.94213">
        <ele>540</ele>
        <time>2012-09-30T07:38:03Z</time>
      </trkpt>
      <trkpt lat="42.90522" lon="1.94217">
        <ele>540</ele>
        <time>2012-09-30T07:38:05Z</time>
      </trkpt>
      <trkpt lat="42.9052" lon="1.94219">
        <ele>540</ele>
        <time>2012-09-30T07:38:09Z</time>
      </trkpt>
      <trkpt lat="42.90517" lon="1.94222">
        <ele>541</ele>
        <time>2012-09-30T07:38:13Z</time>
      </trkpt>
      <trkpt lat="42.90515" lon="1.94224">
        <ele>541</ele>
        <time>2012-09-30T07:38:20Z</time>
      </trkpt>
      <trkpt lat="42.90512" lon="1.94224">
        <ele>541</ele>
        <time>2012-09-30T07:38:30Z</time>
      </trkpt>
      <trkpt lat="42.90512" lon="1.94226">
        <ele>542</ele>
        <time>2012-09-30T07:38:38Z</time>
      </trkpt>
      <trkpt lat="42.9051" lon="1.94225">
        <ele>542</ele>
        <time>2012-09-30T07:38:43Z</time>
      </trkpt>
      <trkpt lat="42.90511" lon="1.94226">
        <ele>542</ele>
        <time>2012-09-30T07:38:50Z</time>
      </trkpt>
      <trkpt lat="42.90512" lon="1.94231">
        <ele>542</ele>
        <time>2012-09-30T07:39:01Z</time>
      </trkpt>
      <trkpt lat="42.90513" lon="1.94231">
        <ele>542</ele>
        <time>2012-09-30T07:39:05Z</time>
      </trkpt>
      <trkpt lat="42.90509" lon="1.94231">
        <ele>543</ele>
        <time>2012-09-30T07:39:28Z</time>
      </trkpt>
      <trkpt lat="42.90506" lon="1.94239">
        <ele>545</ele>
        <time>2012-09-30T07:39:33Z</time>
      </trkpt>
      <trkpt lat="42.90509" lon="1.94253">
        <ele>547</ele>
        <time>2012-09-30T07:39:40Z</time>
      </trkpt>
      <trkpt lat="42.90509" lon="1.94255">
        <ele>547</ele>
        <time>2012-09-30T07:39:41Z</time>
      </trkpt>
      <trkpt lat="42.90503" lon="1.94265">
        <ele>547</ele>
        <time>2012-09-30T07:39:46Z</time>
      </trkpt>
      <trkpt lat="42.90498" lon="1.94279">
        <ele>552</ele>
        <time>2012-09-30T07:39:51Z</time>
      </trkpt>
      <trkpt lat="42.90495" lon="1.94293">
        <ele>553</ele>
        <time>2012-09-30T07:39:56Z</time>
      </trkpt>
      <trkpt lat="42.90492" lon="1.94301">
        <ele>553</ele>
        <time>2012-09-30T07:40:00Z</time>
      </trkpt>
      <trkpt lat="42.90489" lon="1.94307">
        <ele>553</ele>
        <time>2012-09-30T07:40:03Z</time>
      </trkpt>
      <trkpt lat="42.90483" lon="1.94315">
        <ele>554</ele>
        <time>2012-09-30T07:40:07Z</time>
      </trkpt>
      <trkpt lat="42.9048" lon="1.94319">
        <ele>554</ele>
        <time>2012-09-30T07:40:09Z</time>
      </trkpt>
      <trkpt lat="42.90474" lon="1.94333">
        <ele>554</ele>
        <time>2012-09-30T07:40:15Z</time>
      </trkpt>
      <trkpt lat="42.90472" lon="1.94339">
        <ele>556</ele>
        <time>2012-09-30T07:40:17Z</time>
      </trkpt>
      <trkpt lat="42.90467" lon="1.9435">
        <ele>557</ele>
        <time>2012-09-30T07:40:22Z</time>
      </trkpt>
      <trkpt lat="42.90465" lon="1.94358">
        <ele>557</ele>
        <time>2012-09-30T07:40:26Z</time>
      </trkpt>
      <trkpt lat="42.90464" lon="1.94364">
        <ele>557</ele>
        <time>2012-09-30T07:40:34Z</time>
      </trkpt>
      <trkpt lat="42.90462" lon="1.94372">
        <ele>557</ele>
        <time>2012-09-30T07:40:40Z</time>
      </trkpt>
      <trkpt lat="42.9046" lon="1.94375">
        <ele>557</ele>
        <time>2012-09-30T07:40:42Z</time>
      </trkpt>
      <trkpt lat="42.90456" lon="1.94387">
        <ele>558</ele>
        <time>2012-09-30T07:40:48Z</time>
      </trkpt>
      <trkpt lat="42.9045" lon="1.94398">
        <ele>558</ele>
        <time>2012-09-30T07:40:53Z</time>
      </trkpt>
      <trkpt lat="42.90446" lon="1.94405">
        <ele>559</ele>
        <time>2012-09-30T07:40:56Z</time>
      </trkpt>
      <trkpt lat="42.90444" lon="1.94413">
        <ele>559</ele>
        <time>2012-09-30T07:40:59Z</time>
      </trkpt>
      <trkpt lat="42.90439" lon="1.94427">
        <ele>563</ele>
        <time>2012-09-30T07:41:06Z</time>
      </trkpt>
      <trkpt lat="42.90435" lon="1.94439">
        <ele>564</ele>
        <time>2012-09-30T07:41:11Z</time>
      </trkpt>
      <trkpt lat="42.90432" lon="1.94444">
        <ele>564</ele>
        <time>2012-09-30T07:41:13Z</time>
      </trkpt>
      <trkpt lat="42.90427" lon="1.94451">
        <ele>565</ele>
        <time>2012-09-30T07:41:17Z</time>
      </trkpt>
      <trkpt lat="42.90422" lon="1.94463">
        <ele>566</ele>
        <time>2012-09-30T07:41:23Z</time>
      </trkpt>
      <trkpt lat="42.90418" lon="1.94473">
        <ele>567</ele>
        <time>2012-09-30T07:41:29Z</time>
      </trkpt>
      <trkpt lat="42.90416" lon="1.94472">
        <ele>573</ele>
        <time>2012-09-30T07:41:33Z</time>
      </trkpt>
      <trkpt lat="42.90414" lon="1.94477">
        <ele>573</ele>
        <time>2012-09-30T07:41:39Z</time>
      </trkpt>
      <trkpt lat="42.90411" lon="1.94482">
        <ele>573</ele>
        <time>2012-09-30T07:41:42Z</time>
      </trkpt>
      <trkpt lat="42.90409" lon="1.94486">
        <ele>574</ele>
        <time>2012-09-30T07:41:45Z</time>
      </trkpt>
      <trkpt lat="42.90403" lon="1.94496">
        <ele>574</ele>
        <time>2012-09-30T07:41:51Z</time>
      </trkpt>
      <trkpt lat="42.904" lon="1.94509">
        <ele>579</ele>
        <time>2012-09-30T07:41:58Z</time>
      </trkpt>
      <trkpt lat="42.90398" lon="1.94515">
        <ele>580</ele>
        <time>2012-09-30T07:42:02Z</time>
      </trkpt>
      <trkpt lat="42.90397" lon="1.94521">
        <ele>580</ele>
        <time>2012-09-30T07:42:06Z</time>
      </trkpt>
      <trkpt lat="42.90395" lon="1.94524">
        <ele>581</ele>
        <time>2012-09-30T07:42:10Z</time>
      </trkpt>
      <trkpt lat="42.90395" lon="1.9453">
        <ele>581</ele>
        <time>2012-09-30T07:42:14Z</time>
      </trkpt>
      <trkpt lat="42.90397" lon="1.94542">
        <ele>582</ele>
        <time>2012-09-30T07:42:21Z</time>
      </trkpt>
      <trkpt lat="42.90397" lon="1.94548">
        <ele>582</ele>
        <time>2012-09-30T07:42:26Z</time>
      </trkpt>
      <trkpt lat="42.90398" lon="1.9455">
        <ele>582</ele>
        <time>2012-09-30T07:42:48Z</time>
      </trkpt>
      <trkpt lat="42.90401" lon="1.9455">
        <ele>582</ele>
        <time>2012-09-30T07:42:58Z</time>
      </trkpt>
      <trkpt lat="42.90393" lon="1.94549">
        <ele>583</ele>
        <time>2012-09-30T07:43:10Z</time>
      </trkpt>
      <trkpt lat="42.90385" lon="1.94555">
        <ele>583</ele>
        <time>2012-09-30T07:43:15Z</time>
      </trkpt>
      <trkpt lat="42.90368" lon="1.9456">
        <ele>584</ele>
        <time>2012-09-30T07:43:21Z</time>
      </trkpt>
      <trkpt lat="42.90363" lon="1.94561">
        <ele>585</ele>
        <time>2012-09-30T07:43:22Z</time>
      </trkpt>
      <trkpt lat="42.90341" lon="1.94578">
        <ele>589</ele>
        <time>2012-09-30T07:43:29Z</time>
      </trkpt>
      <trkpt lat="42.90332" lon="1.94588">
        <ele>593</ele>
        <time>2012-09-30T07:43:34Z</time>
      </trkpt>
      <trkpt lat="42.90329" lon="1.94594">
        <ele>595</ele>
        <time>2012-09-30T07:43:37Z</time>
      </trkpt>
      <trkpt lat="42.90331" lon="1.94609">
        <ele>597</ele>
        <time>2012-09-30T07:43:43Z</time>
      </trkpt>
      <trkpt lat="42.90331" lon="1.94614">
        <ele>598</ele>
        <time>2012-09-30T07:43:46Z</time>
      </trkpt>
      <trkpt lat="42.90327" lon="1.94619">
        <ele>598</ele>
        <time>2012-09-30T07:43:53Z</time>
      </trkpt>
      <trkpt lat="42.90331" lon="1.94619">
        <ele>598</ele>
        <time>2012-09-30T07:43:56Z</time>
      </trkpt>
      <trkpt lat="42.90332" lon="1.9463">
        <ele>599</ele>
        <time>2012-09-30T07:44:04Z</time>
      </trkpt>
      <trkpt lat="42.90334" lon="1.94631">
        <ele>594</ele>
        <time>2012-09-30T07:44:05Z</time>
      </trkpt>
      <trkpt lat="42.90335" lon="1.9464">
        <ele>594</ele>
        <time>2012-09-30T07:44:09Z</time>
      </trkpt>
      <trkpt lat="42.90339" lon="1.94651">
        <ele>596</ele>
        <time>2012-09-30T07:44:13Z</time>
      </trkpt>
      <trkpt lat="42.90339" lon="1.94657">
        <ele>597</ele>
        <time>2012-09-30T07:44:15Z</time>
      </trkpt>
      <trkpt lat="42.9034" lon="1.94663">
        <ele>598</ele>
        <time>2012-09-30T07:44:17Z</time>
      </trkpt>
      <trkpt lat="42.90335" lon="1.94684">
        <ele>599</ele>
        <time>2012-09-30T07:44:23Z</time>
      </trkpt>
      <trkpt lat="42.90333" lon="1.94698">
        <ele>606</ele>
        <time>2012-09-30T07:44:27Z</time>
      </trkpt>
      <trkpt lat="42.90334" lon="1.9471">
        <ele>600</ele>
        <time>2012-09-30T07:44:31Z</time>
      </trkpt>
      <trkpt lat="42.90329" lon="1.94729">
        <ele>608</ele>
        <time>2012-09-30T07:44:37Z</time>
      </trkpt>
      <trkpt lat="42.90327" lon="1.94743">
        <ele>608</ele>
        <time>2012-09-30T07:44:42Z</time>
      </trkpt>
      <trkpt lat="42.90324" lon="1.94753">
        <ele>609</ele>
        <time>2012-09-30T07:44:45Z</time>
      </trkpt>
      <trkpt lat="42.90321" lon="1.94771">
        <ele>612</ele>
        <time>2012-09-30T07:44:51Z</time>
      </trkpt>
      <trkpt lat="42.9032" lon="1.94783">
        <ele>612</ele>
        <time>2012-09-30T07:44:55Z</time>
      </trkpt>
      <trkpt lat="42.90318" lon="1.948">
        <ele>612</ele>
        <time>2012-09-30T07:45:00Z</time>
      </trkpt>
      <trkpt lat="42.90316" lon="1.94817">
        <ele>612</ele>
        <time>2012-09-30T07:45:06Z</time>
      </trkpt>
      <trkpt lat="42.90315" lon="1.94834">
        <ele>613</ele>
        <time>2012-09-30T07:45:11Z</time>
      </trkpt>
      <trkpt lat="42.90314" lon="1.94849">
        <ele>614</ele>
        <time>2012-09-30T07:45:15Z</time>
      </trkpt>
      <trkpt lat="42.90312" lon="1.94861">
        <ele>615</ele>
        <time>2012-09-30T07:45:19Z</time>
      </trkpt>
      <trkpt lat="42.90309" lon="1.94872">
        <ele>616</ele>
        <time>2012-09-30T07:45:23Z</time>
      </trkpt>
      <trkpt lat="42.90309" lon="1.94886">
        <ele>616</ele>
        <time>2012-09-30T07:45:28Z</time>
      </trkpt>
      <trkpt lat="42.90309" lon="1.94901">
        <ele>615</ele>
        <time>2012-09-30T07:45:33Z</time>
      </trkpt>
      <trkpt lat="42.90308" lon="1.94918">
        <ele>617</ele>
        <time>2012-09-30T07:45:39Z</time>
      </trkpt>
      <trkpt lat="42.90303" lon="1.94933">
        <ele>619</ele>
        <time>2012-09-30T07:45:45Z</time>
      </trkpt>
      <trkpt lat="42.90294" lon="1.94932">
        <ele>621</ele>
        <time>2012-09-30T07:45:51Z</time>
      </trkpt>
      <trkpt lat="42.90286" lon="1.94933">
        <ele>623</ele>
        <time>2012-09-30T07:45:56Z</time>
      </trkpt>
      <trkpt lat="42.90276" lon="1.94942">
        <ele>624</ele>
        <time>2012-09-30T07:46:01Z</time>
      </trkpt>
      <trkpt lat="42.90275" lon="1.94953">
        <ele>624</ele>
        <time>2012-09-30T07:46:06Z</time>
      </trkpt>
      <trkpt lat="42.90271" lon="1.94959">
        <ele>625</ele>
        <time>2012-09-30T07:46:09Z</time>
      </trkpt>
      <trkpt lat="42.90261" lon="1.94964">
        <ele>626</ele>
        <time>2012-09-30T07:46:15Z</time>
      </trkpt>
      <trkpt lat="42.90251" lon="1.94968">
        <ele>627</ele>
        <time>2012-09-30T07:46:21Z</time>
      </trkpt>
      <trkpt lat="42.90246" lon="1.9497">
        <ele>640</ele>
        <time>2012-09-30T07:46:25Z</time>
      </trkpt>
      <trkpt lat="42.90241" lon="1.94972">
        <ele>641</ele>
        <time>2012-09-30T07:46:30Z</time>
      </trkpt>
      <trkpt lat="42.90234" lon="1.9497">
        <ele>641</ele>
        <time>2012-09-30T07:46:36Z</time>
      </trkpt>
      <trkpt lat="42.90232" lon="1.94971">
        <ele>641</ele>
        <time>2012-09-30T07:46:40Z</time>
      </trkpt>
      <trkpt lat="42.90229" lon="1.94973">
        <ele>642</ele>
        <time>2012-09-30T07:46:44Z</time>
      </trkpt>
      <trkpt lat="42.90227" lon="1.94973">
        <ele>642</ele>
        <time>2012-09-30T07:46:45Z</time>
      </trkpt>
      <trkpt lat="42.90224" lon="1.94973">
        <ele>642</ele>
        <time>2012-09-30T07:46:47Z</time>
      </trkpt>
      <trkpt lat="42.90219" lon="1.94977">
        <ele>643</ele>
        <time>2012-09-30T07:46:54Z</time>
      </trkpt>
      <trkpt lat="42.90215" lon="1.94981">
        <ele>643</ele>
        <time>2012-09-30T07:47:00Z</time>
      </trkpt>
      <trkpt lat="42.90212" lon="1.94983">
        <ele>643</ele>
        <time>2012-09-30T07:47:05Z</time>
      </trkpt>
      <trkpt lat="42.90207" lon="1.94985">
        <ele>644</ele>
        <time>2012-09-30T07:47:13Z</time>
      </trkpt>
      <trkpt lat="42.90204" lon="1.94983">
        <ele>645</ele>
        <time>2012-09-30T07:47:19Z</time>
      </trkpt>
      <trkpt lat="42.902" lon="1.94985">
        <ele>645</ele>
        <time>2012-09-30T07:47:25Z</time>
      </trkpt>
      <trkpt lat="42.90194" lon="1.94988">
        <ele>646</ele>
        <time>2012-09-30T07:47:31Z</time>
      </trkpt>
      <trkpt lat="42.90191" lon="1.94994">
        <ele>647</ele>
        <time>2012-09-30T07:47:36Z</time>
      </trkpt>
      <trkpt lat="42.90183" lon="1.94995">
        <ele>648</ele>
        <time>2012-09-30T07:47:47Z</time>
      </trkpt>
      <trkpt lat="42.9018" lon="1.94997">
        <ele>649</ele>
        <time>2012-09-30T07:47:51Z</time>
      </trkpt>
      <trkpt lat="42.90171" lon="1.95">
        <ele>652</ele>
        <time>2012-09-30T07:48:00Z</time>
      </trkpt>
      <trkpt lat="42.90166" lon="1.95">
        <ele>653</ele>
        <time>2012-09-30T07:48:04Z</time>
      </trkpt>
      <trkpt lat="42.90157" lon="1.94996">
        <ele>658</ele>
        <time>2012-09-30T07:48:10Z</time>
      </trkpt>
      <trkpt lat="42.90141" lon="1.94995">
        <ele>662</ele>
        <time>2012-09-30T07:48:31Z</time>
      </trkpt>
      <trkpt lat="42.90132" lon="1.94992">
        <ele>665</ele>
        <time>2012-09-30T07:48:39Z</time>
      </trkpt>
      <trkpt lat="42.90124" lon="1.94988">
        <ele>666</ele>
        <time>2012-09-30T07:48:44Z</time>
      </trkpt>
      <trkpt lat="42.90115" lon="1.94993">
        <ele>668</ele>
        <time>2012-09-30T07:49:03Z</time>
      </trkpt>
      <trkpt lat="42.90108" lon="1.94996">
        <ele>670</ele>
        <time>2012-09-30T07:49:07Z</time>
      </trkpt>
      <trkpt lat="42.90104" lon="1.95">
        <ele>672</ele>
        <time>2012-09-30T07:49:11Z</time>
      </trkpt>
      <trkpt lat="42.9009" lon="1.95006">
        <ele>676</ele>
        <time>2012-09-30T07:49:23Z</time>
      </trkpt>
      <trkpt lat="42.90086" lon="1.95">
        <ele>679</ele>
        <time>2012-09-30T07:49:27Z</time>
      </trkpt>
      <trkpt lat="42.90078" lon="1.94999">
        <ele>682</ele>
        <time>2012-09-30T07:49:35Z</time>
      </trkpt>
      <trkpt lat="42.90068" lon="1.95002">
        <ele>686</ele>
        <time>2012-09-30T07:49:42Z</time>
      </trkpt>
      <trkpt lat="42.9006" lon="1.95002">
        <ele>688</ele>
        <time>2012-09-30T07:49:47Z</time>
      </trkpt>
      <trkpt lat="42.90054" lon="1.95004">
        <ele>690</ele>
        <time>2012-09-30T07:49:53Z</time>
      </trkpt>
      <trkpt lat="42.90051" lon="1.95006">
        <ele>691</ele>
        <time>2012-09-30T07:49:57Z</time>
      </trkpt>
      <trkpt lat="42.90047" lon="1.95008">
        <ele>692</ele>
        <time>2012-09-30T07:50:01Z</time>
      </trkpt>
      <trkpt lat="42.90044" lon="1.95011">
        <ele>692</ele>
        <time>2012-09-30T07:50:04Z</time>
      </trkpt>
      <trkpt lat="42.90037" lon="1.95013">
        <ele>694</ele>
        <time>2012-09-30T07:50:11Z</time>
      </trkpt>
      <trkpt lat="42.90032" lon="1.95016">
        <ele>695</ele>
        <time>2012-09-30T07:50:16Z</time>
      </trkpt>
      <trkpt lat="42.90028" lon="1.95019">
        <ele>696</ele>
        <time>2012-09-30T07:50:21Z</time>
      </trkpt>
      <trkpt lat="42.90025" lon="1.95022">
        <ele>696</ele>
        <time>2012-09-30T07:50:26Z</time>
      </trkpt>
      <trkpt lat="42.90024" lon="1.95024">
        <ele>696</ele>
        <time>2012-09-30T07:50:31Z</time>
      </trkpt>
      <trkpt lat="42.90018" lon="1.95027">
        <ele>697</ele>
        <time>2012-09-30T07:50:36Z</time>
      </trkpt>
      <trkpt lat="42.90011" lon="1.95037">
        <ele>697</ele>
        <time>2012-09-30T07:50:43Z</time>
      </trkpt>
      <trkpt lat="42.90006" lon="1.9504">
        <ele>697</ele>
        <time>2012-09-30T07:50:48Z</time>
      </trkpt>
      <trkpt lat="42.90004" lon="1.95042">
        <ele>698</ele>
        <time>2012-09-30T07:50:52Z</time>
      </trkpt>
      <trkpt lat="42.90001" lon="1.95046">
        <ele>698</ele>
        <time>2012-09-30T07:50:55Z</time>
      </trkpt>
      <trkpt lat="42.89996" lon="1.95055">
        <ele>716</ele>
        <time>2012-09-30T07:51:00Z</time>
      </trkpt>
      <trkpt lat="42.89992" lon="1.95059">
        <ele>715</ele>
        <time>2012-09-30T07:51:05Z</time>
      </trkpt>
      <trkpt lat="42.89989" lon="1.95059">
        <ele>716</ele>
        <time>2012-09-30T07:51:08Z</time>
      </trkpt>
      <trkpt lat="42.89981" lon="1.95062">
        <ele>717</ele>
        <time>2012-09-30T07:51:18Z</time>
      </trkpt>
      <trkpt lat="42.89975" lon="1.95064">
        <ele>718</ele>
        <time>2012-09-30T07:51:24Z</time>
      </trkpt>
      <trkpt lat="42.89977" lon="1.95066">
        <ele>718</ele>
        <time>2012-09-30T07:51:29Z</time>
      </trkpt>
      <trkpt lat="42.89973" lon="1.95069">
        <ele>718</ele>
        <time>2012-09-30T07:51:33Z</time>
      </trkpt>
      <trkpt lat="42.89956" lon="1.95075">
        <ele>723</ele>
        <time>2012-09-30T07:51:39Z</time>
      </trkpt>
      <trkpt lat="42.89936" lon="1.95071">
        <ele>729</ele>
        <time>2012-09-30T07:51:43Z</time>
      </trkpt>
      <trkpt lat="42.8993" lon="1.95067">
        <ele>729</ele>
        <time>2012-09-30T07:51:47Z</time>
      </trkpt>
      <trkpt lat="42.89938" lon="1.95062">
        <ele>727</ele>
        <time>2012-09-30T07:51:51Z</time>
      </trkpt>
      <trkpt lat="42.89938" lon="1.95061">
        <ele>727</ele>
        <time>2012-09-30T07:51:53Z</time>
      </trkpt>
      <trkpt lat="42.8993" lon="1.95052">
        <ele>728</ele>
        <time>2012-09-30T07:51:58Z</time>
      </trkpt>
      <trkpt lat="42.89925" lon="1.95047">
        <ele>728</ele>
        <time>2012-09-30T07:52:02Z</time>
      </trkpt>
      <trkpt lat="42.89922" lon="1.95024">
        <ele>730</ele>
        <time>2012-09-30T07:52:14Z</time>
      </trkpt>
      <trkpt lat="42.8992" lon="1.95006">
        <ele>736</ele>
        <time>2012-09-30T07:52:32Z</time>
      </trkpt>
      <trkpt lat="42.89921" lon="1.94999">
        <ele>738</ele>
        <time>2012-09-30T07:52:37Z</time>
      </trkpt>
      <trkpt lat="42.8992" lon="1.94987">
        <ele>733</ele>
        <time>2012-09-30T07:52:49Z</time>
      </trkpt>
      <trkpt lat="42.89918" lon="1.9498">
        <ele>731</ele>
        <time>2012-09-30T07:52:56Z</time>
      </trkpt>
      <trkpt lat="42.89917" lon="1.94968">
        <ele>729</ele>
        <time>2012-09-30T07:53:04Z</time>
      </trkpt>
      <trkpt lat="42.89913" lon="1.9496">
        <ele>760</ele>
        <time>2012-09-30T07:53:09Z</time>
      </trkpt>
      <trkpt lat="42.89914" lon="1.94958">
        <ele>760</ele>
        <time>2012-09-30T07:53:15Z</time>
      </trkpt>
      <trkpt lat="42.89916" lon="1.94958">
        <ele>760</ele>
        <time>2012-09-30T07:53:22Z</time>
      </trkpt>
      <trkpt lat="42.89918" lon="1.94961">
        <ele>728</ele>
        <time>2012-09-30T07:53:28Z</time>
      </trkpt>
      <trkpt lat="42.89917" lon="1.94961">
        <ele>728</ele>
        <time>2012-09-30T07:53:29Z</time>
      </trkpt>
      <trkpt lat="42.89909" lon="1.94968">
        <ele>761</ele>
        <time>2012-09-30T07:53:35Z</time>
      </trkpt>
      <trkpt lat="42.89906" lon="1.94976">
        <ele>760</ele>
        <time>2012-09-30T07:53:40Z</time>
      </trkpt>
      <trkpt lat="42.89907" lon="1.94986">
        <ele>756</ele>
        <time>2012-09-30T07:53:50Z</time>
      </trkpt>
      <trkpt lat="42.89904" lon="1.94993">
        <ele>755</ele>
        <time>2012-09-30T07:53:57Z</time>
      </trkpt>
      <trkpt lat="42.89904" lon="1.94999">
        <ele>754</ele>
        <time>2012-09-30T07:54:02Z</time>
      </trkpt>
      <trkpt lat="42.89907" lon="1.95004">
        <ele>752</ele>
        <time>2012-09-30T07:54:10Z</time>
      </trkpt>
      <trkpt lat="42.89906" lon="1.95012">
        <ele>756</ele>
        <time>2012-09-30T07:54:17Z</time>
      </trkpt>
      <trkpt lat="42.899" lon="1.95024">
        <ele>762</ele>
        <time>2012-09-30T07:54:25Z</time>
      </trkpt>
      <trkpt lat="42.89898" lon="1.95033">
        <ele>764</ele>
        <time>2012-09-30T07:54:31Z</time>
      </trkpt>
      <trkpt lat="42.89896" lon="1.95037">
        <ele>764</ele>
        <time>2012-09-30T07:54:33Z</time>
      </trkpt>
      <trkpt lat="42.89894" lon="1.95043">
        <ele>765</ele>
        <time>2012-09-30T07:54:37Z</time>
      </trkpt>
      <trkpt lat="42.89896" lon="1.95049">
        <ele>764</ele>
        <time>2012-09-30T07:54:42Z</time>
      </trkpt>
      <trkpt lat="42.8989" lon="1.95062">
        <ele>764</ele>
        <time>2012-09-30T07:54:49Z</time>
      </trkpt>
      <trkpt lat="42.8989" lon="1.95069">
        <ele>764</ele>
        <time>2012-09-30T07:54:52Z</time>
      </trkpt>
      <trkpt lat="42.89888" lon="1.95087">
        <ele>764</ele>
        <time>2012-09-30T07:54:58Z</time>
      </trkpt>
      <trkpt lat="42.89888" lon="1.95099">
        <ele>765</ele>
        <time>2012-09-30T07:55:02Z</time>
      </trkpt>
      <trkpt lat="42.89886" lon="1.95116">
        <ele>767</ele>
        <time>2012-09-30T07:55:09Z</time>
      </trkpt>
      <trkpt lat="42.89884" lon="1.95127">
        <ele>768</ele>
        <time>2012-09-30T07:55:15Z</time>
      </trkpt>
      <trkpt lat="42.89883" lon="1.9513">
        <ele>769</ele>
        <time>2012-09-30T07:55:17Z</time>
      </trkpt>
      <trkpt lat="42.89882" lon="1.9514">
        <ele>769</ele>
        <time>2012-09-30T07:55:23Z</time>
      </trkpt>
      <trkpt lat="42.89882" lon="1.95146">
        <ele>769</ele>
        <time>2012-09-30T07:55:26Z</time>
      </trkpt>
      <trkpt lat="42.89882" lon="1.95159">
        <ele>768</ele>
        <time>2012-09-30T07:55:33Z</time>
      </trkpt>
      <trkpt lat="42.89884" lon="1.95169">
        <ele>769</ele>
        <time>2012-09-30T07:55:39Z</time>
      </trkpt>
      <trkpt lat="42.89883" lon="1.95175">
        <ele>770</ele>
        <time>2012-09-30T07:55:43Z</time>
      </trkpt>
      <trkpt lat="42.89882" lon="1.95177">
        <ele>771</ele>
        <time>2012-09-30T07:55:44Z</time>
      </trkpt>
      <trkpt lat="42.89884" lon="1.9519">
        <ele>771</ele>
        <time>2012-09-30T07:55:51Z</time>
      </trkpt>
      <trkpt lat="42.89883" lon="1.95205">
        <ele>772</ele>
        <time>2012-09-30T07:55:57Z</time>
      </trkpt>
      <trkpt lat="42.89882" lon="1.9521">
        <ele>773</ele>
        <time>2012-09-30T07:55:59Z</time>
      </trkpt>
      <trkpt lat="42.89883" lon="1.95221">
        <ele>773</ele>
        <time>2012-09-30T07:56:04Z</time>
      </trkpt>
      <trkpt lat="42.89884" lon="1.95229">
        <ele>773</ele>
        <time>2012-09-30T07:56:08Z</time>
      </trkpt>
      <trkpt lat="42.89883" lon="1.95241">
        <ele>773</ele>
        <time>2012-09-30T07:56:15Z</time>
      </trkpt>
      <trkpt lat="42.89883" lon="1.95242">
        <ele>773</ele>
        <time>2012-09-30T07:56:23Z</time>
      </trkpt>
      <trkpt lat="42.89881" lon="1.95243">
        <ele>773</ele>
        <time>2012-09-30T07:56:30Z</time>
      </trkpt>
      <trkpt lat="42.89883" lon="1.95249">
        <ele>773</ele>
        <time>2012-09-30T07:56:38Z</time>
      </trkpt>
      <trkpt lat="42.89878" lon="1.95253">
        <ele>778</ele>
        <time>2012-09-30T07:56:44Z</time>
      </trkpt>
      <trkpt lat="42.89874" lon="1.95256">
        <ele>780</ele>
        <time>2012-09-30T07:56:48Z</time>
      </trkpt>
      <trkpt lat="42.89866" lon="1.95258">
        <ele>782</ele>
        <time>2012-09-30T07:56:54Z</time>
      </trkpt>
      <trkpt lat="42.89863" lon="1.95256">
        <ele>783</ele>
        <time>2012-09-30T07:56:58Z</time>
      </trkpt>
      <trkpt lat="42.89853" lon="1.95252">
        <ele>786</ele>
        <time>2012-09-30T07:57:03Z</time>
      </trkpt>
      <trkpt lat="42.89842" lon="1.95248">
        <ele>788</ele>
        <time>2012-09-30T07:57:08Z</time>
      </trkpt>
      <trkpt lat="42.89835" lon="1.95246">
        <ele>791</ele>
        <time>2012-09-30T07:57:12Z</time>
      </trkpt>
      <trkpt lat="42.89827" lon="1.95249">
        <ele>795</ele>
        <time>2012-09-30T07:57:16Z</time>
      </trkpt>
      <trkpt lat="42.89817" lon="1.95249">
        <ele>795</ele>
        <time>2012-09-30T07:57:21Z</time>
      </trkpt>
      <trkpt lat="42.89808" lon="1.95244">
        <ele>795</ele>
        <time>2012-09-30T07:57:27Z</time>
      </trkpt>
      <trkpt lat="42.89801" lon="1.95239">
        <ele>796</ele>
        <time>2012-09-30T07:57:33Z</time>
      </trkpt>
      <trkpt lat="42.89798" lon="1.95238">
        <ele>796</ele>
        <time>2012-09-30T07:57:35Z</time>
      </trkpt>
      <trkpt lat="42.89793" lon="1.95232">
        <ele>796</ele>
        <time>2012-09-30T07:57:39Z</time>
      </trkpt>
      <trkpt lat="42.89789" lon="1.95228">
        <ele>796</ele>
        <time>2012-09-30T07:57:44Z</time>
      </trkpt>
      <trkpt lat="42.89779" lon="1.95225">
        <ele>796</ele>
        <time>2012-09-30T07:57:48Z</time>
      </trkpt>
      <trkpt lat="42.89771" lon="1.95223">
        <ele>796</ele>
        <time>2012-09-30T07:57:53Z</time>
      </trkpt>
      <trkpt lat="42.89763" lon="1.95222">
        <ele>796</ele>
        <time>2012-09-30T07:58:01Z</time>
      </trkpt>
      <trkpt lat="42.89757" lon="1.95233">
        <ele>797</ele>
        <time>2012-09-30T07:58:07Z</time>
      </trkpt>
      <trkpt lat="42.89759" lon="1.95238">
        <ele>797</ele>
        <time>2012-09-30T07:58:09Z</time>
      </trkpt>
      <trkpt lat="42.89756" lon="1.95257">
        <ele>799</ele>
        <time>2012-09-30T07:58:15Z</time>
      </trkpt>
      <trkpt lat="42.89751" lon="1.95267">
        <ele>800</ele>
        <time>2012-09-30T07:58:19Z</time>
      </trkpt>
      <trkpt lat="42.89742" lon="1.95266">
        <ele>810</ele>
        <time>2012-09-30T07:58:24Z</time>
      </trkpt>
      <trkpt lat="42.8974" lon="1.95264">
        <ele>810</ele>
        <time>2012-09-30T07:58:25Z</time>
      </trkpt>
      <trkpt lat="42.89738" lon="1.95259">
        <ele>809</ele>
        <time>2012-09-30T07:58:29Z</time>
      </trkpt>
      <trkpt lat="42.89736" lon="1.95255">
        <ele>809</ele>
        <time>2012-09-30T07:58:33Z</time>
      </trkpt>
      <trkpt lat="42.89732" lon="1.95245">
        <ele>805</ele>
        <time>2012-09-30T07:58:40Z</time>
      </trkpt>
      <trkpt lat="42.89731" lon="1.95243">
        <ele>805</ele>
        <time>2012-09-30T07:58:42Z</time>
      </trkpt>
      <trkpt lat="42.89722" lon="1.95232">
        <ele>807</ele>
        <time>2012-09-30T07:58:50Z</time>
      </trkpt>
      <trkpt lat="42.8972" lon="1.95225">
        <ele>807</ele>
        <time>2012-09-30T07:58:54Z</time>
      </trkpt>
      <trkpt lat="42.89717" lon="1.95219">
        <ele>808</ele>
        <time>2012-09-30T07:58:58Z</time>
      </trkpt>
      <trkpt lat="42.89715" lon="1.95217">
        <ele>808</ele>
        <time>2012-09-30T07:59:01Z</time>
      </trkpt>
      <trkpt lat="42.89706" lon="1.95212">
        <ele>809</ele>
        <time>2012-09-30T07:59:07Z</time>
      </trkpt>
      <trkpt lat="42.89705" lon="1.95211">
        <ele>809</ele>
        <time>2012-09-30T07:59:09Z</time>
      </trkpt>
      <trkpt lat="42.89699" lon="1.95202">
        <ele>809</ele>
        <time>2012-09-30T07:59:15Z</time>
      </trkpt>
      <trkpt lat="42.89695" lon="1.95198">
        <ele>810</ele>
        <time>2012-09-30T07:59:19Z</time>
      </trkpt>
      <trkpt lat="42.89687" lon="1.95192">
        <ele>810</ele>
        <time>2012-09-30T07:59:25Z</time>
      </trkpt>
      <trkpt lat="42.89685" lon="1.9519">
        <ele>810</ele>
        <time>2012-09-30T07:59:26Z</time>
      </trkpt>
      <trkpt lat="42.89681" lon="1.95185">
        <ele>811</ele>
        <time>2012-09-30T07:59:30Z</time>
      </trkpt>
      <trkpt lat="42.89674" lon="1.95174">
        <ele>812</ele>
        <time>2012-09-30T07:59:37Z</time>
      </trkpt>
      <trkpt lat="42.89667" lon="1.95167">
        <ele>813</ele>
        <time>2012-09-30T07:59:43Z</time>
      </trkpt>
      <trkpt lat="42.8966" lon="1.95158">
        <ele>817</ele>
        <time>2012-09-30T07:59:49Z</time>
      </trkpt>
      <trkpt lat="42.89655" lon="1.95152">
        <ele>819</ele>
        <time>2012-09-30T07:59:54Z</time>
      </trkpt>
      <trkpt lat="42.89649" lon="1.95146">
        <ele>821</ele>
        <time>2012-09-30T07:59:59Z</time>
      </trkpt>
      <trkpt lat="42.89643" lon="1.95141">
        <ele>822</ele>
        <time>2012-09-30T08:00:03Z</time>
      </trkpt>
      <trkpt lat="42.8964" lon="1.95138">
        <ele>822</ele>
        <time>2012-09-30T08:00:07Z</time>
      </trkpt>
      <trkpt lat="42.89634" lon="1.95131">
        <ele>823</ele>
        <time>2012-09-30T08:00:11Z</time>
      </trkpt>
      <trkpt lat="42.89629" lon="1.95118">
        <ele>823</ele>
        <time>2012-09-30T08:00:17Z</time>
      </trkpt>
      <trkpt lat="42.89627" lon="1.95111">
        <ele>823</ele>
        <time>2012-09-30T08:00:20Z</time>
      </trkpt>
      <trkpt lat="42.89619" lon="1.95103">
        <ele>824</ele>
        <time>2012-09-30T08:00:25Z</time>
      </trkpt>
      <trkpt lat="42.89615" lon="1.95094">
        <ele>825</ele>
        <time>2012-09-30T08:00:29Z</time>
      </trkpt>
      <trkpt lat="42.89607" lon="1.95084">
        <ele>827</ele>
        <time>2012-09-30T08:00:35Z</time>
      </trkpt>
      <trkpt lat="42.896" lon="1.95075">
        <ele>822</ele>
        <time>2012-09-30T08:00:41Z</time>
      </trkpt>
      <trkpt lat="42.89599" lon="1.95076">
        <ele>822</ele>
        <time>2012-09-30T08:00:43Z</time>
      </trkpt>
      <trkpt lat="42.89597" lon="1.9508">
        <ele>824</ele>
        <time>2012-09-30T08:00:50Z</time>
      </trkpt>
      <trkpt lat="42.89595" lon="1.95086">
        <ele>830</ele>
        <time>2012-09-30T08:00:53Z</time>
      </trkpt>
      <trkpt lat="42.89595" lon="1.95094">
        <ele>830</ele>
        <time>2012-09-30T08:00:59Z</time>
      </trkpt>
      <trkpt lat="42.89592" lon="1.95106">
        <ele>829</ele>
        <time>2012-09-30T08:01:06Z</time>
      </trkpt>
      <trkpt lat="42.8959" lon="1.95111">
        <ele>830</ele>
        <time>2012-09-30T08:01:08Z</time>
      </trkpt>
      <trkpt lat="42.89589" lon="1.9512">
        <ele>830</ele>
        <time>2012-09-30T08:01:14Z</time>
      </trkpt>
      <trkpt lat="42.89589" lon="1.95125">
        <ele>831</ele>
        <time>2012-09-30T08:01:20Z</time>
      </trkpt>
      <trkpt lat="42.89589" lon="1.95128">
        <ele>831</ele>
        <time>2012-09-30T08:01:27Z</time>
      </trkpt>
      <trkpt lat="42.89588" lon="1.95134">
        <ele>832</ele>
        <time>2012-09-30T08:01:32Z</time>
      </trkpt>
      <trkpt lat="42.89587" lon="1.95138">
        <ele>834</ele>
        <time>2012-09-30T08:01:36Z</time>
      </trkpt>
      <trkpt lat="42.89589" lon="1.95145">
        <ele>835</ele>
        <time>2012-09-30T08:01:41Z</time>
      </trkpt>
      <trkpt lat="42.89589" lon="1.95147">
        <ele>836</ele>
        <time>2012-09-30T08:01:43Z</time>
      </trkpt>
      <trkpt lat="42.8959" lon="1.95159">
        <ele>841</ele>
        <time>2012-09-30T08:01:49Z</time>
      </trkpt>
      <trkpt lat="42.89592" lon="1.95165">
        <ele>842</ele>
        <time>2012-09-30T08:01:54Z</time>
      </trkpt>
      <trkpt lat="42.89593" lon="1.9517">
        <ele>846</ele>
        <time>2012-09-30T08:01:59Z</time>
      </trkpt>
      <trkpt lat="42.89593" lon="1.95178">
        <ele>845</ele>
        <time>2012-09-30T08:02:04Z</time>
      </trkpt>
      <trkpt lat="42.89594" lon="1.95182">
        <ele>845</ele>
        <time>2012-09-30T08:02:09Z</time>
      </trkpt>
      <trkpt lat="42.89597" lon="1.95192">
        <ele>844</ele>
        <time>2012-09-30T08:02:15Z</time>
      </trkpt>
      <trkpt lat="42.89601" lon="1.95199">
        <ele>843</ele>
        <time>2012-09-30T08:02:20Z</time>
      </trkpt>
      <trkpt lat="42.89603" lon="1.95209">
        <ele>844</ele>
        <time>2012-09-30T08:02:25Z</time>
      </trkpt>
      <trkpt lat="42.89608" lon="1.95222">
        <ele>845</ele>
        <time>2012-09-30T08:02:33Z</time>
      </trkpt>
      <trkpt lat="42.89611" lon="1.95231">
        <ele>846</ele>
        <time>2012-09-30T08:02:38Z</time>
      </trkpt>
      <trkpt lat="42.89614" lon="1.95242">
        <ele>846</ele>
        <time>2012-09-30T08:02:46Z</time>
      </trkpt>
      <trkpt lat="42.89616" lon="1.95245">
        <ele>845</ele>
        <time>2012-09-30T08:02:48Z</time>
      </trkpt>
      <trkpt lat="42.89619" lon="1.95251">
        <ele>854</ele>
        <time>2012-09-30T08:02:52Z</time>
      </trkpt>
      <trkpt lat="42.89618" lon="1.95253">
        <ele>855</ele>
        <time>2012-09-30T08:02:57Z</time>
      </trkpt>
      <trkpt lat="42.89613" lon="1.95253">
        <ele>856</ele>
        <time>2012-09-30T08:03:04Z</time>
      </trkpt>
      <trkpt lat="42.8961" lon="1.95248">
        <ele>848</ele>
        <time>2012-09-30T08:03:09Z</time>
      </trkpt>
      <trkpt lat="42.89605" lon="1.95247">
        <ele>850</ele>
        <time>2012-09-30T08:03:14Z</time>
      </trkpt>
      <trkpt lat="42.89599" lon="1.95244">
        <ele>852</ele>
        <time>2012-09-30T08:03:19Z</time>
      </trkpt>
      <trkpt lat="42.89598" lon="1.95243">
        <ele>852</ele>
        <time>2012-09-30T08:03:20Z</time>
      </trkpt>
      <trkpt lat="42.89593" lon="1.95238">
        <ele>853</ele>
        <time>2012-09-30T08:03:25Z</time>
      </trkpt>
      <trkpt lat="42.89587" lon="1.95231">
        <ele>852</ele>
        <time>2012-09-30T08:03:32Z</time>
      </trkpt>
      <trkpt lat="42.8958" lon="1.95223">
        <ele>869</ele>
        <time>2012-09-30T08:03:39Z</time>
      </trkpt>
      <trkpt lat="42.89574" lon="1.95217">
        <ele>869</ele>
        <time>2012-09-30T08:03:46Z</time>
      </trkpt>
      <trkpt lat="42.8957" lon="1.95212">
        <ele>869</ele>
        <time>2012-09-30T08:03:50Z</time>
      </trkpt>
      <trkpt lat="42.89565" lon="1.95205">
        <ele>869</ele>
        <time>2012-09-30T08:03:56Z</time>
      </trkpt>
      <trkpt lat="42.8956" lon="1.952">
        <ele>869</ele>
        <time>2012-09-30T08:04:01Z</time>
      </trkpt>
      <trkpt lat="42.89558" lon="1.95198">
        <ele>869</ele>
        <time>2012-09-30T08:04:03Z</time>
      </trkpt>
      <trkpt lat="42.8955" lon="1.95189">
        <ele>870</ele>
        <time>2012-09-30T08:04:11Z</time>
      </trkpt>
      <trkpt lat="42.89546" lon="1.95184">
        <ele>870</ele>
        <time>2012-09-30T08:04:15Z</time>
      </trkpt>
      <trkpt lat="42.89541" lon="1.9518">
        <ele>871</ele>
        <time>2012-09-30T08:04:19Z</time>
      </trkpt>
      <trkpt lat="42.89538" lon="1.95178">
        <ele>872</ele>
        <time>2012-09-30T08:04:23Z</time>
      </trkpt>
      <trkpt lat="42.89531" lon="1.95169">
        <ele>873</ele>
        <time>2012-09-30T08:04:30Z</time>
      </trkpt>
      <trkpt lat="42.89524" lon="1.95165">
        <ele>866</ele>
        <time>2012-09-30T08:04:36Z</time>
      </trkpt>
      <trkpt lat="42.89523" lon="1.95161">
        <ele>866</ele>
        <time>2012-09-30T08:04:39Z</time>
      </trkpt>
      <trkpt lat="42.89518" lon="1.95157">
        <ele>868</ele>
        <time>2012-09-30T08:04:44Z</time>
      </trkpt>
      <trkpt lat="42.89515" lon="1.95156">
        <ele>869</ele>
        <time>2012-09-30T08:04:46Z</time>
      </trkpt>
      <trkpt lat="42.89512" lon="1.95153">
        <ele>869</ele>
        <time>2012-09-30T08:04:50Z</time>
      </trkpt>
      <trkpt lat="42.89508" lon="1.95149">
        <ele>869</ele>
        <time>2012-09-30T08:04:55Z</time>
      </trkpt>
      <trkpt lat="42.89501" lon="1.95152">
        <ele>871</ele>
        <time>2012-09-30T08:05:02Z</time>
      </trkpt>
      <trkpt lat="42.89496" lon="1.95153">
        <ele>880</ele>
        <time>2012-09-30T08:05:07Z</time>
      </trkpt>
      <trkpt lat="42.89492" lon="1.95153">
        <ele>880</ele>
        <time>2012-09-30T08:05:10Z</time>
      </trkpt>
      <trkpt lat="42.89485" lon="1.95155">
        <ele>880</ele>
        <time>2012-09-30T08:05:16Z</time>
      </trkpt>
      <trkpt lat="42.89477" lon="1.95156">
        <ele>880</ele>
        <time>2012-09-30T08:05:20Z</time>
      </trkpt>
      <trkpt lat="42.89474" lon="1.95155">
        <ele>880</ele>
        <time>2012-09-30T08:05:22Z</time>
      </trkpt>
      <trkpt lat="42.89464" lon="1.95153">
        <ele>881</ele>
        <time>2012-09-30T08:05:27Z</time>
      </trkpt>
      <trkpt lat="42.89456" lon="1.9515">
        <ele>882</ele>
        <time>2012-09-30T08:05:30Z</time>
      </trkpt>
      <trkpt lat="42.89441" lon="1.95142">
        <ele>882</ele>
        <time>2012-09-30T08:05:36Z</time>
      </trkpt>
      <trkpt lat="42.89431" lon="1.95132">
        <ele>882</ele>
        <time>2012-09-30T08:05:41Z</time>
      </trkpt>
      <trkpt lat="42.89426" lon="1.9513">
        <ele>882</ele>
        <time>2012-09-30T08:05:43Z</time>
      </trkpt>
      <trkpt lat="42.89418" lon="1.95121">
        <ele>880</ele>
        <time>2012-09-30T08:05:47Z</time>
      </trkpt>
      <trkpt lat="42.89405" lon="1.95111">
        <ele>882</ele>
        <time>2012-09-30T08:05:53Z</time>
      </trkpt>
      <trkpt lat="42.89395" lon="1.95109">
        <ele>882</ele>
        <time>2012-09-30T08:05:57Z</time>
      </trkpt>
      <trkpt lat="42.89375" lon="1.95111">
        <ele>883</ele>
        <time>2012-09-30T08:06:04Z</time>
      </trkpt>
      <trkpt lat="42.89363" lon="1.95113">
        <ele>883</ele>
        <time>2012-09-30T08:06:08Z</time>
      </trkpt>
      <trkpt lat="42.89352" lon="1.95116">
        <ele>883</ele>
        <time>2012-09-30T08:06:12Z</time>
      </trkpt>
      <trkpt lat="42.89341" lon="1.95115">
        <ele>883</ele>
        <time>2012-09-30T08:06:16Z</time>
      </trkpt>
      <trkpt lat="42.89338" lon="1.95115">
        <ele>883</ele>
        <time>2012-09-30T08:06:17Z</time>
      </trkpt>
      <trkpt lat="42.89322" lon="1.95117">
        <ele>879</ele>
        <time>2012-09-30T08:06:23Z</time>
      </trkpt>
      <trkpt lat="42.89307" lon="1.95118">
        <ele>879</ele>
        <time>2012-09-30T08:06:28Z</time>
      </trkpt>
      <trkpt lat="42.89293" lon="1.95117">
        <ele>878</ele>
        <time>2012-09-30T08:06:33Z</time>
      </trkpt>
      <trkpt lat="42.89283" lon="1.95115">
        <ele>877</ele>
        <time>2012-09-30T08:06:37Z</time>
      </trkpt>
      <trkpt lat="42.8927" lon="1.95112">
        <ele>876</ele>
        <time>2012-09-30T08:06:42Z</time>
      </trkpt>
      <trkpt lat="42.89256" lon="1.95119">
        <ele>876</ele>
        <time>2012-09-30T08:06:47Z</time>
      </trkpt>
      <trkpt lat="42.89244" lon="1.95129">
        <ele>867</ele>
        <time>2012-09-30T08:06:51Z</time>
      </trkpt>
      <trkpt lat="42.89233" lon="1.95137">
        <ele>867</ele>
        <time>2012-09-30T08:06:55Z</time>
      </trkpt>
      <trkpt lat="42.89216" lon="1.95149">
        <ele>866</ele>
        <time>2012-09-30T08:07:01Z</time>
      </trkpt>
      <trkpt lat="42.8921" lon="1.95162">
        <ele>865</ele>
        <time>2012-09-30T08:07:05Z</time>
      </trkpt>
      <trkpt lat="42.89199" lon="1.95178">
        <ele>868</ele>
        <time>2012-09-30T08:07:10Z</time>
      </trkpt>
      <trkpt lat="42.89197" lon="1.95185">
        <ele>868</ele>
        <time>2012-09-30T08:07:12Z</time>
      </trkpt>
      <trkpt lat="42.89196" lon="1.95198">
        <ele>868</ele>
        <time>2012-09-30T08:07:17Z</time>
      </trkpt>
      <trkpt lat="42.89194" lon="1.95212">
        <ele>869</ele>
        <time>2012-09-30T08:07:21Z</time>
      </trkpt>
      <trkpt lat="42.89193" lon="1.95216">
        <ele>869</ele>
        <time>2012-09-30T08:07:22Z</time>
      </trkpt>
      <trkpt lat="42.89182" lon="1.95232">
        <ele>869</ele>
        <time>2012-09-30T08:07:27Z</time>
      </trkpt>
      <trkpt lat="42.89172" lon="1.95244">
        <ele>868</ele>
        <time>2012-09-30T08:07:31Z</time>
      </trkpt>
      <trkpt lat="42.89167" lon="1.95251">
        <ele>868</ele>
        <time>2012-09-30T08:07:33Z</time>
      </trkpt>
      <trkpt lat="42.89162" lon="1.95272">
        <ele>867</ele>
        <time>2012-09-30T08:07:39Z</time>
      </trkpt>
      <trkpt lat="42.89155" lon="1.95292">
        <ele>867</ele>
        <time>2012-09-30T08:07:44Z</time>
      </trkpt>
      <trkpt lat="42.89143" lon="1.95294">
        <ele>867</ele>
        <time>2012-09-30T08:07:48Z</time>
      </trkpt>
      <trkpt lat="42.89132" lon="1.95284">
        <ele>867</ele>
        <time>2012-09-30T08:07:52Z</time>
      </trkpt>
      <trkpt lat="42.89117" lon="1.95275">
        <ele>867</ele>
        <time>2012-09-30T08:07:57Z</time>
      </trkpt>
      <trkpt lat="42.89104" lon="1.95266">
        <ele>866</ele>
        <time>2012-09-30T08:08:02Z</time>
      </trkpt>
      <trkpt lat="42.89095" lon="1.9525">
        <ele>866</ele>
        <time>2012-09-30T08:08:08Z</time>
      </trkpt>
      <trkpt lat="42.89089" lon="1.95245">
        <ele>864</ele>
        <time>2012-09-30T08:08:12Z</time>
      </trkpt>
      <trkpt lat="42.8907" lon="1.95243">
        <ele>861</ele>
        <time>2012-09-30T08:08:19Z</time>
      </trkpt>
      <trkpt lat="42.89059" lon="1.95246">
        <ele>860</ele>
        <time>2012-09-30T08:08:23Z</time>
      </trkpt>
      <trkpt lat="42.89045" lon="1.95254">
        <ele>862</ele>
        <time>2012-09-30T08:08:29Z</time>
      </trkpt>
      <trkpt lat="42.89032" lon="1.95261">
        <ele>861</ele>
        <time>2012-09-30T08:08:35Z</time>
      </trkpt>
      <trkpt lat="42.89018" lon="1.95269">
        <ele>861</ele>
        <time>2012-09-30T08:08:40Z</time>
      </trkpt>
      <trkpt lat="42.89001" lon="1.95278">
        <ele>860</ele>
        <time>2012-09-30T08:08:46Z</time>
      </trkpt>
      <trkpt lat="42.88987" lon="1.95283">
        <ele>859</ele>
        <time>2012-09-30T08:08:51Z</time>
      </trkpt>
      <trkpt lat="42.88983" lon="1.95286">
        <ele>859</ele>
        <time>2012-09-30T08:08:53Z</time>
      </trkpt>
      <trkpt lat="42.88972" lon="1.95295">
        <ele>859</ele>
        <time>2012-09-30T08:08:58Z</time>
      </trkpt>
      <trkpt lat="42.88964" lon="1.953">
        <ele>859</ele>
        <time>2012-09-30T08:09:03Z</time>
      </trkpt>
      <trkpt lat="42.88962" lon="1.95299">
        <ele>859</ele>
        <time>2012-09-30T08:09:08Z</time>
      </trkpt>
      <trkpt lat="42.88962" lon="1.95299">
        <ele>859</ele>
        <time>2012-09-30T08:09:13Z</time>
      </trkpt>
      <trkpt lat="42.88964" lon="1.95296">
        <ele>859</ele>
        <time>2012-09-30T08:09:22Z</time>
      </trkpt>
      <trkpt lat="42.88963" lon="1.95296">
        <ele>859</ele>
        <time>2012-09-30T08:09:31Z</time>
      </trkpt>
      <trkpt lat="42.88963" lon="1.95296">
        <ele>859</ele>
        <time>2012-09-30T08:09:40Z</time>
      </trkpt>
      <trkpt lat="42.88961" lon="1.95296">
        <ele>859</ele>
        <time>2012-09-30T08:09:46Z</time>
      </trkpt>
      <trkpt lat="42.88953" lon="1.95303">
        <ele>859</ele>
        <time>2012-09-30T08:09:51Z</time>
      </trkpt>
      <trkpt lat="42.88941" lon="1.95314">
        <ele>859</ele>
        <time>2012-09-30T08:09:56Z</time>
      </trkpt>
      <trkpt lat="42.88926" lon="1.95318">
        <ele>859</ele>
        <time>2012-09-30T08:10:02Z</time>
      </trkpt>
      <trkpt lat="42.88907" lon="1.95319">
        <ele>860</ele>
        <time>2012-09-30T08:10:09Z</time>
      </trkpt>
      <trkpt lat="42.88895" lon="1.95315">
        <ele>860</ele>
        <time>2012-09-30T08:10:14Z</time>
      </trkpt>
      <trkpt lat="42.8888" lon="1.95311">
        <ele>861</ele>
        <time>2012-09-30T08:10:20Z</time>
      </trkpt>
      <trkpt lat="42.88867" lon="1.95306">
        <ele>861</ele>
        <time>2012-09-30T08:10:25Z</time>
      </trkpt>
      <trkpt lat="42.88857" lon="1.95302">
        <ele>861</ele>
        <time>2012-09-30T08:10:29Z</time>
      </trkpt>
      <trkpt lat="42.88845" lon="1.953">
        <ele>861</ele>
        <time>2012-09-30T08:10:34Z</time>
      </trkpt>
      <trkpt lat="42.88828" lon="1.95299">
        <ele>858</ele>
        <time>2012-09-30T08:10:40Z</time>
      </trkpt>
      <trkpt lat="42.88815" lon="1.95302">
        <ele>858</ele>
        <time>2012-09-30T08:10:45Z</time>
      </trkpt>
      <trkpt lat="42.88802" lon="1.95304">
        <ele>857</ele>
        <time>2012-09-30T08:10:50Z</time>
      </trkpt>
      <trkpt lat="42.88786" lon="1.9531">
        <ele>857</ele>
        <time>2012-09-30T08:10:56Z</time>
      </trkpt>
      <trkpt lat="42.88781" lon="1.95313">
        <ele>857</ele>
        <time>2012-09-30T08:10:58Z</time>
      </trkpt>
      <trkpt lat="42.88768" lon="1.95315">
        <ele>857</ele>
        <time>2012-09-30T08:11:04Z</time>
      </trkpt>
      <trkpt lat="42.88766" lon="1.95315">
        <ele>857</ele>
        <time>2012-09-30T08:11:05Z</time>
      </trkpt>
      <trkpt lat="42.88759" lon="1.95318">
        <ele>858</ele>
        <time>2012-09-30T08:11:11Z</time>
      </trkpt>
      <trkpt lat="42.88757" lon="1.95319">
        <ele>858</ele>
        <time>2012-09-30T08:11:15Z</time>
      </trkpt>
      <trkpt lat="42.88759" lon="1.95319">
        <ele>858</ele>
        <time>2012-09-30T08:11:25Z</time>
      </trkpt>
      <trkpt lat="42.8876" lon="1.95318">
        <ele>858</ele>
        <time>2012-09-30T08:11:32Z</time>
      </trkpt>
      <trkpt lat="42.88761" lon="1.95317">
        <ele>858</ele>
        <time>2012-09-30T08:11:39Z</time>
      </trkpt>
      <trkpt lat="42.88761" lon="1.95314">
        <ele>857</ele>
        <time>2012-09-30T08:11:49Z</time>
      </trkpt>
      <trkpt lat="42.8876" lon="1.95313">
        <ele>857</ele>
        <time>2012-09-30T08:11:57Z</time>
      </trkpt>
      <trkpt lat="42.8876" lon="1.95313">
        <ele>857</ele>
        <time>2012-09-30T08:12:04Z</time>
      </trkpt>
      <trkpt lat="42.88761" lon="1.95312">
        <ele>857</ele>
        <time>2012-09-30T08:12:10Z</time>
      </trkpt>
      <trkpt lat="42.88763" lon="1.95312">
        <ele>857</ele>
        <time>2012-09-30T08:12:22Z</time>
      </trkpt>
      <trkpt lat="42.88767" lon="1.95313">
        <ele>857</ele>
        <time>2012-09-30T08:12:27Z</time>
      </trkpt>
      <trkpt lat="42.88768" lon="1.95313">
        <ele>857</ele>
        <time>2012-09-30T08:12:34Z</time>
      </trkpt>
      <trkpt lat="42.88769" lon="1.95311">
        <ele>857</ele>
        <time>2012-09-30T08:12:42Z</time>
      </trkpt>
      <trkpt lat="42.88773" lon="1.95314">
        <ele>857</ele>
        <time>2012-09-30T08:12:48Z</time>
      </trkpt>
      <trkpt lat="42.88775" lon="1.95316">
        <ele>857</ele>
        <time>2012-09-30T08:12:51Z</time>
      </trkpt>
      <trkpt lat="42.88776" lon="1.9532">
        <ele>858</ele>
        <time>2012-09-30T08:12:56Z</time>
      </trkpt>
      <trkpt lat="42.88775" lon="1.95322">
        <ele>858</ele>
        <time>2012-09-30T08:13:01Z</time>
      </trkpt>
      <trkpt lat="42.88774" lon="1.95329">
        <ele>858</ele>
        <time>2012-09-30T08:13:09Z</time>
      </trkpt>
      <trkpt lat="42.88774" lon="1.95337">
        <ele>866</ele>
        <time>2012-09-30T08:13:14Z</time>
      </trkpt>
      <trkpt lat="42.88773" lon="1.95351">
        <ele>867</ele>
        <time>2012-09-30T08:13:22Z</time>
      </trkpt>
      <trkpt lat="42.88773" lon="1.95362">
        <ele>869</ele>
        <time>2012-09-30T08:13:28Z</time>
      </trkpt>
      <trkpt lat="42.88771" lon="1.95373">
        <ele>870</ele>
        <time>2012-09-30T08:13:34Z</time>
      </trkpt>
      <trkpt lat="42.8877" lon="1.95381">
        <ele>872</ele>
        <time>2012-09-30T08:13:39Z</time>
      </trkpt>
      <trkpt lat="42.88771" lon="1.95397">
        <ele>874</ele>
        <time>2012-09-30T08:13:47Z</time>
      </trkpt>
      <trkpt lat="42.88772" lon="1.9541">
        <ele>876</ele>
        <time>2012-09-30T08:13:54Z</time>
      </trkpt>
      <trkpt lat="42.88773" lon="1.95412">
        <ele>876</ele>
        <time>2012-09-30T08:13:55Z</time>
      </trkpt>
      <trkpt lat="42.88773" lon="1.9542">
        <ele>885</ele>
        <time>2012-09-30T08:14:01Z</time>
      </trkpt>
      <trkpt lat="42.88771" lon="1.9543">
        <ele>886</ele>
        <time>2012-09-30T08:14:08Z</time>
      </trkpt>
      <trkpt lat="42.88771" lon="1.95431">
        <ele>886</ele>
        <time>2012-09-30T08:14:09Z</time>
      </trkpt>
      <trkpt lat="42.88771" lon="1.95436">
        <ele>886</ele>
        <time>2012-09-30T08:14:13Z</time>
      </trkpt>
      <trkpt lat="42.8877" lon="1.95445">
        <ele>887</ele>
        <time>2012-09-30T08:14:19Z</time>
      </trkpt>
      <trkpt lat="42.88772" lon="1.95456">
        <ele>888</ele>
        <time>2012-09-30T08:14:25Z</time>
      </trkpt>
      <trkpt lat="42.88773" lon="1.95459">
        <ele>888</ele>
        <time>2012-09-30T08:14:27Z</time>
      </trkpt>
      <trkpt lat="42.88772" lon="1.95465">
        <ele>889</ele>
        <time>2012-09-30T08:14:31Z</time>
      </trkpt>
      <trkpt lat="42.88771" lon="1.9547">
        <ele>890</ele>
        <time>2012-09-30T08:14:37Z</time>
      </trkpt>
      <trkpt lat="42.8877" lon="1.95475">
        <ele>891</ele>
        <time>2012-09-30T08:14:43Z</time>
      </trkpt>
      <trkpt lat="42.8877" lon="1.95476">
        <ele>891</ele>
        <time>2012-09-30T08:14:44Z</time>
      </trkpt>
      <trkpt lat="42.88767" lon="1.95484">
        <ele>894</ele>
        <time>2012-09-30T08:14:51Z</time>
      </trkpt>
      <trkpt lat="42.88766" lon="1.95491">
        <ele>895</ele>
        <time>2012-09-30T08:14:57Z</time>
      </trkpt>
      <trkpt lat="42.88764" lon="1.95501">
        <ele>904</ele>
        <time>2012-09-30T08:15:05Z</time>
      </trkpt>
      <trkpt lat="42.88763" lon="1.95505">
        <ele>905</ele>
        <time>2012-09-30T08:15:12Z</time>
      </trkpt>
      <trkpt lat="42.88763" lon="1.95509">
        <ele>905</ele>
        <time>2012-09-30T08:15:17Z</time>
      </trkpt>
      <trkpt lat="42.88762" lon="1.95517">
        <ele>905</ele>
        <time>2012-09-30T08:15:24Z</time>
      </trkpt>
      <trkpt lat="42.88763" lon="1.95518">
        <ele>905</ele>
        <time>2012-09-30T08:15:26Z</time>
      </trkpt>
      <trkpt lat="42.88759" lon="1.95526">
        <ele>906</ele>
        <time>2012-09-30T08:15:32Z</time>
      </trkpt>
      <trkpt lat="42.88757" lon="1.9553">
        <ele>907</ele>
        <time>2012-09-30T08:15:36Z</time>
      </trkpt>
      <trkpt lat="42.88757" lon="1.95536">
        <ele>907</ele>
        <time>2012-09-30T08:15:42Z</time>
      </trkpt>
      <trkpt lat="42.88756" lon="1.9554">
        <ele>908</ele>
        <time>2012-09-30T08:15:46Z</time>
      </trkpt>
      <trkpt lat="42.88755" lon="1.95547">
        <ele>910</ele>
        <time>2012-09-30T08:15:52Z</time>
      </trkpt>
      <trkpt lat="42.88754" lon="1.95554">
        <ele>912</ele>
        <time>2012-09-30T08:15:59Z</time>
      </trkpt>
      <trkpt lat="42.88755" lon="1.95561">
        <ele>914</ele>
        <time>2012-09-30T08:16:05Z</time>
      </trkpt>
      <trkpt lat="42.88759" lon="1.95568">
        <ele>916</ele>
        <time>2012-09-30T08:16:08Z</time>
      </trkpt>
      <trkpt lat="42.88761" lon="1.95581">
        <ele>920</ele>
        <time>2012-09-30T08:16:14Z</time>
      </trkpt>
      <trkpt lat="42.88763" lon="1.95593">
        <ele>926</ele>
        <time>2012-09-30T08:16:21Z</time>
      </trkpt>
      <trkpt lat="42.88769" lon="1.95607">
        <ele>925</ele>
        <time>2012-09-30T08:16:30Z</time>
      </trkpt>
      <trkpt lat="42.8877" lon="1.95612">
        <ele>925</ele>
        <time>2012-09-30T08:16:37Z</time>
      </trkpt>
      <trkpt lat="42.88771" lon="1.95614">
        <ele>925</ele>
        <time>2012-09-30T08:16:47Z</time>
      </trkpt>
      <trkpt lat="42.88772" lon="1.95613">
        <ele>925</ele>
        <time>2012-09-30T08:16:59Z</time>
      </trkpt>
      <trkpt lat="42.88773" lon="1.95614">
        <ele>925</ele>
        <time>2012-09-30T08:17:10Z</time>
      </trkpt>
      <trkpt lat="42.88772" lon="1.95617">
        <ele>925</ele>
        <time>2012-09-30T08:17:17Z</time>
      </trkpt>
      <trkpt lat="42.88776" lon="1.95624">
        <ele>925</ele>
        <time>2012-09-30T08:17:22Z</time>
      </trkpt>
      <trkpt lat="42.88779" lon="1.95638">
        <ele>927</ele>
        <time>2012-09-30T08:17:28Z</time>
      </trkpt>
      <trkpt lat="42.88784" lon="1.95652">
        <ele>927</ele>
        <time>2012-09-30T08:17:34Z</time>
      </trkpt>
      <trkpt lat="42.88789" lon="1.95664">
        <ele>927</ele>
        <time>2012-09-30T08:17:39Z</time>
      </trkpt>
      <trkpt lat="42.88792" lon="1.95677">
        <ele>936</ele>
        <time>2012-09-30T08:17:45Z</time>
      </trkpt>
      <trkpt lat="42.88795" lon="1.9569">
        <ele>936</ele>
        <time>2012-09-30T08:17:50Z</time>
      </trkpt>
      <trkpt lat="42.88799" lon="1.95705">
        <ele>936</ele>
        <time>2012-09-30T08:17:55Z</time>
      </trkpt>
      <trkpt lat="42.88801" lon="1.95714">
        <ele>937</ele>
        <time>2012-09-30T08:17:58Z</time>
      </trkpt>
      <trkpt lat="42.888" lon="1.95724">
        <ele>937</ele>
        <time>2012-09-30T08:18:02Z</time>
      </trkpt>
      <trkpt lat="42.88803" lon="1.95739">
        <ele>937</ele>
        <time>2012-09-30T08:18:10Z</time>
      </trkpt>
      <trkpt lat="42.88802" lon="1.95747">
        <ele>937</ele>
        <time>2012-09-30T08:18:14Z</time>
      </trkpt>
      <trkpt lat="42.88805" lon="1.95758">
        <ele>945</ele>
        <time>2012-09-30T08:18:20Z</time>
      </trkpt>
      <trkpt lat="42.88804" lon="1.9576">
        <ele>946</ele>
        <time>2012-09-30T08:18:21Z</time>
      </trkpt>
      <trkpt lat="42.88807" lon="1.95769">
        <ele>946</ele>
        <time>2012-09-30T08:18:27Z</time>
      </trkpt>
      <trkpt lat="42.88809" lon="1.95779">
        <ele>947</ele>
        <time>2012-09-30T08:18:32Z</time>
      </trkpt>
      <trkpt lat="42.88814" lon="1.95797">
        <ele>948</ele>
        <time>2012-09-30T08:18:42Z</time>
      </trkpt>
      <trkpt lat="42.88816" lon="1.95812">
        <ele>948</ele>
        <time>2012-09-30T08:18:50Z</time>
      </trkpt>
      <trkpt lat="42.88817" lon="1.95818">
        <ele>948</ele>
        <time>2012-09-30T08:18:53Z</time>
      </trkpt>
      <trkpt lat="42.88817" lon="1.95826">
        <ele>948</ele>
        <time>2012-09-30T08:18:57Z</time>
      </trkpt>
      <trkpt lat="42.88818" lon="1.95835">
        <ele>954</ele>
        <time>2012-09-30T08:19:02Z</time>
      </trkpt>
      <trkpt lat="42.88818" lon="1.95836">
        <ele>954</ele>
        <time>2012-09-30T08:19:03Z</time>
      </trkpt>
      <trkpt lat="42.88819" lon="1.9584">
        <ele>954</ele>
        <time>2012-09-30T08:19:05Z</time>
      </trkpt>
      <trkpt lat="42.88818" lon="1.95851">
        <ele>958</ele>
        <time>2012-09-30T08:19:09Z</time>
      </trkpt>
      <trkpt lat="42.88822" lon="1.95862">
        <ele>960</ele>
        <time>2012-09-30T08:19:15Z</time>
      </trkpt>
      <trkpt lat="42.88823" lon="1.95863">
        <ele>960</ele>
        <time>2012-09-30T08:19:16Z</time>
      </trkpt>
      <trkpt lat="42.88825" lon="1.95874">
        <ele>962</ele>
        <time>2012-09-30T08:19:23Z</time>
      </trkpt>
      <trkpt lat="42.88827" lon="1.95879">
        <ele>963</ele>
        <time>2012-09-30T08:19:26Z</time>
      </trkpt>
      <trkpt lat="42.88831" lon="1.95893">
        <ele>964</ele>
        <time>2012-09-30T08:19:34Z</time>
      </trkpt>
      <trkpt lat="42.88832" lon="1.95906">
        <ele>963</ele>
        <time>2012-09-30T08:19:41Z</time>
      </trkpt>
      <trkpt lat="42.88835" lon="1.95916">
        <ele>959</ele>
        <time>2012-09-30T08:19:48Z</time>
      </trkpt>
      <trkpt lat="42.88839" lon="1.95928">
        <ele>955</ele>
        <time>2012-09-30T08:19:55Z</time>
      </trkpt>
      <trkpt lat="42.8884" lon="1.95943">
        <ele>953</ele>
        <time>2012-09-30T08:20:03Z</time>
      </trkpt>
      <trkpt lat="42.88842" lon="1.95957">
        <ele>953</ele>
        <time>2012-09-30T08:20:11Z</time>
      </trkpt>
      <trkpt lat="42.88842" lon="1.95974">
        <ele>956</ele>
        <time>2012-09-30T08:20:21Z</time>
      </trkpt>
      <trkpt lat="42.8884" lon="1.95986">
        <ele>962</ele>
        <time>2012-09-30T08:20:28Z</time>
      </trkpt>
      <trkpt lat="42.8884" lon="1.95996">
        <ele>967</ele>
        <time>2012-09-30T08:20:35Z</time>
      </trkpt>
      <trkpt lat="42.8884" lon="1.96002">
        <ele>971</ele>
        <time>2012-09-30T08:20:40Z</time>
      </trkpt>
      <trkpt lat="42.88839" lon="1.96011">
        <ele>967</ele>
        <time>2012-09-30T08:20:45Z</time>
      </trkpt>
      <trkpt lat="42.8884" lon="1.96022">
        <ele>964</ele>
        <time>2012-09-30T08:20:51Z</time>
      </trkpt>
      <trkpt lat="42.88838" lon="1.96031">
        <ele>963</ele>
        <time>2012-09-30T08:20:56Z</time>
      </trkpt>
      <trkpt lat="42.88839" lon="1.96046">
        <ele>963</ele>
        <time>2012-09-30T08:21:03Z</time>
      </trkpt>
      <trkpt lat="42.8884" lon="1.96053">
        <ele>964</ele>
        <time>2012-09-30T08:21:07Z</time>
      </trkpt>
      <trkpt lat="42.88839" lon="1.96062">
        <ele>966</ele>
        <time>2012-09-30T08:21:11Z</time>
      </trkpt>
      <trkpt lat="42.88834" lon="1.96075">
        <ele>973</ele>
        <time>2012-09-30T08:21:18Z</time>
      </trkpt>
      <trkpt lat="42.88833" lon="1.96086">
        <ele>983</ele>
        <time>2012-09-30T08:21:24Z</time>
      </trkpt>
      <trkpt lat="42.88834" lon="1.96088">
        <ele>976</ele>
        <time>2012-09-30T08:21:25Z</time>
      </trkpt>
      <trkpt lat="42.88832" lon="1.961">
        <ele>990</ele>
        <time>2012-09-30T08:21:32Z</time>
      </trkpt>
      <trkpt lat="42.88829" lon="1.96113">
        <ele>993</ele>
        <time>2012-09-30T08:21:40Z</time>
      </trkpt>
      <trkpt lat="42.88824" lon="1.96126">
        <ele>994</ele>
        <time>2012-09-30T08:21:47Z</time>
      </trkpt>
      <trkpt lat="42.88827" lon="1.96134">
        <ele>993</ele>
        <time>2012-09-30T08:21:52Z</time>
      </trkpt>
      <trkpt lat="42.88824" lon="1.96148">
        <ele>991</ele>
        <time>2012-09-30T08:21:58Z</time>
      </trkpt>
      <trkpt lat="42.88822" lon="1.96158">
        <ele>989</ele>
        <time>2012-09-30T08:22:04Z</time>
      </trkpt>
      <trkpt lat="42.8882" lon="1.96157">
        <ele>990</ele>
        <time>2012-09-30T08:22:20Z</time>
      </trkpt>
      <trkpt lat="42.88821" lon="1.96158">
        <ele>989</ele>
        <time>2012-09-30T08:22:36Z</time>
      </trkpt>
      <trkpt lat="42.88821" lon="1.96159">
        <ele>989</ele>
        <time>2012-09-30T08:22:41Z</time>
      </trkpt>
      <trkpt lat="42.8882" lon="1.96161">
        <ele>989</ele>
        <time>2012-09-30T08:22:46Z</time>
      </trkpt>
      <trkpt lat="42.88827" lon="1.96162">
        <ele>986</ele>
        <time>2012-09-30T08:23:13Z</time>
      </trkpt>
      <trkpt lat="42.88824" lon="1.96161">
        <ele>987</ele>
        <time>2012-09-30T08:23:22Z</time>
      </trkpt>
      <trkpt lat="42.88823" lon="1.9616">
        <ele>988</ele>
        <time>2012-09-30T08:23:29Z</time>
      </trkpt>
      <trkpt lat="42.88822" lon="1.96158">
        <ele>989</ele>
        <time>2012-09-30T08:23:53Z</time>
      </trkpt>
      <trkpt lat="42.88822" lon="1.96159">
        <ele>989</ele>
        <time>2012-09-30T08:23:57Z</time>
      </trkpt>
      <trkpt lat="42.8882" lon="1.96162">
        <ele>989</ele>
        <time>2012-09-30T08:24:04Z</time>
      </trkpt>
      <trkpt lat="42.8882" lon="1.96163">
        <ele>989</ele>
        <time>2012-09-30T08:24:06Z</time>
      </trkpt>
      <trkpt lat="42.88821" lon="1.96169">
        <ele>987</ele>
        <time>2012-09-30T08:24:12Z</time>
      </trkpt>
      <trkpt lat="42.8882" lon="1.96175">
        <ele>988</ele>
        <time>2012-09-30T08:24:17Z</time>
      </trkpt>
      <trkpt lat="42.88818" lon="1.96181">
        <ele>990</ele>
        <time>2012-09-30T08:24:22Z</time>
      </trkpt>
      <trkpt lat="42.88816" lon="1.96189">
        <ele>991</ele>
        <time>2012-09-30T08:24:29Z</time>
      </trkpt>
      <trkpt lat="42.88816" lon="1.96191">
        <ele>991</ele>
        <time>2012-09-30T08:24:30Z</time>
      </trkpt>
      <trkpt lat="42.88813" lon="1.96201">
        <ele>992</ele>
        <time>2012-09-30T08:24:35Z</time>
      </trkpt>
      <trkpt lat="42.88813" lon="1.96204">
        <ele>992</ele>
        <time>2012-09-30T08:24:37Z</time>
      </trkpt>
      <trkpt lat="42.88814" lon="1.9621">
        <ele>992</ele>
        <time>2012-09-30T08:24:44Z</time>
      </trkpt>
      <trkpt lat="42.88808" lon="1.96219">
        <ele>993</ele>
        <time>2012-09-30T08:24:53Z</time>
      </trkpt>
      <trkpt lat="42.88808" lon="1.96219">
        <ele>993</ele>
        <time>2012-09-30T08:24:54Z</time>
      </trkpt>
      <trkpt lat="42.88803" lon="1.96224">
        <ele>993</ele>
        <time>2012-09-30T08:25:02Z</time>
      </trkpt>
      <trkpt lat="42.88799" lon="1.96231">
        <ele>994</ele>
        <time>2012-09-30T08:25:10Z</time>
      </trkpt>
      <trkpt lat="42.88795" lon="1.96234">
        <ele>995</ele>
        <time>2012-09-30T08:25:16Z</time>
      </trkpt>
      <trkpt lat="42.88792" lon="1.96235">
        <ele>996</ele>
        <time>2012-09-30T08:25:20Z</time>
      </trkpt>
      <trkpt lat="42.88789" lon="1.96232">
        <ele>997</ele>
        <time>2012-09-30T08:25:24Z</time>
      </trkpt>
      <trkpt lat="42.88787" lon="1.96225">
        <ele>997</ele>
        <time>2012-09-30T08:25:29Z</time>
      </trkpt>
      <trkpt lat="42.88785" lon="1.96221">
        <ele>998</ele>
        <time>2012-09-30T08:25:31Z</time>
      </trkpt>
      <trkpt lat="42.88784" lon="1.96217">
        <ele>998</ele>
        <time>2012-09-30T08:25:33Z</time>
      </trkpt>
      <trkpt lat="42.88784" lon="1.96211">
        <ele>998</ele>
        <time>2012-09-30T08:25:37Z</time>
      </trkpt>
      <trkpt lat="42.88781" lon="1.96197">
        <ele>1000</ele>
        <time>2012-09-30T08:25:44Z</time>
      </trkpt>
      <trkpt lat="42.8878" lon="1.96189">
        <ele>1001</ele>
        <time>2012-09-30T08:25:48Z</time>
      </trkpt>
      <trkpt lat="42.88775" lon="1.9618">
        <ele>1003</ele>
        <time>2012-09-30T08:25:54Z</time>
      </trkpt>
      <trkpt lat="42.88772" lon="1.96165">
        <ele>1008</ele>
        <time>2012-09-30T08:26:02Z</time>
      </trkpt>
      <trkpt lat="42.8877" lon="1.96152">
        <ele>1007</ele>
        <time>2012-09-30T08:26:08Z</time>
      </trkpt>
      <trkpt lat="42.88771" lon="1.96148">
        <ele>1007</ele>
        <time>2012-09-30T08:26:10Z</time>
      </trkpt>
      <trkpt lat="42.88764" lon="1.96131">
        <ele>1006</ele>
        <time>2012-09-30T08:26:16Z</time>
      </trkpt>
      <trkpt lat="42.88762" lon="1.96121">
        <ele>1007</ele>
        <time>2012-09-30T08:26:22Z</time>
      </trkpt>
      <trkpt lat="42.88762" lon="1.9611">
        <ele>1008</ele>
        <time>2012-09-30T08:26:26Z</time>
      </trkpt>
      <trkpt lat="42.88758" lon="1.961">
        <ele>1011</ele>
        <time>2012-09-30T08:26:32Z</time>
      </trkpt>
      <trkpt lat="42.88758" lon="1.96094">
        <ele>1013</ele>
        <time>2012-09-30T08:26:38Z</time>
      </trkpt>
      <trkpt lat="42.88758" lon="1.96084">
        <ele>1015</ele>
        <time>2012-09-30T08:26:55Z</time>
      </trkpt>
      <trkpt lat="42.88755" lon="1.9608">
        <ele>1016</ele>
        <time>2012-09-30T08:27:01Z</time>
      </trkpt>
      <trkpt lat="42.8875" lon="1.96069">
        <ele>1011</ele>
        <time>2012-09-30T08:27:06Z</time>
      </trkpt>
      <trkpt lat="42.88748" lon="1.96058">
        <ele>1020</ele>
        <time>2012-09-30T08:27:11Z</time>
      </trkpt>
      <trkpt lat="42.88743" lon="1.9605">
        <ele>1019</ele>
        <time>2012-09-30T08:27:17Z</time>
      </trkpt>
      <trkpt lat="42.88743" lon="1.96042">
        <ele>1019</ele>
        <time>2012-09-30T08:27:20Z</time>
      </trkpt>
      <trkpt lat="42.88743" lon="1.96035">
        <ele>1018</ele>
        <time>2012-09-30T08:27:23Z</time>
      </trkpt>
      <trkpt lat="42.88741" lon="1.96032">
        <ele>1018</ele>
        <time>2012-09-30T08:27:25Z</time>
      </trkpt>
      <trkpt lat="42.88739" lon="1.96026">
        <ele>1017</ele>
        <time>2012-09-30T08:27:30Z</time>
      </trkpt>
      <trkpt lat="42.88736" lon="1.96018">
        <ele>1016</ele>
        <time>2012-09-30T08:27:36Z</time>
      </trkpt>
      <trkpt lat="42.88735" lon="1.96011">
        <ele>1015</ele>
        <time>2012-09-30T08:27:40Z</time>
      </trkpt>
      <trkpt lat="42.88732" lon="1.96005">
        <ele>1015</ele>
        <time>2012-09-30T08:27:47Z</time>
      </trkpt>
      <trkpt lat="42.88729" lon="1.96">
        <ele>1015</ele>
        <time>2012-09-30T08:27:52Z</time>
      </trkpt>
      <trkpt lat="42.88728" lon="1.95997">
        <ele>1009</ele>
        <time>2012-09-30T08:27:58Z</time>
      </trkpt>
      <trkpt lat="42.88726" lon="1.95994">
        <ele>1009</ele>
        <time>2012-09-30T08:28:03Z</time>
      </trkpt>
      <trkpt lat="42.88721" lon="1.95989">
        <ele>1009</ele>
        <time>2012-09-30T08:28:08Z</time>
      </trkpt>
      <trkpt lat="42.88719" lon="1.95987">
        <ele>1009</ele>
        <time>2012-09-30T08:28:09Z</time>
      </trkpt>
      <trkpt lat="42.88716" lon="1.95985">
        <ele>1009</ele>
        <time>2012-09-30T08:28:11Z</time>
      </trkpt>
      <trkpt lat="42.88707" lon="1.95973">
        <ele>1009</ele>
        <time>2012-09-30T08:28:17Z</time>
      </trkpt>
      <trkpt lat="42.88703" lon="1.95971">
        <ele>1009</ele>
        <time>2012-09-30T08:28:20Z</time>
      </trkpt>
      <trkpt lat="42.887" lon="1.95968">
        <ele>1009</ele>
        <time>2012-09-30T08:28:22Z</time>
      </trkpt>
      <trkpt lat="42.88685" lon="1.95954">
        <ele>1008</ele>
        <time>2012-09-30T08:28:29Z</time>
      </trkpt>
      <trkpt lat="42.88674" lon="1.95951">
        <ele>1008</ele>
        <time>2012-09-30T08:28:33Z</time>
      </trkpt>
      <trkpt lat="42.88662" lon="1.95948">
        <ele>1005</ele>
        <time>2012-09-30T08:28:37Z</time>
      </trkpt>
      <trkpt lat="42.88654" lon="1.95942">
        <ele>1004</ele>
        <time>2012-09-30T08:28:42Z</time>
      </trkpt>
      <trkpt lat="42.88645" lon="1.95934">
        <ele>1003</ele>
        <time>2012-09-30T08:28:47Z</time>
      </trkpt>
      <trkpt lat="42.88636" lon="1.95927">
        <ele>1002</ele>
        <time>2012-09-30T08:28:52Z</time>
      </trkpt>
      <trkpt lat="42.88629" lon="1.95924">
        <ele>1001</ele>
        <time>2012-09-30T08:28:55Z</time>
      </trkpt>
      <trkpt lat="42.88618" lon="1.95925">
        <ele>999</ele>
        <time>2012-09-30T08:29:00Z</time>
      </trkpt>
      <trkpt lat="42.88607" lon="1.95926">
        <ele>997</ele>
        <time>2012-09-30T08:29:04Z</time>
      </trkpt>
      <trkpt lat="42.88599" lon="1.95931">
        <ele>996</ele>
        <time>2012-09-30T08:29:08Z</time>
      </trkpt>
      <trkpt lat="42.88597" lon="1.95932">
        <ele>995</ele>
        <time>2012-09-30T08:29:09Z</time>
      </trkpt>
      <trkpt lat="42.88581" lon="1.95937">
        <ele>982</ele>
        <time>2012-09-30T08:29:15Z</time>
      </trkpt>
      <trkpt lat="42.8857" lon="1.95949">
        <ele>981</ele>
        <time>2012-09-30T08:29:21Z</time>
      </trkpt>
      <trkpt lat="42.88568" lon="1.95956">
        <ele>981</ele>
        <time>2012-09-30T08:29:23Z</time>
      </trkpt>
      <trkpt lat="42.88565" lon="1.95976">
        <ele>984</ele>
        <time>2012-09-30T08:29:28Z</time>
      </trkpt>
      <trkpt lat="42.88564" lon="1.95981">
        <ele>985</ele>
        <time>2012-09-30T08:29:29Z</time>
      </trkpt>
      <trkpt lat="42.88556" lon="1.96008">
        <ele>992</ele>
        <time>2012-09-30T08:29:37Z</time>
      </trkpt>
      <trkpt lat="42.88554" lon="1.96015">
        <ele>991</ele>
        <time>2012-09-30T08:29:40Z</time>
      </trkpt>
      <trkpt lat="42.88553" lon="1.96031">
        <ele>991</ele>
        <time>2012-09-30T08:29:45Z</time>
      </trkpt>
      <trkpt lat="42.88551" lon="1.96039">
        <ele>991</ele>
        <time>2012-09-30T08:29:48Z</time>
      </trkpt>
      <trkpt lat="42.88548" lon="1.96063">
        <ele>992</ele>
        <time>2012-09-30T08:29:55Z</time>
      </trkpt>
      <trkpt lat="42.88541" lon="1.96076">
        <ele>991</ele>
        <time>2012-09-30T08:30:00Z</time>
      </trkpt>
      <trkpt lat="42.88538" lon="1.96094">
        <ele>996</ele>
        <time>2012-09-30T08:30:06Z</time>
      </trkpt>
      <trkpt lat="42.88534" lon="1.9611">
        <ele>996</ele>
        <time>2012-09-30T08:30:11Z</time>
      </trkpt>
      <trkpt lat="42.88531" lon="1.96121">
        <ele>996</ele>
        <time>2012-09-30T08:30:14Z</time>
      </trkpt>
      <trkpt lat="42.88521" lon="1.96136">
        <ele>995</ele>
        <time>2012-09-30T08:30:19Z</time>
      </trkpt>
      <trkpt lat="42.88509" lon="1.96149">
        <ele>994</ele>
        <time>2012-09-30T08:30:24Z</time>
      </trkpt>
      <trkpt lat="42.88498" lon="1.96157">
        <ele>988</ele>
        <time>2012-09-30T08:30:28Z</time>
      </trkpt>
      <trkpt lat="42.88482" lon="1.96166">
        <ele>986</ele>
        <time>2012-09-30T08:30:33Z</time>
      </trkpt>
      <trkpt lat="42.88465" lon="1.96173">
        <ele>991</ele>
        <time>2012-09-30T08:30:39Z</time>
      </trkpt>
      <trkpt lat="42.88449" lon="1.96185">
        <ele>990</ele>
        <time>2012-09-30T08:30:46Z</time>
      </trkpt>
      <trkpt lat="42.88438" lon="1.96193">
        <ele>990</ele>
        <time>2012-09-30T08:30:51Z</time>
      </trkpt>
      <trkpt lat="42.88433" lon="1.96194">
        <ele>990</ele>
        <time>2012-09-30T08:30:53Z</time>
      </trkpt>
      <trkpt lat="42.88423" lon="1.96195">
        <ele>989</ele>
        <time>2012-09-30T08:30:57Z</time>
      </trkpt>
      <trkpt lat="42.88406" lon="1.96198">
        <ele>984</ele>
        <time>2012-09-30T08:31:03Z</time>
      </trkpt>
      <trkpt lat="42.88386" lon="1.96206">
        <ele>984</ele>
        <time>2012-09-30T08:31:09Z</time>
      </trkpt>
      <trkpt lat="42.88375" lon="1.96213">
        <ele>983</ele>
        <time>2012-09-30T08:31:13Z</time>
      </trkpt>
      <trkpt lat="42.88354" lon="1.96219">
        <ele>983</ele>
        <time>2012-09-30T08:31:18Z</time>
      </trkpt>
      <trkpt lat="42.88341" lon="1.96217">
        <ele>982</ele>
        <time>2012-09-30T08:31:23Z</time>
      </trkpt>
      <trkpt lat="42.88323" lon="1.96214">
        <ele>972</ele>
        <time>2012-09-30T08:31:28Z</time>
      </trkpt>
      <trkpt lat="42.88308" lon="1.96216">
        <ele>971</ele>
        <time>2012-09-30T08:31:33Z</time>
      </trkpt>
      <trkpt lat="42.88298" lon="1.96215">
        <ele>970</ele>
        <time>2012-09-30T08:31:38Z</time>
      </trkpt>
      <trkpt lat="42.88285" lon="1.96215">
        <ele>969</ele>
        <time>2012-09-30T08:31:43Z</time>
      </trkpt>
      <trkpt lat="42.88263" lon="1.96216">
        <ele>967</ele>
        <time>2012-09-30T08:31:49Z</time>
      </trkpt>
      <trkpt lat="42.88246" lon="1.96209">
        <ele>954</ele>
        <time>2012-09-30T08:31:54Z</time>
      </trkpt>
      <trkpt lat="42.8824" lon="1.96203">
        <ele>953</ele>
        <time>2012-09-30T08:31:57Z</time>
      </trkpt>
      <trkpt lat="42.88234" lon="1.96187">
        <ele>952</ele>
        <time>2012-09-30T08:32:02Z</time>
      </trkpt>
      <trkpt lat="42.8823" lon="1.96165">
        <ele>945</ele>
        <time>2012-09-30T08:32:07Z</time>
      </trkpt>
      <trkpt lat="42.88225" lon="1.96145">
        <ele>941</ele>
        <time>2012-09-30T08:32:12Z</time>
      </trkpt>
      <trkpt lat="42.8822" lon="1.96136">
        <ele>939</ele>
        <time>2012-09-30T08:32:15Z</time>
      </trkpt>
      <trkpt lat="42.88216" lon="1.96118">
        <ele>937</ele>
        <time>2012-09-30T08:32:20Z</time>
      </trkpt>
      <trkpt lat="42.88214" lon="1.96102">
        <ele>936</ele>
        <time>2012-09-30T08:32:24Z</time>
      </trkpt>
      <trkpt lat="42.88216" lon="1.96074">
        <ele>927</ele>
        <time>2012-09-30T08:32:31Z</time>
      </trkpt>
      <trkpt lat="42.88216" lon="1.96055">
        <ele>925</ele>
        <time>2012-09-30T08:32:36Z</time>
      </trkpt>
      <trkpt lat="42.8822" lon="1.9604">
        <ele>924</ele>
        <time>2012-09-30T08:32:40Z</time>
      </trkpt>
      <trkpt lat="42.88234" lon="1.96028">
        <ele>924</ele>
        <time>2012-09-30T08:32:45Z</time>
      </trkpt>
      <trkpt lat="42.88239" lon="1.96023">
        <ele>923</ele>
        <time>2012-09-30T08:32:47Z</time>
      </trkpt>
      <trkpt lat="42.88234" lon="1.96007">
        <ele>922</ele>
        <time>2012-09-30T08:32:52Z</time>
      </trkpt>
      <trkpt lat="42.88219" lon="1.95998">
        <ele>912</ele>
        <time>2012-09-30T08:32:57Z</time>
      </trkpt>
      <trkpt lat="42.88208" lon="1.95992">
        <ele>910</ele>
        <time>2012-09-30T08:33:01Z</time>
      </trkpt>
      <trkpt lat="42.88192" lon="1.95988">
        <ele>909</ele>
        <time>2012-09-30T08:33:06Z</time>
      </trkpt>
      <trkpt lat="42.88178" lon="1.95978">
        <ele>909</ele>
        <time>2012-09-30T08:33:11Z</time>
      </trkpt>
      <trkpt lat="42.8817" lon="1.95962">
        <ele>907</ele>
        <time>2012-09-30T08:33:16Z</time>
      </trkpt>
      <trkpt lat="42.88169" lon="1.95958">
        <ele>907</ele>
        <time>2012-09-30T08:33:17Z</time>
      </trkpt>
      <trkpt lat="42.88163" lon="1.95962">
        <ele>904</ele>
        <time>2012-09-30T08:33:21Z</time>
      </trkpt>
      <trkpt lat="42.88158" lon="1.95968">
        <ele>904</ele>
        <time>2012-09-30T08:33:24Z</time>
      </trkpt>
      <trkpt lat="42.88146" lon="1.95974">
        <ele>905</ele>
        <time>2012-09-30T08:33:29Z</time>
      </trkpt>
      <trkpt lat="42.88137" lon="1.95979">
        <ele>905</ele>
        <time>2012-09-30T08:33:36Z</time>
      </trkpt>
      <trkpt lat="42.88131" lon="1.95993">
        <ele>905</ele>
        <time>2012-09-30T08:33:42Z</time>
      </trkpt>
      <trkpt lat="42.88129" lon="1.95995">
        <ele>905</ele>
        <time>2012-09-30T08:33:43Z</time>
      </trkpt>
      <trkpt lat="42.88126" lon="1.95998">
        <ele>905</ele>
        <time>2012-09-30T08:33:46Z</time>
      </trkpt>
      <trkpt lat="42.8812" lon="1.95996">
        <ele>905</ele>
        <time>2012-09-30T08:33:51Z</time>
      </trkpt>
      <trkpt lat="42.88118" lon="1.95996">
        <ele>905</ele>
        <time>2012-09-30T08:33:52Z</time>
      </trkpt>
      <trkpt lat="42.88108" lon="1.95989">
        <ele>904</ele>
        <time>2012-09-30T08:34:01Z</time>
      </trkpt>
      <trkpt lat="42.88099" lon="1.95985">
        <ele>904</ele>
        <time>2012-09-30T08:34:08Z</time>
      </trkpt>
      <trkpt lat="42.88098" lon="1.95984">
        <ele>904</ele>
        <time>2012-09-30T08:34:09Z</time>
      </trkpt>
      <trkpt lat="42.88087" lon="1.95986">
        <ele>905</ele>
        <time>2012-09-30T08:34:15Z</time>
      </trkpt>
      <trkpt lat="42.88083" lon="1.95984">
        <ele>907</ele>
        <time>2012-09-30T08:34:18Z</time>
      </trkpt>
      <trkpt lat="42.88078" lon="1.95985">
        <ele>907</ele>
        <time>2012-09-30T08:34:22Z</time>
      </trkpt>
      <trkpt lat="42.8807" lon="1.95985">
        <ele>908</ele>
        <time>2012-09-30T08:34:28Z</time>
      </trkpt>
      <trkpt lat="42.88059" lon="1.95984">
        <ele>908</ele>
        <time>2012-09-30T08:34:35Z</time>
      </trkpt>
      <trkpt lat="42.88057" lon="1.95984">
        <ele>909</ele>
        <time>2012-09-30T08:34:39Z</time>
      </trkpt>
      <trkpt lat="42.88056" lon="1.95981">
        <ele>909</ele>
        <time>2012-09-30T08:34:45Z</time>
      </trkpt>
      <trkpt lat="42.88057" lon="1.95983">
        <ele>909</ele>
        <time>2012-09-30T08:35:03Z</time>
      </trkpt>
      <trkpt lat="42.88045" lon="1.95977">
        <ele>910</ele>
        <time>2012-09-30T08:35:08Z</time>
      </trkpt>
      <trkpt lat="42.88035" lon="1.95967">
        <ele>910</ele>
        <time>2012-09-30T08:35:12Z</time>
      </trkpt>
      <trkpt lat="42.88026" lon="1.95953">
        <ele>910</ele>
        <time>2012-09-30T08:35:16Z</time>
      </trkpt>
      <trkpt lat="42.88021" lon="1.95939">
        <ele>910</ele>
        <time>2012-09-30T08:35:19Z</time>
      </trkpt>
      <trkpt lat="42.88015" lon="1.95922">
        <ele>911</ele>
        <time>2012-09-30T08:35:23Z</time>
      </trkpt>
      <trkpt lat="42.88009" lon="1.95908">
        <ele>908</ele>
        <time>2012-09-30T08:35:27Z</time>
      </trkpt>
      <trkpt lat="42.88001" lon="1.95882">
        <ele>905</ele>
        <time>2012-09-30T08:35:32Z</time>
      </trkpt>
      <trkpt lat="42.87993" lon="1.95863">
        <ele>916</ele>
        <time>2012-09-30T08:35:36Z</time>
      </trkpt>
      <trkpt lat="42.87995" lon="1.95848">
        <ele>913</ele>
        <time>2012-09-30T08:35:40Z</time>
      </trkpt>
      <trkpt lat="42.87999" lon="1.95838">
        <ele>909</ele>
        <time>2012-09-30T08:35:44Z</time>
      </trkpt>
      <trkpt lat="42.88004" lon="1.9582">
        <ele>904</ele>
        <time>2012-09-30T08:35:50Z</time>
      </trkpt>
      <trkpt lat="42.88006" lon="1.95806">
        <ele>903</ele>
        <time>2012-09-30T08:35:54Z</time>
      </trkpt>
      <trkpt lat="42.88004" lon="1.95799">
        <ele>903</ele>
        <time>2012-09-30T08:35:56Z</time>
      </trkpt>
      <trkpt lat="42.88003" lon="1.95774">
        <ele>905</ele>
        <time>2012-09-30T08:36:02Z</time>
      </trkpt>
      <trkpt lat="42.88002" lon="1.9576">
        <ele>908</ele>
        <time>2012-09-30T08:36:06Z</time>
      </trkpt>
      <trkpt lat="42.88" lon="1.95746">
        <ele>911</ele>
        <time>2012-09-30T08:36:10Z</time>
      </trkpt>
      <trkpt lat="42.87997" lon="1.9573">
        <ele>914</ele>
        <time>2012-09-30T08:36:15Z</time>
      </trkpt>
      <trkpt lat="42.87997" lon="1.95726">
        <ele>914</ele>
        <time>2012-09-30T08:36:16Z</time>
      </trkpt>
      <trkpt lat="42.87996" lon="1.95703">
        <ele>914</ele>
        <time>2012-09-30T08:36:22Z</time>
      </trkpt>
      <trkpt lat="42.87991" lon="1.95686">
        <ele>913</ele>
        <time>2012-09-30T08:36:27Z</time>
      </trkpt>
      <trkpt lat="42.87991" lon="1.95668">
        <ele>911</ele>
        <time>2012-09-30T08:36:32Z</time>
      </trkpt>
      <trkpt lat="42.87996" lon="1.95645">
        <ele>909</ele>
        <time>2012-09-30T08:36:37Z</time>
      </trkpt>
      <trkpt lat="42.88004" lon="1.95631">
        <ele>906</ele>
        <time>2012-09-30T08:36:42Z</time>
      </trkpt>
      <trkpt lat="42.88008" lon="1.95618">
        <ele>906</ele>
        <time>2012-09-30T08:36:47Z</time>
      </trkpt>
      <trkpt lat="42.88015" lon="1.95595">
        <ele>905</ele>
        <time>2012-09-30T08:36:53Z</time>
      </trkpt>
      <trkpt lat="42.88023" lon="1.95583">
        <ele>905</ele>
        <time>2012-09-30T08:36:58Z</time>
      </trkpt>
      <trkpt lat="42.88029" lon="1.95578">
        <ele>905</ele>
        <time>2012-09-30T08:37:01Z</time>
      </trkpt>
      <trkpt lat="42.88038" lon="1.95571">
        <ele>905</ele>
        <time>2012-09-30T08:37:06Z</time>
      </trkpt>
      <trkpt lat="42.88047" lon="1.95572">
        <ele>905</ele>
        <time>2012-09-30T08:37:13Z</time>
      </trkpt>
      <trkpt lat="42.88048" lon="1.95573">
        <ele>905</ele>
        <time>2012-09-30T08:37:14Z</time>
      </trkpt>
      <trkpt lat="42.88052" lon="1.95579">
        <ele>905</ele>
        <time>2012-09-30T08:37:18Z</time>
      </trkpt>
      <trkpt lat="42.88061" lon="1.95587">
        <ele>905</ele>
        <time>2012-09-30T08:37:23Z</time>
      </trkpt>
      <trkpt lat="42.88064" lon="1.95588">
        <ele>905</ele>
        <time>2012-09-30T08:37:24Z</time>
      </trkpt>
      <trkpt lat="42.88074" lon="1.95597">
        <ele>905</ele>
        <time>2012-09-30T08:37:29Z</time>
      </trkpt>
      <trkpt lat="42.88076" lon="1.956">
        <ele>905</ele>
        <time>2012-09-30T08:37:33Z</time>
      </trkpt>
      <trkpt lat="42.88078" lon="1.956">
        <ele>905</ele>
        <time>2012-09-30T08:37:36Z</time>
      </trkpt>
      <trkpt lat="42.88083" lon="1.95603">
        <ele>905</ele>
        <time>2012-09-30T08:37:42Z</time>
      </trkpt>
      <trkpt lat="42.88086" lon="1.95606">
        <ele>898</ele>
        <time>2012-09-30T08:37:51Z</time>
      </trkpt>
      <trkpt lat="42.88085" lon="1.95612">
        <ele>897</ele>
        <time>2012-09-30T08:37:55Z</time>
      </trkpt>
      <trkpt lat="42.88086" lon="1.95615">
        <ele>897</ele>
        <time>2012-09-30T08:37:57Z</time>
      </trkpt>
      <trkpt lat="42.88085" lon="1.95619">
        <ele>896</ele>
        <time>2012-09-30T08:38:01Z</time>
      </trkpt>
      <trkpt lat="42.88085" lon="1.95619">
        <ele>896</ele>
        <time>2012-09-30T08:38:02Z</time>
      </trkpt>
      <trkpt lat="42.88078" lon="1.95622">
        <ele>904</ele>
        <time>2012-09-30T08:38:07Z</time>
      </trkpt>
      <trkpt lat="42.88075" lon="1.95622">
        <ele>904</ele>
        <time>2012-09-30T08:38:14Z</time>
      </trkpt>
      <trkpt lat="42.88074" lon="1.95622">
        <ele>904</ele>
        <time>2012-09-30T08:38:21Z</time>
      </trkpt>
      <trkpt lat="42.88079" lon="1.95625">
        <ele>904</ele>
        <time>2012-09-30T08:38:31Z</time>
      </trkpt>
      <trkpt lat="42.88076" lon="1.95624">
        <ele>904</ele>
        <time>2012-09-30T08:38:35Z</time>
      </trkpt>
      <trkpt lat="42.88075" lon="1.95623">
        <ele>904</ele>
        <time>2012-09-30T08:38:37Z</time>
      </trkpt>
      <trkpt lat="42.88078" lon="1.95626">
        <ele>904</ele>
        <time>2012-09-30T08:38:43Z</time>
      </trkpt>
      <trkpt lat="42.88077" lon="1.95625">
        <ele>904</ele>
        <time>2012-09-30T08:38:47Z</time>
      </trkpt>
      <trkpt lat="42.88078" lon="1.95623">
        <ele>904</ele>
        <time>2012-09-30T08:38:56Z</time>
      </trkpt>
      <trkpt lat="42.88081" lon="1.95624">
        <ele>904</ele>
        <time>2012-09-30T08:39:01Z</time>
      </trkpt>
      <trkpt lat="42.88082" lon="1.95623">
        <ele>904</ele>
        <time>2012-09-30T08:39:08Z</time>
      </trkpt>
      <trkpt lat="42.88086" lon="1.9562">
        <ele>896</ele>
        <time>2012-09-30T08:39:14Z</time>
      </trkpt>
      <trkpt lat="42.88085" lon="1.95621">
        <ele>896</ele>
        <time>2012-09-30T08:39:20Z</time>
      </trkpt>
      <trkpt lat="42.88084" lon="1.95621">
        <ele>896</ele>
        <time>2012-09-30T08:39:25Z</time>
      </trkpt>
      <trkpt lat="42.88084" lon="1.95621">
        <ele>896</ele>
        <time>2012-09-30T08:39:39Z</time>
      </trkpt>
      <trkpt lat="42.88084" lon="1.95619">
        <ele>896</ele>
        <time>2012-09-30T08:39:47Z</time>
      </trkpt>
      <trkpt lat="42.88084" lon="1.95619">
        <ele>896</ele>
        <time>2012-09-30T08:39:49Z</time>
      </trkpt>
      <trkpt lat="42.88085" lon="1.95618">
        <ele>896</ele>
        <time>2012-09-30T08:39:57Z</time>
      </trkpt>
      <trkpt lat="42.88083" lon="1.95617">
        <ele>904</ele>
        <time>2012-09-30T08:40:05Z</time>
      </trkpt>
      <trkpt lat="42.88082" lon="1.95616">
        <ele>904</ele>
        <time>2012-09-30T08:40:08Z</time>
      </trkpt>
      <trkpt lat="42.88083" lon="1.95616">
        <ele>904</ele>
        <time>2012-09-30T08:40:10Z</time>
      </trkpt>
      <trkpt lat="42.88083" lon="1.95616">
        <ele>904</ele>
        <time>2012-09-30T08:40:11Z</time>
      </trkpt>
      <trkpt lat="42.88084" lon="1.95616">
        <ele>897</ele>
        <time>2012-09-30T08:40:14Z</time>
      </trkpt>
      <trkpt lat="42.88085" lon="1.95616">
        <ele>896</ele>
        <time>2012-09-30T08:40:18Z</time>
      </trkpt>
      <trkpt lat="42.88087" lon="1.95615">
        <ele>896</ele>
        <time>2012-09-30T08:40:24Z</time>
      </trkpt>
      <trkpt lat="42.88089" lon="1.95615">
        <ele>896</ele>
        <time>2012-09-30T08:40:33Z</time>
      </trkpt>
      <trkpt lat="42.88088" lon="1.95608">
        <ele>897</ele>
        <time>2012-09-30T08:40:39Z</time>
      </trkpt>
      <trkpt lat="42.88084" lon="1.95605">
        <ele>898</ele>
        <time>2012-09-30T08:40:43Z</time>
      </trkpt>
      <trkpt lat="42.88084" lon="1.95605">
        <ele>898</ele>
        <time>2012-09-30T08:40:44Z</time>
      </trkpt>
      <trkpt lat="42.88082" lon="1.95603">
        <ele>905</ele>
        <time>2012-09-30T08:40:51Z</time>
      </trkpt>
      <trkpt lat="42.88081" lon="1.95602">
        <ele>905</ele>
        <time>2012-09-30T08:40:52Z</time>
      </trkpt>
      <trkpt lat="42.88076" lon="1.95601">
        <ele>905</ele>
        <time>2012-09-30T08:40:58Z</time>
      </trkpt>
      <trkpt lat="42.88074" lon="1.95599">
        <ele>905</ele>
        <time>2012-09-30T08:41:00Z</time>
      </trkpt>
      <trkpt lat="42.88071" lon="1.95595">
        <ele>905</ele>
        <time>2012-09-30T08:41:03Z</time>
      </trkpt>
      <trkpt lat="42.88066" lon="1.95591">
        <ele>905</ele>
        <time>2012-09-30T08:41:07Z</time>
      </trkpt>
      <trkpt lat="42.88061" lon="1.95592">
        <ele>905</ele>
        <time>2012-09-30T08:41:10Z</time>
      </trkpt>
      <trkpt lat="42.88049" lon="1.95582">
        <ele>905</ele>
        <time>2012-09-30T08:41:16Z</time>
      </trkpt>
      <trkpt lat="42.88044" lon="1.95579">
        <ele>905</ele>
        <time>2012-09-30T08:41:18Z</time>
      </trkpt>
      <trkpt lat="42.88042" lon="1.95576">
        <ele>905</ele>
        <time>2012-09-30T08:41:20Z</time>
      </trkpt>
      <trkpt lat="42.88037" lon="1.95571">
        <ele>905</ele>
        <time>2012-09-30T08:41:26Z</time>
      </trkpt>
      <trkpt lat="42.88038" lon="1.9557">
        <ele>905</ele>
        <time>2012-09-30T08:41:27Z</time>
      </trkpt>
      <trkpt lat="42.88048" lon="1.95565">
        <ele>905</ele>
        <time>2012-09-30T08:41:32Z</time>
      </trkpt>
      <trkpt lat="42.88051" lon="1.95559">
        <ele>905</ele>
        <time>2012-09-30T08:41:34Z</time>
      </trkpt>
      <trkpt lat="42.88058" lon="1.95538">
        <ele>906</ele>
        <time>2012-09-30T08:41:40Z</time>
      </trkpt>
      <trkpt lat="42.8806" lon="1.95523">
        <ele>906</ele>
        <time>2012-09-30T08:41:46Z</time>
      </trkpt>
      <trkpt lat="42.88062" lon="1.95505">
        <ele>907</ele>
        <time>2012-09-30T08:41:51Z</time>
      </trkpt>
      <trkpt lat="42.88066" lon="1.9549">
        <ele>907</ele>
        <time>2012-09-30T08:41:55Z</time>
      </trkpt>
      <trkpt lat="42.88071" lon="1.95481">
        <ele>907</ele>
        <time>2012-09-30T08:42:00Z</time>
      </trkpt>
      <trkpt lat="42.88083" lon="1.95468">
        <ele>907</ele>
        <time>2012-09-30T08:42:06Z</time>
      </trkpt>
      <trkpt lat="42.88088" lon="1.95464">
        <ele>906</ele>
        <time>2012-09-30T08:42:08Z</time>
      </trkpt>
      <trkpt lat="42.88098" lon="1.95457">
        <ele>906</ele>
        <time>2012-09-30T08:42:14Z</time>
      </trkpt>
      <trkpt lat="42.88108" lon="1.95449">
        <ele>905</ele>
        <time>2012-09-30T08:42:19Z</time>
      </trkpt>
      <trkpt lat="42.88115" lon="1.95437">
        <ele>905</ele>
        <time>2012-09-30T08:42:23Z</time>
      </trkpt>
      <trkpt lat="42.8812" lon="1.9543">
        <ele>905</ele>
        <time>2012-09-30T08:42:26Z</time>
      </trkpt>
      <trkpt lat="42.88132" lon="1.95431">
        <ele>904</ele>
        <time>2012-09-30T08:42:31Z</time>
      </trkpt>
      <trkpt lat="42.88141" lon="1.95426">
        <ele>903</ele>
        <time>2012-09-30T08:42:35Z</time>
      </trkpt>
      <trkpt lat="42.88145" lon="1.95413">
        <ele>901</ele>
        <time>2012-09-30T08:42:40Z</time>
      </trkpt>
      <trkpt lat="42.88151" lon="1.95392">
        <ele>900</ele>
        <time>2012-09-30T08:42:46Z</time>
      </trkpt>
      <trkpt lat="42.8816" lon="1.95377">
        <ele>899</ele>
        <time>2012-09-30T08:42:51Z</time>
      </trkpt>
      <trkpt lat="42.88168" lon="1.95362">
        <ele>890</ele>
        <time>2012-09-30T08:42:56Z</time>
      </trkpt>
      <trkpt lat="42.8818" lon="1.95354">
        <ele>889</ele>
        <time>2012-09-30T08:43:01Z</time>
      </trkpt>
      <trkpt lat="42.88192" lon="1.95347">
        <ele>888</ele>
        <time>2012-09-30T08:43:07Z</time>
      </trkpt>
      <trkpt lat="42.88203" lon="1.95336">
        <ele>887</ele>
        <time>2012-09-30T08:43:13Z</time>
      </trkpt>
      <trkpt lat="42.88212" lon="1.95328">
        <ele>881</ele>
        <time>2012-09-30T08:43:18Z</time>
      </trkpt>
      <trkpt lat="42.88222" lon="1.95319">
        <ele>880</ele>
        <time>2012-09-30T08:43:23Z</time>
      </trkpt>
      <trkpt lat="42.88237" lon="1.95306">
        <ele>878</ele>
        <time>2012-09-30T08:43:29Z</time>
      </trkpt>
      <trkpt lat="42.88248" lon="1.95295">
        <ele>877</ele>
        <time>2012-09-30T08:43:34Z</time>
      </trkpt>
      <trkpt lat="42.88259" lon="1.95283">
        <ele>867</ele>
        <time>2012-09-30T08:43:40Z</time>
      </trkpt>
      <trkpt lat="42.88268" lon="1.95276">
        <ele>867</ele>
        <time>2012-09-30T08:43:45Z</time>
      </trkpt>
      <trkpt lat="42.88279" lon="1.95263">
        <ele>866</ele>
        <time>2012-09-30T08:43:51Z</time>
      </trkpt>
      <trkpt lat="42.88281" lon="1.9526">
        <ele>866</ele>
        <time>2012-09-30T08:43:52Z</time>
      </trkpt>
      <trkpt lat="42.88279" lon="1.95247">
        <ele>862</ele>
        <time>2012-09-30T08:43:57Z</time>
      </trkpt>
      <trkpt lat="42.88274" lon="1.95239">
        <ele>862</ele>
        <time>2012-09-30T08:44:01Z</time>
      </trkpt>
      <trkpt lat="42.88271" lon="1.95238">
        <ele>862</ele>
        <time>2012-09-30T08:44:02Z</time>
      </trkpt>
      <trkpt lat="42.88251" lon="1.95231">
        <ele>863</ele>
        <time>2012-09-30T08:44:09Z</time>
      </trkpt>
      <trkpt lat="42.88237" lon="1.9523">
        <ele>864</ele>
        <time>2012-09-30T08:44:14Z</time>
      </trkpt>
      <trkpt lat="42.8822" lon="1.95233">
        <ele>864</ele>
        <time>2012-09-30T08:44:19Z</time>
      </trkpt>
      <trkpt lat="42.88205" lon="1.95236">
        <ele>864</ele>
        <time>2012-09-30T08:44:24Z</time>
      </trkpt>
      <trkpt lat="42.88191" lon="1.9524">
        <ele>866</ele>
        <time>2012-09-30T08:44:29Z</time>
      </trkpt>
      <trkpt lat="42.88176" lon="1.95246">
        <ele>869</ele>
        <time>2012-09-30T08:44:34Z</time>
      </trkpt>
      <trkpt lat="42.8817" lon="1.95248">
        <ele>872</ele>
        <time>2012-09-30T08:44:37Z</time>
      </trkpt>
      <trkpt lat="42.88159" lon="1.9525">
        <ele>871</ele>
        <time>2012-09-30T08:44:42Z</time>
      </trkpt>
      <trkpt lat="42.88143" lon="1.95253">
        <ele>880</ele>
        <time>2012-09-30T08:44:47Z</time>
      </trkpt>
      <trkpt lat="42.88129" lon="1.95255">
        <ele>882</ele>
        <time>2012-09-30T08:44:52Z</time>
      </trkpt>
      <trkpt lat="42.88115" lon="1.95255">
        <ele>882</ele>
        <time>2012-09-30T08:44:57Z</time>
      </trkpt>
      <trkpt lat="42.881" lon="1.95256">
        <ele>881</ele>
        <time>2012-09-30T08:45:02Z</time>
      </trkpt>
      <trkpt lat="42.88081" lon="1.95252">
        <ele>877</ele>
        <time>2012-09-30T08:45:08Z</time>
      </trkpt>
      <trkpt lat="42.88064" lon="1.95249">
        <ele>869</ele>
        <time>2012-09-30T08:45:13Z</time>
      </trkpt>
      <trkpt lat="42.88053" lon="1.95244">
        <ele>866</ele>
        <time>2012-09-30T08:45:17Z</time>
      </trkpt>
      <trkpt lat="42.88041" lon="1.95241">
        <ele>865</ele>
        <time>2012-09-30T08:45:21Z</time>
      </trkpt>
      <trkpt lat="42.88028" lon="1.9524">
        <ele>865</ele>
        <time>2012-09-30T08:45:25Z</time>
      </trkpt>
      <trkpt lat="42.88013" lon="1.95238">
        <ele>867</ele>
        <time>2012-09-30T08:45:30Z</time>
      </trkpt>
      <trkpt lat="42.88007" lon="1.95237">
        <ele>867</ele>
        <time>2012-09-30T08:45:32Z</time>
      </trkpt>
      <trkpt lat="42.8799" lon="1.95235">
        <ele>866</ele>
        <time>2012-09-30T08:45:37Z</time>
      </trkpt>
      <trkpt lat="42.8798" lon="1.95233">
        <ele>865</ele>
        <time>2012-09-30T08:45:40Z</time>
      </trkpt>
      <trkpt lat="42.87969" lon="1.9523">
        <ele>864</ele>
        <time>2012-09-30T08:45:44Z</time>
      </trkpt>
      <trkpt lat="42.8796" lon="1.95226">
        <ele>864</ele>
        <time>2012-09-30T08:45:47Z</time>
      </trkpt>
      <trkpt lat="42.87945" lon="1.95223">
        <ele>864</ele>
        <time>2012-09-30T08:45:52Z</time>
      </trkpt>
      <trkpt lat="42.8793" lon="1.95219">
        <ele>864</ele>
        <time>2012-09-30T08:45:57Z</time>
      </trkpt>
      <trkpt lat="42.87918" lon="1.95213">
        <ele>863</ele>
        <time>2012-09-30T08:46:01Z</time>
      </trkpt>
      <trkpt lat="42.87905" lon="1.95204">
        <ele>867</ele>
        <time>2012-09-30T08:46:06Z</time>
      </trkpt>
      <trkpt lat="42.879" lon="1.95201">
        <ele>867</ele>
        <time>2012-09-30T08:46:08Z</time>
      </trkpt>
      <trkpt lat="42.87885" lon="1.95191">
        <ele>867</ele>
        <time>2012-09-30T08:46:13Z</time>
      </trkpt>
      <trkpt lat="42.87868" lon="1.95179">
        <ele>867</ele>
        <time>2012-09-30T08:46:19Z</time>
      </trkpt>
      <trkpt lat="42.87857" lon="1.95169">
        <ele>867</ele>
        <time>2012-09-30T08:46:24Z</time>
      </trkpt>
      <trkpt lat="42.87854" lon="1.95167">
        <ele>867</ele>
        <time>2012-09-30T08:46:25Z</time>
      </trkpt>
      <trkpt lat="42.87846" lon="1.95156">
        <ele>858</ele>
        <time>2012-09-30T08:46:29Z</time>
      </trkpt>
      <trkpt lat="42.87831" lon="1.9515">
        <ele>860</ele>
        <time>2012-09-30T08:46:34Z</time>
      </trkpt>
      <trkpt lat="42.87819" lon="1.95146">
        <ele>858</ele>
        <time>2012-09-30T08:46:38Z</time>
      </trkpt>
      <trkpt lat="42.87808" lon="1.95137">
        <ele>855</ele>
        <time>2012-09-30T08:46:43Z</time>
      </trkpt>
      <trkpt lat="42.87796" lon="1.9513">
        <ele>854</ele>
        <time>2012-09-30T08:46:48Z</time>
      </trkpt>
      <trkpt lat="42.87784" lon="1.95125">
        <ele>854</ele>
        <time>2012-09-30T08:46:52Z</time>
      </trkpt>
      <trkpt lat="42.87768" lon="1.9512">
        <ele>853</ele>
        <time>2012-09-30T08:46:57Z</time>
      </trkpt>
      <trkpt lat="42.87755" lon="1.95118">
        <ele>852</ele>
        <time>2012-09-30T08:47:01Z</time>
      </trkpt>
      <trkpt lat="42.8774" lon="1.95116">
        <ele>849</ele>
        <time>2012-09-30T08:47:06Z</time>
      </trkpt>
      <trkpt lat="42.87727" lon="1.95117">
        <ele>849</ele>
        <time>2012-09-30T08:47:10Z</time>
      </trkpt>
      <trkpt lat="42.87709" lon="1.95122">
        <ele>849</ele>
        <time>2012-09-30T08:47:16Z</time>
      </trkpt>
      <trkpt lat="42.877" lon="1.95131">
        <ele>849</ele>
        <time>2012-09-30T08:47:20Z</time>
      </trkpt>
      <trkpt lat="42.87683" lon="1.95144">
        <ele>850</ele>
        <time>2012-09-30T08:47:26Z</time>
      </trkpt>
      <trkpt lat="42.87673" lon="1.95151">
        <ele>851</ele>
        <time>2012-09-30T08:47:30Z</time>
      </trkpt>
      <trkpt lat="42.87656" lon="1.95155">
        <ele>849</ele>
        <time>2012-09-30T08:47:35Z</time>
      </trkpt>
      <trkpt lat="42.87645" lon="1.95154">
        <ele>847</ele>
        <time>2012-09-30T08:47:39Z</time>
      </trkpt>
      <trkpt lat="42.87628" lon="1.95155">
        <ele>846</ele>
        <time>2012-09-30T08:47:44Z</time>
      </trkpt>
      <trkpt lat="42.87616" lon="1.95154">
        <ele>846</ele>
        <time>2012-09-30T08:47:48Z</time>
      </trkpt>
      <trkpt lat="42.87603" lon="1.95152">
        <ele>847</ele>
        <time>2012-09-30T08:47:52Z</time>
      </trkpt>
      <trkpt lat="42.87589" lon="1.9515">
        <ele>847</ele>
        <time>2012-09-30T08:47:57Z</time>
      </trkpt>
      <trkpt lat="42.8758" lon="1.95149">
        <ele>847</ele>
        <time>2012-09-30T08:48:00Z</time>
      </trkpt>
      <trkpt lat="42.87571" lon="1.95148">
        <ele>847</ele>
        <time>2012-09-30T08:48:04Z</time>
      </trkpt>
      <trkpt lat="42.87556" lon="1.9515">
        <ele>846</ele>
        <time>2012-09-30T08:48:09Z</time>
      </trkpt>
      <trkpt lat="42.87544" lon="1.95151">
        <ele>846</ele>
        <time>2012-09-30T08:48:13Z</time>
      </trkpt>
      <trkpt lat="42.87526" lon="1.95149">
        <ele>846</ele>
        <time>2012-09-30T08:48:19Z</time>
      </trkpt>
      <trkpt lat="42.87513" lon="1.95144">
        <ele>847</ele>
        <time>2012-09-30T08:48:23Z</time>
      </trkpt>
      <trkpt lat="42.87497" lon="1.95136">
        <ele>845</ele>
        <time>2012-09-30T08:48:29Z</time>
      </trkpt>
      <trkpt lat="42.87481" lon="1.95133">
        <ele>844</ele>
        <time>2012-09-30T08:48:33Z</time>
      </trkpt>
      <trkpt lat="42.87471" lon="1.95129">
        <ele>843</ele>
        <time>2012-09-30T08:48:37Z</time>
      </trkpt>
      <trkpt lat="42.8746" lon="1.95125">
        <ele>842</ele>
        <time>2012-09-30T08:48:41Z</time>
      </trkpt>
      <trkpt lat="42.8744" lon="1.95123">
        <ele>841</ele>
        <time>2012-09-30T08:48:47Z</time>
      </trkpt>
      <trkpt lat="42.87431" lon="1.95119">
        <ele>841</ele>
        <time>2012-09-30T08:48:51Z</time>
      </trkpt>
      <trkpt lat="42.87424" lon="1.95115">
        <ele>841</ele>
        <time>2012-09-30T08:48:55Z</time>
      </trkpt>
      <trkpt lat="42.87414" lon="1.95109">
        <ele>840</ele>
        <time>2012-09-30T08:49:01Z</time>
      </trkpt>
      <trkpt lat="42.87402" lon="1.9511">
        <ele>841</ele>
        <time>2012-09-30T08:49:07Z</time>
      </trkpt>
      <trkpt lat="42.87396" lon="1.9511">
        <ele>841</ele>
        <time>2012-09-30T08:49:09Z</time>
      </trkpt>
      <trkpt lat="42.87376" lon="1.95104">
        <ele>842</ele>
        <time>2012-09-30T08:49:15Z</time>
      </trkpt>
      <trkpt lat="42.87372" lon="1.951">
        <ele>842</ele>
        <time>2012-09-30T08:49:17Z</time>
      </trkpt>
      <trkpt lat="42.87364" lon="1.95092">
        <ele>843</ele>
        <time>2012-09-30T08:49:21Z</time>
      </trkpt>
      <trkpt lat="42.87361" lon="1.95088">
        <ele>843</ele>
        <time>2012-09-30T08:49:23Z</time>
      </trkpt>
      <trkpt lat="42.87354" lon="1.95078">
        <ele>844</ele>
        <time>2012-09-30T08:49:28Z</time>
      </trkpt>
      <trkpt lat="42.87346" lon="1.95067">
        <ele>844</ele>
        <time>2012-09-30T08:49:33Z</time>
      </trkpt>
      <trkpt lat="42.87345" lon="1.95055">
        <ele>844</ele>
        <time>2012-09-30T08:49:37Z</time>
      </trkpt>
      <trkpt lat="42.87347" lon="1.95051">
        <ele>844</ele>
        <time>2012-09-30T08:49:39Z</time>
      </trkpt>
      <trkpt lat="42.87349" lon="1.95048">
        <ele>844</ele>
        <time>2012-09-30T08:49:41Z</time>
      </trkpt>
      <trkpt lat="42.8735" lon="1.95043">
        <ele>844</ele>
        <time>2012-09-30T08:49:45Z</time>
      </trkpt>
      <trkpt lat="42.87359" lon="1.95033">
        <ele>844</ele>
        <time>2012-09-30T08:49:53Z</time>
      </trkpt>
      <trkpt lat="42.87367" lon="1.95018">
        <ele>845</ele>
        <time>2012-09-30T08:49:59Z</time>
      </trkpt>
      <trkpt lat="42.87369" lon="1.95005">
        <ele>845</ele>
        <time>2012-09-30T08:50:03Z</time>
      </trkpt>
      <trkpt lat="42.8737" lon="1.94983">
        <ele>851</ele>
        <time>2012-09-30T08:50:09Z</time>
      </trkpt>
      <trkpt lat="42.87364" lon="1.94971">
        <ele>852</ele>
        <time>2012-09-30T08:50:14Z</time>
      </trkpt>
      <trkpt lat="42.87353" lon="1.94964">
        <ele>852</ele>
        <time>2012-09-30T08:50:19Z</time>
      </trkpt>
      <trkpt lat="42.87349" lon="1.94963">
        <ele>852</ele>
        <time>2012-09-30T08:50:21Z</time>
      </trkpt>
      <trkpt lat="42.87339" lon="1.94953">
        <ele>853</ele>
        <time>2012-09-30T08:50:27Z</time>
      </trkpt>
      <trkpt lat="42.87329" lon="1.94939">
        <ele>853</ele>
        <time>2012-09-30T08:50:33Z</time>
      </trkpt>
      <trkpt lat="42.87319" lon="1.9493">
        <ele>853</ele>
        <time>2012-09-30T08:50:38Z</time>
      </trkpt>
      <trkpt lat="42.87318" lon="1.94915">
        <ele>857</ele>
        <time>2012-09-30T08:50:42Z</time>
      </trkpt>
      <trkpt lat="42.87318" lon="1.94912">
        <ele>857</ele>
        <time>2012-09-30T08:50:43Z</time>
      </trkpt>
      <trkpt lat="42.87321" lon="1.94896">
        <ele>858</ele>
        <time>2012-09-30T08:50:49Z</time>
      </trkpt>
      <trkpt lat="42.87325" lon="1.94886">
        <ele>859</ele>
        <time>2012-09-30T08:50:52Z</time>
      </trkpt>
      <trkpt lat="42.87329" lon="1.94869">
        <ele>860</ele>
        <time>2012-09-30T08:50:58Z</time>
      </trkpt>
      <trkpt lat="42.87331" lon="1.94853">
        <ele>861</ele>
        <time>2012-09-30T08:51:03Z</time>
      </trkpt>
      <trkpt lat="42.87331" lon="1.9485">
        <ele>861</ele>
        <time>2012-09-30T08:51:04Z</time>
      </trkpt>
      <trkpt lat="42.87326" lon="1.94841">
        <ele>862</ele>
        <time>2012-09-30T08:51:08Z</time>
      </trkpt>
      <trkpt lat="42.87324" lon="1.9482">
        <ele>865</ele>
        <time>2012-09-30T08:51:15Z</time>
      </trkpt>
      <trkpt lat="42.87325" lon="1.94802">
        <ele>866</ele>
        <time>2012-09-30T08:51:20Z</time>
      </trkpt>
      <trkpt lat="42.87326" lon="1.94787">
        <ele>866</ele>
        <time>2012-09-30T08:51:25Z</time>
      </trkpt>
      <trkpt lat="42.87331" lon="1.94776">
        <ele>866</ele>
        <time>2012-09-30T08:51:30Z</time>
      </trkpt>
      <trkpt lat="42.87335" lon="1.94767">
        <ele>866</ele>
        <time>2012-09-30T08:51:34Z</time>
      </trkpt>
      <trkpt lat="42.87339" lon="1.94757">
        <ele>866</ele>
        <time>2012-09-30T08:51:38Z</time>
      </trkpt>
      <trkpt lat="42.87343" lon="1.94747">
        <ele>866</ele>
        <time>2012-09-30T08:51:42Z</time>
      </trkpt>
      <trkpt lat="42.87347" lon="1.94737">
        <ele>866</ele>
        <time>2012-09-30T08:51:48Z</time>
      </trkpt>
      <trkpt lat="42.8735" lon="1.94724">
        <ele>866</ele>
        <time>2012-09-30T08:51:53Z</time>
      </trkpt>
      <trkpt lat="42.87351" lon="1.94719">
        <ele>866</ele>
        <time>2012-09-30T08:51:56Z</time>
      </trkpt>
      <trkpt lat="42.87353" lon="1.94707">
        <ele>867</ele>
        <time>2012-09-30T08:52:01Z</time>
      </trkpt>
      <trkpt lat="42.87355" lon="1.94696">
        <ele>867</ele>
        <time>2012-09-30T08:52:07Z</time>
      </trkpt>
      <trkpt lat="42.87354" lon="1.9468">
        <ele>869</ele>
        <time>2012-09-30T08:52:12Z</time>
      </trkpt>
      <trkpt lat="42.87357" lon="1.94661">
        <ele>875</ele>
        <time>2012-09-30T08:52:18Z</time>
      </trkpt>
      <trkpt lat="42.8736" lon="1.94649">
        <ele>875</ele>
        <time>2012-09-30T08:52:22Z</time>
      </trkpt>
      <trkpt lat="42.87364" lon="1.94636">
        <ele>876</ele>
        <time>2012-09-30T08:52:26Z</time>
      </trkpt>
      <trkpt lat="42.87364" lon="1.94633">
        <ele>876</ele>
        <time>2012-09-30T08:52:27Z</time>
      </trkpt>
      <trkpt lat="42.87367" lon="1.94623">
        <ele>877</ele>
        <time>2012-09-30T08:52:32Z</time>
      </trkpt>
      <trkpt lat="42.8737" lon="1.94617">
        <ele>877</ele>
        <time>2012-09-30T08:52:36Z</time>
      </trkpt>
      <trkpt lat="42.8737" lon="1.94602">
        <ele>879</ele>
        <time>2012-09-30T08:52:43Z</time>
      </trkpt>
      <trkpt lat="42.87371" lon="1.94601">
        <ele>879</ele>
        <time>2012-09-30T08:52:44Z</time>
      </trkpt>
      <trkpt lat="42.87378" lon="1.94589">
        <ele>878</ele>
        <time>2012-09-30T08:52:51Z</time>
      </trkpt>
      <trkpt lat="42.87382" lon="1.94581">
        <ele>894</ele>
        <time>2012-09-30T08:52:55Z</time>
      </trkpt>
      <trkpt lat="42.87381" lon="1.94574">
        <ele>895</ele>
        <time>2012-09-30T08:52:59Z</time>
      </trkpt>
      <trkpt lat="42.87386" lon="1.94571">
        <ele>894</ele>
        <time>2012-09-30T08:53:03Z</time>
      </trkpt>
      <trkpt lat="42.87394" lon="1.94565">
        <ele>893</ele>
        <time>2012-09-30T08:53:07Z</time>
      </trkpt>
      <trkpt lat="42.87403" lon="1.94557">
        <ele>894</ele>
        <time>2012-09-30T08:53:15Z</time>
      </trkpt>
      <trkpt lat="42.87406" lon="1.94551">
        <ele>896</ele>
        <time>2012-09-30T08:53:19Z</time>
      </trkpt>
      <trkpt lat="42.87413" lon="1.94529">
        <ele>903</ele>
        <time>2012-09-30T08:53:47Z</time>
      </trkpt>
      <trkpt lat="42.87415" lon="1.9452">
        <ele>905</ele>
        <time>2012-09-30T08:53:54Z</time>
      </trkpt>
      <trkpt lat="42.87417" lon="1.94512">
        <ele>898</ele>
        <time>2012-09-30T08:54:00Z</time>
      </trkpt>
      <trkpt lat="42.87421" lon="1.94504">
        <ele>904</ele>
        <time>2012-09-30T08:54:06Z</time>
      </trkpt>
      <trkpt lat="42.87426" lon="1.94503">
        <ele>900</ele>
        <time>2012-09-30T08:54:09Z</time>
      </trkpt>
      <trkpt lat="42.87433" lon="1.945">
        <ele>895</ele>
        <time>2012-09-30T08:54:13Z</time>
      </trkpt>
      <trkpt lat="42.87436" lon="1.94498">
        <ele>911</ele>
        <time>2012-09-30T08:54:18Z</time>
      </trkpt>
      <trkpt lat="42.87444" lon="1.94487">
        <ele>911</ele>
        <time>2012-09-30T08:54:32Z</time>
      </trkpt>
      <trkpt lat="42.87442" lon="1.94479">
        <ele>912</ele>
        <time>2012-09-30T08:54:37Z</time>
      </trkpt>
      <trkpt lat="42.87439" lon="1.94472">
        <ele>914</ele>
        <time>2012-09-30T08:54:43Z</time>
      </trkpt>
      <trkpt lat="42.87442" lon="1.94462">
        <ele>916</ele>
        <time>2012-09-30T08:54:48Z</time>
      </trkpt>
      <trkpt lat="42.87444" lon="1.94454">
        <ele>917</ele>
        <time>2012-09-30T08:54:54Z</time>
      </trkpt>
      <trkpt lat="42.87455" lon="1.94444">
        <ele>918</ele>
        <time>2012-09-30T08:55:05Z</time>
      </trkpt>
      <trkpt lat="42.87458" lon="1.94439">
        <ele>918</ele>
        <time>2012-09-30T08:55:10Z</time>
      </trkpt>
      <trkpt lat="42.8746" lon="1.94429">
        <ele>919</ele>
        <time>2012-09-30T08:55:24Z</time>
      </trkpt>
      <trkpt lat="42.87466" lon="1.94423">
        <ele>918</ele>
        <time>2012-09-30T08:55:28Z</time>
      </trkpt>
      <trkpt lat="42.87473" lon="1.94415">
        <ele>936</ele>
        <time>2012-09-30T08:55:32Z</time>
      </trkpt>
      <trkpt lat="42.87476" lon="1.94408">
        <ele>935</ele>
        <time>2012-09-30T08:55:38Z</time>
      </trkpt>
      <trkpt lat="42.87487" lon="1.94402">
        <ele>932</ele>
        <time>2012-09-30T08:55:43Z</time>
      </trkpt>
      <trkpt lat="42.87486" lon="1.94389">
        <ele>937</ele>
        <time>2012-09-30T08:55:51Z</time>
      </trkpt>
      <trkpt lat="42.87494" lon="1.94384">
        <ele>938</ele>
        <time>2012-09-30T08:55:56Z</time>
      </trkpt>
      <trkpt lat="42.87498" lon="1.94379">
        <ele>939</ele>
        <time>2012-09-30T08:56:00Z</time>
      </trkpt>
      <trkpt lat="42.87504" lon="1.94374">
        <ele>923</ele>
        <time>2012-09-30T08:56:05Z</time>
      </trkpt>
      <trkpt lat="42.8751" lon="1.94371">
        <ele>923</ele>
        <time>2012-09-30T08:56:11Z</time>
      </trkpt>
      <trkpt lat="42.8751" lon="1.9437">
        <ele>923</ele>
        <time>2012-09-30T08:56:12Z</time>
      </trkpt>
      <trkpt lat="42.87513" lon="1.94368">
        <ele>923</ele>
        <time>2012-09-30T08:56:15Z</time>
      </trkpt>
      <trkpt lat="42.87519" lon="1.94363">
        <ele>924</ele>
        <time>2012-09-30T08:56:21Z</time>
      </trkpt>
      <trkpt lat="42.87524" lon="1.94357">
        <ele>924</ele>
        <time>2012-09-30T08:56:27Z</time>
      </trkpt>
      <trkpt lat="42.87525" lon="1.94356">
        <ele>924</ele>
        <time>2012-09-30T08:56:28Z</time>
      </trkpt>
      <trkpt lat="42.87533" lon="1.94352">
        <ele>923</ele>
        <time>2012-09-30T08:56:33Z</time>
      </trkpt>
      <trkpt lat="42.87536" lon="1.94348">
        <ele>923</ele>
        <time>2012-09-30T08:56:36Z</time>
      </trkpt>
      <trkpt lat="42.87545" lon="1.94344">
        <ele>922</ele>
        <time>2012-09-30T08:56:42Z</time>
      </trkpt>
      <trkpt lat="42.87548" lon="1.9434">
        <ele>921</ele>
        <time>2012-09-30T08:56:46Z</time>
      </trkpt>
      <trkpt lat="42.87554" lon="1.94333">
        <ele>929</ele>
        <time>2012-09-30T08:56:51Z</time>
      </trkpt>
      <trkpt lat="42.87556" lon="1.94328">
        <ele>928</ele>
        <time>2012-09-30T08:56:54Z</time>
      </trkpt>
      <trkpt lat="42.87558" lon="1.94326">
        <ele>928</ele>
        <time>2012-09-30T08:56:56Z</time>
      </trkpt>
      <trkpt lat="42.87559" lon="1.94318">
        <ele>928</ele>
        <time>2012-09-30T08:57:03Z</time>
      </trkpt>
      <trkpt lat="42.87563" lon="1.94316">
        <ele>927</ele>
        <time>2012-09-30T08:57:07Z</time>
      </trkpt>
      <trkpt lat="42.87569" lon="1.9431">
        <ele>927</ele>
        <time>2012-09-30T08:57:13Z</time>
      </trkpt>
      <trkpt lat="42.87572" lon="1.94308">
        <ele>927</ele>
        <time>2012-09-30T08:57:17Z</time>
      </trkpt>
      <trkpt lat="42.87572" lon="1.94311">
        <ele>926</ele>
        <time>2012-09-30T08:57:27Z</time>
      </trkpt>
      <trkpt lat="42.87574" lon="1.94315">
        <ele>926</ele>
        <time>2012-09-30T08:57:34Z</time>
      </trkpt>
      <trkpt lat="42.87576" lon="1.94313">
        <ele>926</ele>
        <time>2012-09-30T08:57:41Z</time>
      </trkpt>
      <trkpt lat="42.87575" lon="1.94307">
        <ele>926</ele>
        <time>2012-09-30T08:57:47Z</time>
      </trkpt>
      <trkpt lat="42.87582" lon="1.94304">
        <ele>926</ele>
        <time>2012-09-30T08:57:56Z</time>
      </trkpt>
      <trkpt lat="42.8759" lon="1.94299">
        <ele>915</ele>
        <time>2012-09-30T08:58:00Z</time>
      </trkpt>
      <trkpt lat="42.87593" lon="1.94299">
        <ele>915</ele>
        <time>2012-09-30T08:58:03Z</time>
      </trkpt>
      <trkpt lat="42.87598" lon="1.94297">
        <ele>915</ele>
        <time>2012-09-30T08:58:08Z</time>
      </trkpt>
      <trkpt lat="42.87608" lon="1.94295">
        <ele>914</ele>
        <time>2012-09-30T08:58:14Z</time>
      </trkpt>
      <trkpt lat="42.87614" lon="1.94292">
        <ele>913</ele>
        <time>2012-09-30T08:58:18Z</time>
      </trkpt>
      <trkpt lat="42.87617" lon="1.9429">
        <ele>913</ele>
        <time>2012-09-30T08:58:20Z</time>
      </trkpt>
      <trkpt lat="42.87626" lon="1.94285">
        <ele>913</ele>
        <time>2012-09-30T08:58:24Z</time>
      </trkpt>
      <trkpt lat="42.87629" lon="1.94282">
        <ele>912</ele>
        <time>2012-09-30T08:58:26Z</time>
      </trkpt>
      <trkpt lat="42.87642" lon="1.94269">
        <ele>912</ele>
        <time>2012-09-30T08:58:32Z</time>
      </trkpt>
      <trkpt lat="42.8765" lon="1.94256">
        <ele>911</ele>
        <time>2012-09-30T08:58:36Z</time>
      </trkpt>
      <trkpt lat="42.87651" lon="1.94253">
        <ele>911</ele>
        <time>2012-09-30T08:58:37Z</time>
      </trkpt>
      <trkpt lat="42.87661" lon="1.94244">
        <ele>907</ele>
        <time>2012-09-30T08:58:42Z</time>
      </trkpt>
      <trkpt lat="42.87671" lon="1.94231">
        <ele>905</ele>
        <time>2012-09-30T08:58:48Z</time>
      </trkpt>
      <trkpt lat="42.87684" lon="1.94223">
        <ele>904</ele>
        <time>2012-09-30T08:58:53Z</time>
      </trkpt>
      <trkpt lat="42.87701" lon="1.94216">
        <ele>903</ele>
        <time>2012-09-30T08:58:58Z</time>
      </trkpt>
      <trkpt lat="42.87711" lon="1.9421">
        <ele>903</ele>
        <time>2012-09-30T08:59:02Z</time>
      </trkpt>
      <trkpt lat="42.8772" lon="1.94203">
        <ele>902</ele>
        <time>2012-09-30T08:59:06Z</time>
      </trkpt>
      <trkpt lat="42.87728" lon="1.94194">
        <ele>901</ele>
        <time>2012-09-30T08:59:10Z</time>
      </trkpt>
      <trkpt lat="42.87741" lon="1.94182">
        <ele>899</ele>
        <time>2012-09-30T08:59:15Z</time>
      </trkpt>
      <trkpt lat="42.87754" lon="1.94169">
        <ele>898</ele>
        <time>2012-09-30T08:59:20Z</time>
      </trkpt>
      <trkpt lat="42.87766" lon="1.94158">
        <ele>895</ele>
        <time>2012-09-30T08:59:25Z</time>
      </trkpt>
      <trkpt lat="42.87778" lon="1.94145">
        <ele>895</ele>
        <time>2012-09-30T08:59:30Z</time>
      </trkpt>
      <trkpt lat="42.87786" lon="1.94138">
        <ele>895</ele>
        <time>2012-09-30T08:59:34Z</time>
      </trkpt>
      <trkpt lat="42.87795" lon="1.94127">
        <ele>895</ele>
        <time>2012-09-30T08:59:38Z</time>
      </trkpt>
      <trkpt lat="42.87807" lon="1.94112">
        <ele>894</ele>
        <time>2012-09-30T08:59:42Z</time>
      </trkpt>
      <trkpt lat="42.87822" lon="1.941">
        <ele>893</ele>
        <time>2012-09-30T08:59:47Z</time>
      </trkpt>
      <trkpt lat="42.87836" lon="1.94081">
        <ele>892</ele>
        <time>2012-09-30T08:59:54Z</time>
      </trkpt>
      <trkpt lat="42.87848" lon="1.94065">
        <ele>891</ele>
        <time>2012-09-30T08:59:59Z</time>
      </trkpt>
      <trkpt lat="42.87862" lon="1.94049">
        <ele>890</ele>
        <time>2012-09-30T09:00:05Z</time>
      </trkpt>
      <trkpt lat="42.87869" lon="1.94039">
        <ele>889</ele>
        <time>2012-09-30T09:00:09Z</time>
      </trkpt>
      <trkpt lat="42.87877" lon="1.94023">
        <ele>888</ele>
        <time>2012-09-30T09:00:14Z</time>
      </trkpt>
      <trkpt lat="42.87884" lon="1.94008">
        <ele>887</ele>
        <time>2012-09-30T09:00:18Z</time>
      </trkpt>
      <trkpt lat="42.87893" lon="1.93997">
        <ele>871</ele>
        <time>2012-09-30T09:00:22Z</time>
      </trkpt>
      <trkpt lat="42.87903" lon="1.93984">
        <ele>872</ele>
        <time>2012-09-30T09:00:26Z</time>
      </trkpt>
      <trkpt lat="42.87921" lon="1.93963">
        <ele>874</ele>
        <time>2012-09-30T09:00:33Z</time>
      </trkpt>
      <trkpt lat="42.87931" lon="1.93952">
        <ele>871</ele>
        <time>2012-09-30T09:00:37Z</time>
      </trkpt>
      <trkpt lat="42.8795" lon="1.93942">
        <ele>870</ele>
        <time>2012-09-30T09:00:43Z</time>
      </trkpt>
      <trkpt lat="42.87963" lon="1.93938">
        <ele>870</ele>
        <time>2012-09-30T09:00:47Z</time>
      </trkpt>
      <trkpt lat="42.87974" lon="1.93932">
        <ele>868</ele>
        <time>2012-09-30T09:00:51Z</time>
      </trkpt>
      <trkpt lat="42.87988" lon="1.93922">
        <ele>864</ele>
        <time>2012-09-30T09:00:56Z</time>
      </trkpt>
      <trkpt lat="42.88002" lon="1.93916">
        <ele>856</ele>
        <time>2012-09-30T09:01:01Z</time>
      </trkpt>
      <trkpt lat="42.88014" lon="1.9391">
        <ele>848</ele>
        <time>2012-09-30T09:01:05Z</time>
      </trkpt>
      <trkpt lat="42.88029" lon="1.93905">
        <ele>844</ele>
        <time>2012-09-30T09:01:10Z</time>
      </trkpt>
      <trkpt lat="42.88046" lon="1.93898">
        <ele>842</ele>
        <time>2012-09-30T09:01:15Z</time>
      </trkpt>
      <trkpt lat="42.88065" lon="1.939">
        <ele>843</ele>
        <time>2012-09-30T09:01:21Z</time>
      </trkpt>
      <trkpt lat="42.88084" lon="1.93905">
        <ele>847</ele>
        <time>2012-09-30T09:01:27Z</time>
      </trkpt>
      <trkpt lat="42.88099" lon="1.9391">
        <ele>844</ele>
        <time>2012-09-30T09:01:32Z</time>
      </trkpt>
      <trkpt lat="42.88114" lon="1.93912">
        <ele>841</ele>
        <time>2012-09-30T09:01:37Z</time>
      </trkpt>
      <trkpt lat="42.88135" lon="1.93916">
        <ele>840</ele>
        <time>2012-09-30T09:01:44Z</time>
      </trkpt>
      <trkpt lat="42.88147" lon="1.93921">
        <ele>860</ele>
        <time>2012-09-30T09:01:48Z</time>
      </trkpt>
      <trkpt lat="42.88163" lon="1.93922">
        <ele>854</ele>
        <time>2012-09-30T09:01:53Z</time>
      </trkpt>
      <trkpt lat="42.88184" lon="1.93925">
        <ele>855</ele>
        <time>2012-09-30T09:01:59Z</time>
      </trkpt>
      <trkpt lat="42.88201" lon="1.9393">
        <ele>857</ele>
        <time>2012-09-30T09:02:04Z</time>
      </trkpt>
      <trkpt lat="42.88215" lon="1.93935">
        <ele>856</ele>
        <time>2012-09-30T09:02:09Z</time>
      </trkpt>
      <trkpt lat="42.8823" lon="1.93936">
        <ele>854</ele>
        <time>2012-09-30T09:02:14Z</time>
      </trkpt>
      <trkpt lat="42.88243" lon="1.9394">
        <ele>853</ele>
        <time>2012-09-30T09:02:18Z</time>
      </trkpt>
      <trkpt lat="42.88258" lon="1.9394">
        <ele>846</ele>
        <time>2012-09-30T09:02:22Z</time>
      </trkpt>
      <trkpt lat="42.88279" lon="1.93945">
        <ele>847</ele>
        <time>2012-09-30T09:02:28Z</time>
      </trkpt>
      <trkpt lat="42.883" lon="1.9395">
        <ele>847</ele>
        <time>2012-09-30T09:02:33Z</time>
      </trkpt>
      <trkpt lat="42.88316" lon="1.93961">
        <ele>847</ele>
        <time>2012-09-30T09:02:38Z</time>
      </trkpt>
      <trkpt lat="42.88332" lon="1.93971">
        <ele>849</ele>
        <time>2012-09-30T09:02:42Z</time>
      </trkpt>
      <trkpt lat="42.88348" lon="1.93984">
        <ele>842</ele>
        <time>2012-09-30T09:02:48Z</time>
      </trkpt>
      <trkpt lat="42.88362" lon="1.93997">
        <ele>840</ele>
        <time>2012-09-30T09:02:54Z</time>
      </trkpt>
      <trkpt lat="42.88374" lon="1.93999">
        <ele>837</ele>
        <time>2012-09-30T09:02:58Z</time>
      </trkpt>
      <trkpt lat="42.88386" lon="1.93998">
        <ele>835</ele>
        <time>2012-09-30T09:03:01Z</time>
      </trkpt>
      <trkpt lat="42.88401" lon="1.93994">
        <ele>833</ele>
        <time>2012-09-30T09:03:06Z</time>
      </trkpt>
      <trkpt lat="42.88415" lon="1.93984">
        <ele>832</ele>
        <time>2012-09-30T09:03:11Z</time>
      </trkpt>
      <trkpt lat="42.88426" lon="1.93979">
        <ele>825</ele>
        <time>2012-09-30T09:03:16Z</time>
      </trkpt>
      <trkpt lat="42.88437" lon="1.9397">
        <ele>823</ele>
        <time>2012-09-30T09:03:21Z</time>
      </trkpt>
      <trkpt lat="42.88444" lon="1.93958">
        <ele>821</ele>
        <time>2012-09-30T09:03:25Z</time>
      </trkpt>
      <trkpt lat="42.88455" lon="1.93948">
        <ele>820</ele>
        <time>2012-09-30T09:03:29Z</time>
      </trkpt>
      <trkpt lat="42.88465" lon="1.93934">
        <ele>820</ele>
        <time>2012-09-30T09:03:34Z</time>
      </trkpt>
      <trkpt lat="42.88478" lon="1.93922">
        <ele>820</ele>
        <time>2012-09-30T09:03:39Z</time>
      </trkpt>
      <trkpt lat="42.88486" lon="1.93914">
        <ele>818</ele>
        <time>2012-09-30T09:03:43Z</time>
      </trkpt>
      <trkpt lat="42.88492" lon="1.93903">
        <ele>818</ele>
        <time>2012-09-30T09:03:49Z</time>
      </trkpt>
      <trkpt lat="42.88492" lon="1.93903">
        <ele>818</ele>
        <time>2012-09-30T09:03:52Z</time>
      </trkpt>
      <trkpt lat="42.88496" lon="1.93902">
        <ele>818</ele>
        <time>2012-09-30T09:03:56Z</time>
      </trkpt>
      <trkpt lat="42.88498" lon="1.93902">
        <ele>818</ele>
        <time>2012-09-30T09:04:02Z</time>
      </trkpt>
      <trkpt lat="42.88499" lon="1.93899">
        <ele>818</ele>
        <time>2012-09-30T09:04:08Z</time>
      </trkpt>
      <trkpt lat="42.88499" lon="1.93897">
        <ele>817</ele>
        <time>2012-09-30T09:04:09Z</time>
      </trkpt>
      <trkpt lat="42.88502" lon="1.93891">
        <ele>823</ele>
        <time>2012-09-30T09:04:15Z</time>
      </trkpt>
      <trkpt lat="42.88505" lon="1.93885">
        <ele>823</ele>
        <time>2012-09-30T09:04:21Z</time>
      </trkpt>
      <trkpt lat="42.88505" lon="1.93883">
        <ele>823</ele>
        <time>2012-09-30T09:04:28Z</time>
      </trkpt>
      <trkpt lat="42.88502" lon="1.93874">
        <ele>823</ele>
        <time>2012-09-30T09:04:32Z</time>
      </trkpt>
      <trkpt lat="42.88501" lon="1.93869">
        <ele>823</ele>
        <time>2012-09-30T09:04:34Z</time>
      </trkpt>
      <trkpt lat="42.88497" lon="1.93862">
        <ele>817</ele>
        <time>2012-09-30T09:04:38Z</time>
      </trkpt>
      <trkpt lat="42.88499" lon="1.93843">
        <ele>819</ele>
        <time>2012-09-30T09:04:45Z</time>
      </trkpt>
      <trkpt lat="42.88505" lon="1.93825">
        <ele>822</ele>
        <time>2012-09-30T09:04:49Z</time>
      </trkpt>
      <trkpt lat="42.88511" lon="1.93807">
        <ele>821</ele>
        <time>2012-09-30T09:04:54Z</time>
      </trkpt>
      <trkpt lat="42.88513" lon="1.93802">
        <ele>821</ele>
        <time>2012-09-30T09:04:56Z</time>
      </trkpt>
      <trkpt lat="42.88514" lon="1.93799">
        <ele>821</ele>
        <time>2012-09-30T09:04:58Z</time>
      </trkpt>
      <trkpt lat="42.88513" lon="1.93794">
        <ele>820</ele>
        <time>2012-09-30T09:05:05Z</time>
      </trkpt>
      <trkpt lat="42.88513" lon="1.93795">
        <ele>820</ele>
        <time>2012-09-30T09:05:15Z</time>
      </trkpt>
      <trkpt lat="42.88512" lon="1.93795">
        <ele>820</ele>
        <time>2012-09-30T09:05:22Z</time>
      </trkpt>
      <trkpt lat="42.88511" lon="1.93795">
        <ele>820</ele>
        <time>2012-09-30T09:05:27Z</time>
      </trkpt>
      <trkpt lat="42.88512" lon="1.93797">
        <ele>820</ele>
        <time>2012-09-30T09:05:34Z</time>
      </trkpt>
      <trkpt lat="42.88512" lon="1.93803">
        <ele>821</ele>
        <time>2012-09-30T09:05:39Z</time>
      </trkpt>
      <trkpt lat="42.88512" lon="1.93805">
        <ele>821</ele>
        <time>2012-09-30T09:05:40Z</time>
      </trkpt>
      <trkpt lat="42.88509" lon="1.93813">
        <ele>821</ele>
        <time>2012-09-30T09:05:45Z</time>
      </trkpt>
      <trkpt lat="42.8851" lon="1.93816">
        <ele>822</ele>
        <time>2012-09-30T09:05:47Z</time>
      </trkpt>
      <trkpt lat="42.88509" lon="1.93821">
        <ele>822</ele>
        <time>2012-09-30T09:05:50Z</time>
      </trkpt>
      <trkpt lat="42.88506" lon="1.93832">
        <ele>822</ele>
        <time>2012-09-30T09:05:56Z</time>
      </trkpt>
      <trkpt lat="42.88504" lon="1.93842">
        <ele>823</ele>
        <time>2012-09-30T09:06:02Z</time>
      </trkpt>
      <trkpt lat="42.88503" lon="1.93863">
        <ele>823</ele>
        <time>2012-09-30T09:06:09Z</time>
      </trkpt>
      <trkpt lat="42.885" lon="1.93869">
        <ele>817</ele>
        <time>2012-09-30T09:06:15Z</time>
      </trkpt>
      <trkpt lat="42.88498" lon="1.93872">
        <ele>817</ele>
        <time>2012-09-30T09:06:32Z</time>
      </trkpt>
      <trkpt lat="42.88498" lon="1.93873">
        <ele>817</ele>
        <time>2012-09-30T09:06:33Z</time>
      </trkpt>
      <trkpt lat="42.88501" lon="1.93883">
        <ele>823</ele>
        <time>2012-09-30T09:06:37Z</time>
      </trkpt>
      <trkpt lat="42.88503" lon="1.93889">
        <ele>823</ele>
        <time>2012-09-30T09:06:40Z</time>
      </trkpt>
      <trkpt lat="42.88503" lon="1.93889">
        <ele>823</ele>
        <time>2012-09-30T09:06:41Z</time>
      </trkpt>
      <trkpt lat="42.88501" lon="1.93895">
        <ele>822</ele>
        <time>2012-09-30T09:06:45Z</time>
      </trkpt>
      <trkpt lat="42.88495" lon="1.93903">
        <ele>818</ele>
        <time>2012-09-30T09:06:48Z</time>
      </trkpt>
      <trkpt lat="42.88486" lon="1.93903">
        <ele>817</ele>
        <time>2012-09-30T09:06:53Z</time>
      </trkpt>
      <trkpt lat="42.88483" lon="1.93902">
        <ele>817</ele>
        <time>2012-09-30T09:06:57Z</time>
      </trkpt>
      <trkpt lat="42.88477" lon="1.93899">
        <ele>816</ele>
        <time>2012-09-30T09:07:01Z</time>
      </trkpt>
      <trkpt lat="42.88462" lon="1.939">
        <ele>815</ele>
        <time>2012-09-30T09:07:06Z</time>
      </trkpt>
      <trkpt lat="42.88444" lon="1.93908">
        <ele>814</ele>
        <time>2012-09-30T09:07:13Z</time>
      </trkpt>
      <trkpt lat="42.88432" lon="1.93917">
        <ele>818</ele>
        <time>2012-09-30T09:07:18Z</time>
      </trkpt>
      <trkpt lat="42.88421" lon="1.93925">
        <ele>817</ele>
        <time>2012-09-30T09:07:23Z</time>
      </trkpt>
      <trkpt lat="42.88412" lon="1.9393">
        <ele>822</ele>
        <time>2012-09-30T09:07:27Z</time>
      </trkpt>
      <trkpt lat="42.88401" lon="1.93936">
        <ele>826</ele>
        <time>2012-09-30T09:07:32Z</time>
      </trkpt>
      <trkpt lat="42.88394" lon="1.93936">
        <ele>827</ele>
        <time>2012-09-30T09:07:36Z</time>
      </trkpt>
      <trkpt lat="42.88384" lon="1.93931">
        <ele>828</ele>
        <time>2012-09-30T09:07:40Z</time>
      </trkpt>
      <trkpt lat="42.8837" lon="1.93918">
        <ele>829</ele>
        <time>2012-09-30T09:07:45Z</time>
      </trkpt>
      <trkpt lat="42.88366" lon="1.93913">
        <ele>816</ele>
        <time>2012-09-30T09:07:47Z</time>
      </trkpt>
      <trkpt lat="42.88358" lon="1.93898">
        <ele>816</ele>
        <time>2012-09-30T09:07:52Z</time>
      </trkpt>
      <trkpt lat="42.8835" lon="1.93882">
        <ele>814</ele>
        <time>2012-09-30T09:07:57Z</time>
      </trkpt>
      <trkpt lat="42.88345" lon="1.93864">
        <ele>811</ele>
        <time>2012-09-30T09:08:02Z</time>
      </trkpt>
      <trkpt lat="42.88339" lon="1.93846">
        <ele>808</ele>
        <time>2012-09-30T09:08:06Z</time>
      </trkpt>
      <trkpt lat="42.88329" lon="1.93828">
        <ele>800</ele>
        <time>2012-09-30T09:08:11Z</time>
      </trkpt>
      <trkpt lat="42.88319" lon="1.93812">
        <ele>794</ele>
        <time>2012-09-30T09:08:16Z</time>
      </trkpt>
      <trkpt lat="42.88301" lon="1.93809">
        <ele>792</ele>
        <time>2012-09-30T09:08:21Z</time>
      </trkpt>
      <trkpt lat="42.88285" lon="1.9381">
        <ele>792</ele>
        <time>2012-09-30T09:08:27Z</time>
      </trkpt>
      <trkpt lat="42.8827" lon="1.93811">
        <ele>793</ele>
        <time>2012-09-30T09:08:31Z</time>
      </trkpt>
      <trkpt lat="42.88267" lon="1.9381">
        <ele>793</ele>
        <time>2012-09-30T09:08:32Z</time>
      </trkpt>
      <trkpt lat="42.88251" lon="1.93808">
        <ele>793</ele>
        <time>2012-09-30T09:08:37Z</time>
      </trkpt>
      <trkpt lat="42.88238" lon="1.938">
        <ele>793</ele>
        <time>2012-09-30T09:08:42Z</time>
      </trkpt>
      <trkpt lat="42.88226" lon="1.93792">
        <ele>792</ele>
        <time>2012-09-30T09:08:46Z</time>
      </trkpt>
      <trkpt lat="42.88215" lon="1.93776">
        <ele>790</ele>
        <time>2012-09-30T09:08:51Z</time>
      </trkpt>
      <trkpt lat="42.88216" lon="1.93775">
        <ele>790</ele>
        <time>2012-09-30T09:08:52Z</time>
      </trkpt>
      <trkpt lat="42.8823" lon="1.93776">
        <ele>789</ele>
        <time>2012-09-30T09:08:56Z</time>
      </trkpt>
      <trkpt lat="42.88233" lon="1.93773">
        <ele>788</ele>
        <time>2012-09-30T09:09:00Z</time>
      </trkpt>
      <trkpt lat="42.88223" lon="1.93768">
        <ele>788</ele>
        <time>2012-09-30T09:09:03Z</time>
      </trkpt>
      <trkpt lat="42.88219" lon="1.93768">
        <ele>788</ele>
        <time>2012-09-30T09:09:04Z</time>
      </trkpt>
      <trkpt lat="42.88198" lon="1.93756">
        <ele>789</ele>
        <time>2012-09-30T09:09:10Z</time>
      </trkpt>
      <trkpt lat="42.88185" lon="1.93747">
        <ele>779</ele>
        <time>2012-09-30T09:09:15Z</time>
      </trkpt>
      <trkpt lat="42.88182" lon="1.93744">
        <ele>780</ele>
        <time>2012-09-30T09:09:17Z</time>
      </trkpt>
      <trkpt lat="42.88181" lon="1.93741">
        <ele>779</ele>
        <time>2012-09-30T09:09:19Z</time>
      </trkpt>
      <trkpt lat="42.88171" lon="1.93735">
        <ele>780</ele>
        <time>2012-09-30T09:09:23Z</time>
      </trkpt>
      <trkpt lat="42.88145" lon="1.93727">
        <ele>787</ele>
        <time>2012-09-30T09:09:30Z</time>
      </trkpt>
      <trkpt lat="42.88141" lon="1.93725">
        <ele>788</ele>
        <time>2012-09-30T09:09:31Z</time>
      </trkpt>
      <trkpt lat="42.88121" lon="1.93711">
        <ele>790</ele>
        <time>2012-09-30T09:09:36Z</time>
      </trkpt>
      <trkpt lat="42.88099" lon="1.93707">
        <ele>792</ele>
        <time>2012-09-30T09:09:41Z</time>
      </trkpt>
      <trkpt lat="42.88092" lon="1.93702">
        <ele>793</ele>
        <time>2012-09-30T09:09:45Z</time>
      </trkpt>
      <trkpt lat="42.88092" lon="1.937">
        <ele>793</ele>
        <time>2012-09-30T09:09:46Z</time>
      </trkpt>
      <trkpt lat="42.88105" lon="1.93685">
        <ele>793</ele>
        <time>2012-09-30T09:09:52Z</time>
      </trkpt>
      <trkpt lat="42.88112" lon="1.93681">
        <ele>792</ele>
        <time>2012-09-30T09:09:56Z</time>
      </trkpt>
      <trkpt lat="42.8812" lon="1.9368">
        <ele>791</ele>
        <time>2012-09-30T09:09:58Z</time>
      </trkpt>
      <trkpt lat="42.88136" lon="1.93676">
        <ele>787</ele>
        <time>2012-09-30T09:10:04Z</time>
      </trkpt>
      <trkpt lat="42.88155" lon="1.93676">
        <ele>783</ele>
        <time>2012-09-30T09:10:08Z</time>
      </trkpt>
      <trkpt lat="42.88163" lon="1.93673">
        <ele>780</ele>
        <time>2012-09-30T09:10:11Z</time>
      </trkpt>
      <trkpt lat="42.88171" lon="1.93672">
        <ele>776</ele>
        <time>2012-09-30T09:10:15Z</time>
      </trkpt>
      <trkpt lat="42.88183" lon="1.93671">
        <ele>776</ele>
        <time>2012-09-30T09:10:19Z</time>
      </trkpt>
      <trkpt lat="42.882" lon="1.93672">
        <ele>774</ele>
        <time>2012-09-30T09:10:24Z</time>
      </trkpt>
      <trkpt lat="42.88214" lon="1.93665">
        <ele>774</ele>
        <time>2012-09-30T09:10:28Z</time>
      </trkpt>
      <trkpt lat="42.88226" lon="1.93654">
        <ele>773</ele>
        <time>2012-09-30T09:10:33Z</time>
      </trkpt>
      <trkpt lat="42.88241" lon="1.93646">
        <ele>772</ele>
        <time>2012-09-30T09:10:38Z</time>
      </trkpt>
      <trkpt lat="42.88253" lon="1.93638">
        <ele>764</ele>
        <time>2012-09-30T09:10:42Z</time>
      </trkpt>
      <trkpt lat="42.88266" lon="1.93633">
        <ele>764</ele>
        <time>2012-09-30T09:10:46Z</time>
      </trkpt>
      <trkpt lat="42.88289" lon="1.93628">
        <ele>763</ele>
        <time>2012-09-30T09:10:51Z</time>
      </trkpt>
      <trkpt lat="42.88306" lon="1.93623">
        <ele>762</ele>
        <time>2012-09-30T09:10:57Z</time>
      </trkpt>
      <trkpt lat="42.88315" lon="1.93616">
        <ele>761</ele>
        <time>2012-09-30T09:11:02Z</time>
      </trkpt>
      <trkpt lat="42.88329" lon="1.9361">
        <ele>760</ele>
        <time>2012-09-30T09:11:08Z</time>
      </trkpt>
      <trkpt lat="42.8834" lon="1.93596">
        <ele>757</ele>
        <time>2012-09-30T09:11:13Z</time>
      </trkpt>
      <trkpt lat="42.88351" lon="1.93577">
        <ele>756</ele>
        <time>2012-09-30T09:11:19Z</time>
      </trkpt>
      <trkpt lat="42.88356" lon="1.93558">
        <ele>756</ele>
        <time>2012-09-30T09:11:24Z</time>
      </trkpt>
      <trkpt lat="42.88369" lon="1.93543">
        <ele>756</ele>
        <time>2012-09-30T09:11:29Z</time>
      </trkpt>
      <trkpt lat="42.88387" lon="1.93523">
        <ele>755</ele>
        <time>2012-09-30T09:11:36Z</time>
      </trkpt>
      <trkpt lat="42.88398" lon="1.93512">
        <ele>753</ele>
        <time>2012-09-30T09:11:40Z</time>
      </trkpt>
      <trkpt lat="42.88407" lon="1.93504">
        <ele>751</ele>
        <time>2012-09-30T09:11:44Z</time>
      </trkpt>
      <trkpt lat="42.88417" lon="1.93496">
        <ele>749</ele>
        <time>2012-09-30T09:11:49Z</time>
      </trkpt>
      <trkpt lat="42.88429" lon="1.93488">
        <ele>751</ele>
        <time>2012-09-30T09:11:54Z</time>
      </trkpt>
      <trkpt lat="42.88442" lon="1.93485">
        <ele>752</ele>
        <time>2012-09-30T09:11:59Z</time>
      </trkpt>
      <trkpt lat="42.88457" lon="1.93481">
        <ele>752</ele>
        <time>2012-09-30T09:12:03Z</time>
      </trkpt>
      <trkpt lat="42.88475" lon="1.93481">
        <ele>750</ele>
        <time>2012-09-30T09:12:08Z</time>
      </trkpt>
      <trkpt lat="42.88494" lon="1.93481">
        <ele>748</ele>
        <time>2012-09-30T09:12:13Z</time>
      </trkpt>
      <trkpt lat="42.88502" lon="1.93484">
        <ele>743</ele>
        <time>2012-09-30T09:12:18Z</time>
      </trkpt>
      <trkpt lat="42.88504" lon="1.93486">
        <ele>743</ele>
        <time>2012-09-30T09:12:20Z</time>
      </trkpt>
      <trkpt lat="42.88519" lon="1.93484">
        <ele>743</ele>
        <time>2012-09-30T09:12:25Z</time>
      </trkpt>
      <trkpt lat="42.88531" lon="1.93484">
        <ele>744</ele>
        <time>2012-09-30T09:12:29Z</time>
      </trkpt>
      <trkpt lat="42.88551" lon="1.93482">
        <ele>743</ele>
        <time>2012-09-30T09:12:36Z</time>
      </trkpt>
      <trkpt lat="42.8856" lon="1.93479">
        <ele>743</ele>
        <time>2012-09-30T09:12:40Z</time>
      </trkpt>
      <trkpt lat="42.88566" lon="1.93477">
        <ele>743</ele>
        <time>2012-09-30T09:12:43Z</time>
      </trkpt>
      <trkpt lat="42.8858" lon="1.93473">
        <ele>743</ele>
        <time>2012-09-30T09:12:48Z</time>
      </trkpt>
      <trkpt lat="42.88591" lon="1.93473">
        <ele>741</ele>
        <time>2012-09-30T09:12:53Z</time>
      </trkpt>
      <trkpt lat="42.88603" lon="1.93471">
        <ele>741</ele>
        <time>2012-09-30T09:12:57Z</time>
      </trkpt>
      <trkpt lat="42.88623" lon="1.93464">
        <ele>741</ele>
        <time>2012-09-30T09:13:03Z</time>
      </trkpt>
      <trkpt lat="42.88639" lon="1.93458">
        <ele>741</ele>
        <time>2012-09-30T09:13:07Z</time>
      </trkpt>
      <trkpt lat="42.88651" lon="1.93451">
        <ele>740</ele>
        <time>2012-09-30T09:13:12Z</time>
      </trkpt>
      <trkpt lat="42.88667" lon="1.93441">
        <ele>740</ele>
        <time>2012-09-30T09:13:16Z</time>
      </trkpt>
      <trkpt lat="42.88669" lon="1.93435">
        <ele>739</ele>
        <time>2012-09-30T09:13:20Z</time>
      </trkpt>
      <trkpt lat="42.88674" lon="1.93431">
        <ele>738</ele>
        <time>2012-09-30T09:13:22Z</time>
      </trkpt>
      <trkpt lat="42.8869" lon="1.93414">
        <ele>735</ele>
        <time>2012-09-30T09:13:28Z</time>
      </trkpt>
      <trkpt lat="42.88698" lon="1.93405">
        <ele>734</ele>
        <time>2012-09-30T09:13:32Z</time>
      </trkpt>
      <trkpt lat="42.88713" lon="1.93393">
        <ele>734</ele>
        <time>2012-09-30T09:13:37Z</time>
      </trkpt>
      <trkpt lat="42.88724" lon="1.93381">
        <ele>733</ele>
        <time>2012-09-30T09:13:42Z</time>
      </trkpt>
      <trkpt lat="42.88741" lon="1.93374">
        <ele>732</ele>
        <time>2012-09-30T09:13:48Z</time>
      </trkpt>
      <trkpt lat="42.8875" lon="1.93373">
        <ele>728</ele>
        <time>2012-09-30T09:13:52Z</time>
      </trkpt>
      <trkpt lat="42.88768" lon="1.93369">
        <ele>727</ele>
        <time>2012-09-30T09:13:57Z</time>
      </trkpt>
      <trkpt lat="42.88774" lon="1.93366">
        <ele>727</ele>
        <time>2012-09-30T09:14:01Z</time>
      </trkpt>
      <trkpt lat="42.88787" lon="1.93355">
        <ele>727</ele>
        <time>2012-09-30T09:14:05Z</time>
      </trkpt>
      <trkpt lat="42.88808" lon="1.93347">
        <ele>725</ele>
        <time>2012-09-30T09:14:10Z</time>
      </trkpt>
      <trkpt lat="42.88824" lon="1.93346">
        <ele>724</ele>
        <time>2012-09-30T09:14:14Z</time>
      </trkpt>
      <trkpt lat="42.88832" lon="1.93347">
        <ele>724</ele>
        <time>2012-09-30T09:14:16Z</time>
      </trkpt>
      <trkpt lat="42.88848" lon="1.93357">
        <ele>722</ele>
        <time>2012-09-30T09:14:22Z</time>
      </trkpt>
      <trkpt lat="42.88858" lon="1.93361">
        <ele>722</ele>
        <time>2012-09-30T09:14:26Z</time>
      </trkpt>
      <trkpt lat="42.88868" lon="1.93363">
        <ele>722</ele>
        <time>2012-09-30T09:14:31Z</time>
      </trkpt>
      <trkpt lat="42.8889" lon="1.93369">
        <ele>721</ele>
        <time>2012-09-30T09:14:38Z</time>
      </trkpt>
      <trkpt lat="42.88909" lon="1.93382">
        <ele>720</ele>
        <time>2012-09-30T09:14:43Z</time>
      </trkpt>
      <trkpt lat="42.88924" lon="1.93393">
        <ele>715</ele>
        <time>2012-09-30T09:14:49Z</time>
      </trkpt>
      <trkpt lat="42.88937" lon="1.93397">
        <ele>714</ele>
        <time>2012-09-30T09:14:54Z</time>
      </trkpt>
      <trkpt lat="42.88946" lon="1.93401">
        <ele>713</ele>
        <time>2012-09-30T09:14:57Z</time>
      </trkpt>
      <trkpt lat="42.88964" lon="1.93408">
        <ele>710</ele>
        <time>2012-09-30T09:15:04Z</time>
      </trkpt>
      <trkpt lat="42.88979" lon="1.93422">
        <ele>707</ele>
        <time>2012-09-30T09:15:10Z</time>
      </trkpt>
      <trkpt lat="42.88986" lon="1.93438">
        <ele>708</ele>
        <time>2012-09-30T09:15:15Z</time>
      </trkpt>
      <trkpt lat="42.88991" lon="1.93457">
        <ele>711</ele>
        <time>2012-09-30T09:15:20Z</time>
      </trkpt>
      <trkpt lat="42.88992" lon="1.93465">
        <ele>711</ele>
        <time>2012-09-30T09:15:22Z</time>
      </trkpt>
      <trkpt lat="42.89" lon="1.9348">
        <ele>710</ele>
        <time>2012-09-30T09:15:27Z</time>
      </trkpt>
      <trkpt lat="42.89017" lon="1.93499">
        <ele>690</ele>
        <time>2012-09-30T09:15:33Z</time>
      </trkpt>
      <trkpt lat="42.89026" lon="1.93516">
        <ele>698</ele>
        <time>2012-09-30T09:15:38Z</time>
      </trkpt>
      <trkpt lat="42.89035" lon="1.93527">
        <ele>697</ele>
        <time>2012-09-30T09:15:42Z</time>
      </trkpt>
      <trkpt lat="42.89043" lon="1.93534">
        <ele>696</ele>
        <time>2012-09-30T09:15:45Z</time>
      </trkpt>
      <trkpt lat="42.89054" lon="1.93537">
        <ele>693</ele>
        <time>2012-09-30T09:15:49Z</time>
      </trkpt>
      <trkpt lat="42.89066" lon="1.93541">
        <ele>691</ele>
        <time>2012-09-30T09:15:53Z</time>
      </trkpt>
      <trkpt lat="42.89081" lon="1.93548">
        <ele>690</ele>
        <time>2012-09-30T09:15:58Z</time>
      </trkpt>
      <trkpt lat="42.89093" lon="1.93553">
        <ele>666</ele>
        <time>2012-09-30T09:16:02Z</time>
      </trkpt>
      <trkpt lat="42.89106" lon="1.93559">
        <ele>666</ele>
        <time>2012-09-30T09:16:07Z</time>
      </trkpt>
      <trkpt lat="42.89119" lon="1.93567">
        <ele>664</ele>
        <time>2012-09-30T09:16:11Z</time>
      </trkpt>
      <trkpt lat="42.8913" lon="1.93576">
        <ele>661</ele>
        <time>2012-09-30T09:16:15Z</time>
      </trkpt>
      <trkpt lat="42.89141" lon="1.9359">
        <ele>677</ele>
        <time>2012-09-30T09:16:20Z</time>
      </trkpt>
      <trkpt lat="42.89149" lon="1.93602">
        <ele>676</ele>
        <time>2012-09-30T09:16:24Z</time>
      </trkpt>
      <trkpt lat="42.89157" lon="1.93615">
        <ele>678</ele>
        <time>2012-09-30T09:16:28Z</time>
      </trkpt>
      <trkpt lat="42.89163" lon="1.93628">
        <ele>681</ele>
        <time>2012-09-30T09:16:32Z</time>
      </trkpt>
      <trkpt lat="42.89167" lon="1.93641">
        <ele>681</ele>
        <time>2012-09-30T09:16:36Z</time>
      </trkpt>
      <trkpt lat="42.89173" lon="1.93641">
        <ele>658</ele>
        <time>2012-09-30T09:16:40Z</time>
      </trkpt>
      <trkpt lat="42.89173" lon="1.93627">
        <ele>654</ele>
        <time>2012-09-30T09:16:45Z</time>
      </trkpt>
      <trkpt lat="42.89165" lon="1.93612">
        <ele>676</ele>
        <time>2012-09-30T09:16:49Z</time>
      </trkpt>
      <trkpt lat="42.8916" lon="1.93602">
        <ele>673</ele>
        <time>2012-09-30T09:16:52Z</time>
      </trkpt>
      <trkpt lat="42.89157" lon="1.93581">
        <ele>656</ele>
        <time>2012-09-30T09:16:57Z</time>
      </trkpt>
      <trkpt lat="42.89169" lon="1.93595">
        <ele>652</ele>
        <time>2012-09-30T09:17:02Z</time>
      </trkpt>
      <trkpt lat="42.89179" lon="1.93608">
        <ele>651</ele>
        <time>2012-09-30T09:17:06Z</time>
      </trkpt>
      <trkpt lat="42.89191" lon="1.93623">
        <ele>650</ele>
        <time>2012-09-30T09:17:11Z</time>
      </trkpt>
      <trkpt lat="42.89196" lon="1.93628">
        <ele>650</ele>
        <time>2012-09-30T09:17:13Z</time>
      </trkpt>
      <trkpt lat="42.89209" lon="1.93644">
        <ele>649</ele>
        <time>2012-09-30T09:17:18Z</time>
      </trkpt>
      <trkpt lat="42.89219" lon="1.93657">
        <ele>646</ele>
        <time>2012-09-30T09:17:22Z</time>
      </trkpt>
      <trkpt lat="42.89224" lon="1.9367">
        <ele>651</ele>
        <time>2012-09-30T09:17:26Z</time>
      </trkpt>
      <trkpt lat="42.8923" lon="1.93687">
        <ele>651</ele>
        <time>2012-09-30T09:17:31Z</time>
      </trkpt>
      <trkpt lat="42.89231" lon="1.93694">
        <ele>652</ele>
        <time>2012-09-30T09:17:33Z</time>
      </trkpt>
      <trkpt lat="42.89236" lon="1.93711">
        <ele>652</ele>
        <time>2012-09-30T09:17:38Z</time>
      </trkpt>
      <trkpt lat="42.89244" lon="1.93716">
        <ele>651</ele>
        <time>2012-09-30T09:17:43Z</time>
      </trkpt>
      <trkpt lat="42.89246" lon="1.93709">
        <ele>651</ele>
        <time>2012-09-30T09:17:48Z</time>
      </trkpt>
      <trkpt lat="42.89247" lon="1.93708">
        <ele>650</ele>
        <time>2012-09-30T09:17:49Z</time>
      </trkpt>
      <trkpt lat="42.89244" lon="1.93696">
        <ele>649</ele>
        <time>2012-09-30T09:17:56Z</time>
      </trkpt>
      <trkpt lat="42.89242" lon="1.93684">
        <ele>647</ele>
        <time>2012-09-30T09:18:00Z</time>
      </trkpt>
      <trkpt lat="42.8924" lon="1.93666">
        <ele>639</ele>
        <time>2012-09-30T09:18:06Z</time>
      </trkpt>
      <trkpt lat="42.89237" lon="1.93652">
        <ele>641</ele>
        <time>2012-09-30T09:18:10Z</time>
      </trkpt>
      <trkpt lat="42.89232" lon="1.93639">
        <ele>643</ele>
        <time>2012-09-30T09:18:14Z</time>
      </trkpt>
      <trkpt lat="42.89225" lon="1.93626">
        <ele>643</ele>
        <time>2012-09-30T09:18:18Z</time>
      </trkpt>
      <trkpt lat="42.89214" lon="1.93608">
        <ele>644</ele>
        <time>2012-09-30T09:18:24Z</time>
      </trkpt>
      <trkpt lat="42.89204" lon="1.93591">
        <ele>645</ele>
        <time>2012-09-30T09:18:29Z</time>
      </trkpt>
      <trkpt lat="42.89202" lon="1.93587">
        <ele>646</ele>
        <time>2012-09-30T09:18:30Z</time>
      </trkpt>
      <trkpt lat="42.89192" lon="1.93568">
        <ele>636</ele>
        <time>2012-09-30T09:18:36Z</time>
      </trkpt>
      <trkpt lat="42.8918" lon="1.93553">
        <ele>636</ele>
        <time>2012-09-30T09:18:41Z</time>
      </trkpt>
      <trkpt lat="42.89171" lon="1.93538">
        <ele>633</ele>
        <time>2012-09-30T09:18:46Z</time>
      </trkpt>
      <trkpt lat="42.89157" lon="1.93525">
        <ele>647</ele>
        <time>2012-09-30T09:18:51Z</time>
      </trkpt>
      <trkpt lat="42.89151" lon="1.93513">
        <ele>644</ele>
        <time>2012-09-30T09:18:56Z</time>
      </trkpt>
      <trkpt lat="42.89142" lon="1.935">
        <ele>637</ele>
        <time>2012-09-30T09:19:01Z</time>
      </trkpt>
      <trkpt lat="42.89137" lon="1.9349">
        <ele>638</ele>
        <time>2012-09-30T09:19:05Z</time>
      </trkpt>
      <trkpt lat="42.89126" lon="1.93479">
        <ele>640</ele>
        <time>2012-09-30T09:19:10Z</time>
      </trkpt>
      <trkpt lat="42.89121" lon="1.93469">
        <ele>641</ele>
        <time>2012-09-30T09:19:13Z</time>
      </trkpt>
      <trkpt lat="42.89121" lon="1.93466">
        <ele>641</ele>
        <time>2012-09-30T09:19:14Z</time>
      </trkpt>
      <trkpt lat="42.89128" lon="1.93447">
        <ele>639</ele>
        <time>2012-09-30T09:19:19Z</time>
      </trkpt>
      <trkpt lat="42.89129" lon="1.93443">
        <ele>639</ele>
        <time>2012-09-30T09:19:20Z</time>
      </trkpt>
      <trkpt lat="42.89119" lon="1.93437">
        <ele>641</ele>
        <time>2012-09-30T09:19:25Z</time>
      </trkpt>
      <trkpt lat="42.89115" lon="1.9343">
        <ele>642</ele>
        <time>2012-09-30T09:19:29Z</time>
      </trkpt>
      <trkpt lat="42.89109" lon="1.93414">
        <ele>651</ele>
        <time>2012-09-30T09:19:33Z</time>
      </trkpt>
      <trkpt lat="42.89104" lon="1.93397">
        <ele>653</ele>
        <time>2012-09-30T09:19:37Z</time>
      </trkpt>
      <trkpt lat="42.89111" lon="1.93392">
        <ele>653</ele>
        <time>2012-09-30T09:19:41Z</time>
      </trkpt>
      <trkpt lat="42.89124" lon="1.93384">
        <ele>652</ele>
        <time>2012-09-30T09:19:46Z</time>
      </trkpt>
      <trkpt lat="42.89128" lon="1.93378">
        <ele>653</ele>
        <time>2012-09-30T09:19:49Z</time>
      </trkpt>
      <trkpt lat="42.89143" lon="1.93367">
        <ele>653</ele>
        <time>2012-09-30T09:19:56Z</time>
      </trkpt>
      <trkpt lat="42.89153" lon="1.93357">
        <ele>653</ele>
        <time>2012-09-30T09:20:01Z</time>
      </trkpt>
      <trkpt lat="42.89154" lon="1.93353">
        <ele>653</ele>
        <time>2012-09-30T09:20:04Z</time>
      </trkpt>
      <trkpt lat="42.89158" lon="1.93346">
        <ele>653</ele>
        <time>2012-09-30T09:20:08Z</time>
      </trkpt>
      <trkpt lat="42.89161" lon="1.9334">
        <ele>653</ele>
        <time>2012-09-30T09:20:12Z</time>
      </trkpt>
      <trkpt lat="42.89168" lon="1.93332">
        <ele>653</ele>
        <time>2012-09-30T09:20:17Z</time>
      </trkpt>
      <trkpt lat="42.89177" lon="1.93327">
        <ele>654</ele>
        <time>2012-09-30T09:20:20Z</time>
      </trkpt>
      <trkpt lat="42.89189" lon="1.93315">
        <ele>655</ele>
        <time>2012-09-30T09:20:26Z</time>
      </trkpt>
      <trkpt lat="42.89191" lon="1.93308">
        <ele>655</ele>
        <time>2012-09-30T09:20:31Z</time>
      </trkpt>
      <trkpt lat="42.89195" lon="1.93303">
        <ele>655</ele>
        <time>2012-09-30T09:20:36Z</time>
      </trkpt>
      <trkpt lat="42.89197" lon="1.93302">
        <ele>655</ele>
        <time>2012-09-30T09:20:39Z</time>
      </trkpt>
      <trkpt lat="42.89205" lon="1.933">
        <ele>655</ele>
        <time>2012-09-30T09:20:43Z</time>
      </trkpt>
      <trkpt lat="42.89208" lon="1.93297">
        <ele>655</ele>
        <time>2012-09-30T09:20:47Z</time>
      </trkpt>
      <trkpt lat="42.89211" lon="1.93292">
        <ele>655</ele>
        <time>2012-09-30T09:20:51Z</time>
      </trkpt>
      <trkpt lat="42.89213" lon="1.93287">
        <ele>656</ele>
        <time>2012-09-30T09:20:58Z</time>
      </trkpt>
      <trkpt lat="42.89207" lon="1.93273">
        <ele>657</ele>
        <time>2012-09-30T09:21:06Z</time>
      </trkpt>
      <trkpt lat="42.89203" lon="1.93259">
        <ele>658</ele>
        <time>2012-09-30T09:21:15Z</time>
      </trkpt>
      <trkpt lat="42.89202" lon="1.93247">
        <ele>662</ele>
        <time>2012-09-30T09:21:20Z</time>
      </trkpt>
      <trkpt lat="42.89202" lon="1.93243">
        <ele>662</ele>
        <time>2012-09-30T09:21:23Z</time>
      </trkpt>
      <trkpt lat="42.89206" lon="1.93233">
        <ele>662</ele>
        <time>2012-09-30T09:21:28Z</time>
      </trkpt>
      <trkpt lat="42.89219" lon="1.93216">
        <ele>661</ele>
        <time>2012-09-30T09:21:34Z</time>
      </trkpt>
      <trkpt lat="42.89228" lon="1.93206">
        <ele>660</ele>
        <time>2012-09-30T09:21:38Z</time>
      </trkpt>
      <trkpt lat="42.89235" lon="1.93193">
        <ele>659</ele>
        <time>2012-09-30T09:21:42Z</time>
      </trkpt>
      <trkpt lat="42.89239" lon="1.93169">
        <ele>657</ele>
        <time>2012-09-30T09:21:48Z</time>
      </trkpt>
      <trkpt lat="42.89233" lon="1.93149">
        <ele>656</ele>
        <time>2012-09-30T09:21:53Z</time>
      </trkpt>
      <trkpt lat="42.89223" lon="1.93127">
        <ele>656</ele>
        <time>2012-09-30T09:21:58Z</time>
      </trkpt>
      <trkpt lat="42.89212" lon="1.93113">
        <ele>657</ele>
        <time>2012-09-30T09:22:01Z</time>
      </trkpt>
      <trkpt lat="42.89202" lon="1.93102">
        <ele>658</ele>
        <time>2012-09-30T09:22:04Z</time>
      </trkpt>
      <trkpt lat="42.89194" lon="1.93087">
        <ele>659</ele>
        <time>2012-09-30T09:22:09Z</time>
      </trkpt>
      <trkpt lat="42.8919" lon="1.93072">
        <ele>652</ele>
        <time>2012-09-30T09:22:13Z</time>
      </trkpt>
      <trkpt lat="42.89191" lon="1.93068">
        <ele>651</ele>
        <time>2012-09-30T09:22:14Z</time>
      </trkpt>
      <trkpt lat="42.89194" lon="1.93051">
        <ele>648</ele>
        <time>2012-09-30T09:22:19Z</time>
      </trkpt>
      <trkpt lat="42.89201" lon="1.93025">
        <ele>645</ele>
        <time>2012-09-30T09:22:25Z</time>
      </trkpt>
      <trkpt lat="42.89201" lon="1.93001">
        <ele>644</ele>
        <time>2012-09-30T09:22:30Z</time>
      </trkpt>
      <trkpt lat="42.89204" lon="1.92989">
        <ele>633</ele>
        <time>2012-09-30T09:22:33Z</time>
      </trkpt>
      <trkpt lat="42.89205" lon="1.92984">
        <ele>633</ele>
        <time>2012-09-30T09:22:35Z</time>
      </trkpt>
      <trkpt lat="42.89198" lon="1.92965">
        <ele>632</ele>
        <time>2012-09-30T09:22:42Z</time>
      </trkpt>
      <trkpt lat="42.89195" lon="1.92949">
        <ele>630</ele>
        <time>2012-09-30T09:22:47Z</time>
      </trkpt>
      <trkpt lat="42.89189" lon="1.92928">
        <ele>630</ele>
        <time>2012-09-30T09:22:52Z</time>
      </trkpt>
      <trkpt lat="42.89183" lon="1.92905">
        <ele>621</ele>
        <time>2012-09-30T09:22:57Z</time>
      </trkpt>
      <trkpt lat="42.89176" lon="1.92897">
        <ele>620</ele>
        <time>2012-09-30T09:23:01Z</time>
      </trkpt>
      <trkpt lat="42.89177" lon="1.92879">
        <ele>615</ele>
        <time>2012-09-30T09:23:05Z</time>
      </trkpt>
      <trkpt lat="42.89174" lon="1.92866">
        <ele>613</ele>
        <time>2012-09-30T09:23:09Z</time>
      </trkpt>
      <trkpt lat="42.89175" lon="1.92851">
        <ele>612</ele>
        <time>2012-09-30T09:23:14Z</time>
      </trkpt>
      <trkpt lat="42.89167" lon="1.92847">
        <ele>623</ele>
        <time>2012-09-30T09:23:19Z</time>
      </trkpt>
      <trkpt lat="42.89159" lon="1.92845">
        <ele>623</ele>
        <time>2012-09-30T09:23:23Z</time>
      </trkpt>
      <trkpt lat="42.89153" lon="1.92843">
        <ele>625</ele>
        <time>2012-09-30T09:23:25Z</time>
      </trkpt>
      <trkpt lat="42.89145" lon="1.92825">
        <ele>618</ele>
        <time>2012-09-30T09:23:31Z</time>
      </trkpt>
      <trkpt lat="42.89138" lon="1.92804">
        <ele>619</ele>
        <time>2012-09-30T09:23:35Z</time>
      </trkpt>
      <trkpt lat="42.89132" lon="1.92775">
        <ele>616</ele>
        <time>2012-09-30T09:23:40Z</time>
      </trkpt>
      <trkpt lat="42.89132" lon="1.92764">
        <ele>615</ele>
        <time>2012-09-30T09:23:42Z</time>
      </trkpt>
      <trkpt lat="42.89118" lon="1.9274">
        <ele>606</ele>
        <time>2012-09-30T09:23:48Z</time>
      </trkpt>
      <trkpt lat="42.89106" lon="1.92729">
        <ele>609</ele>
        <time>2012-09-30T09:23:52Z</time>
      </trkpt>
      <trkpt lat="42.89104" lon="1.92722">
        <ele>608</ele>
        <time>2012-09-30T09:23:54Z</time>
      </trkpt>
      <trkpt lat="42.89111" lon="1.92721">
        <ele>606</ele>
        <time>2012-09-30T09:23:58Z</time>
      </trkpt>
      <trkpt lat="42.89112" lon="1.92711">
        <ele>604</ele>
        <time>2012-09-30T09:24:02Z</time>
      </trkpt>
      <trkpt lat="42.89112" lon="1.92708">
        <ele>603</ele>
        <time>2012-09-30T09:24:03Z</time>
      </trkpt>
      <trkpt lat="42.89111" lon="1.92699">
        <ele>603</ele>
        <time>2012-09-30T09:24:06Z</time>
      </trkpt>
      <trkpt lat="42.89114" lon="1.92692">
        <ele>601</ele>
        <time>2012-09-30T09:24:11Z</time>
      </trkpt>
      <trkpt lat="42.89118" lon="1.92694">
        <ele>601</ele>
        <time>2012-09-30T09:24:13Z</time>
      </trkpt>
      <trkpt lat="42.89141" lon="1.92702">
        <ele>596</ele>
        <time>2012-09-30T09:24:19Z</time>
      </trkpt>
      <trkpt lat="42.89152" lon="1.92707">
        <ele>595</ele>
        <time>2012-09-30T09:24:22Z</time>
      </trkpt>
      <trkpt lat="42.89169" lon="1.92716">
        <ele>571</ele>
        <time>2012-09-30T09:24:26Z</time>
      </trkpt>
      <trkpt lat="42.89174" lon="1.92721">
        <ele>572</ele>
        <time>2012-09-30T09:24:28Z</time>
      </trkpt>
      <trkpt lat="42.89181" lon="1.92727">
        <ele>572</ele>
        <time>2012-09-30T09:24:32Z</time>
      </trkpt>
      <trkpt lat="42.89186" lon="1.92724">
        <ele>570</ele>
        <time>2012-09-30T09:24:37Z</time>
      </trkpt>
      <trkpt lat="42.89183" lon="1.92718">
        <ele>570</ele>
        <time>2012-09-30T09:24:41Z</time>
      </trkpt>
      <trkpt lat="42.89182" lon="1.92713">
        <ele>569</ele>
        <time>2012-09-30T09:24:43Z</time>
      </trkpt>
      <trkpt lat="42.89177" lon="1.92696">
        <ele>567</ele>
        <time>2012-09-30T09:24:50Z</time>
      </trkpt>
      <trkpt lat="42.89174" lon="1.92687">
        <ele>567</ele>
        <time>2012-09-30T09:24:53Z</time>
      </trkpt>
      <trkpt lat="42.89166" lon="1.92665">
        <ele>571</ele>
        <time>2012-09-30T09:24:59Z</time>
      </trkpt>
      <trkpt lat="42.89161" lon="1.92649">
        <ele>573</ele>
        <time>2012-09-30T09:25:03Z</time>
      </trkpt>
      <trkpt lat="42.89162" lon="1.9263">
        <ele>570</ele>
        <time>2012-09-30T09:25:08Z</time>
      </trkpt>
      <trkpt lat="42.89163" lon="1.92627">
        <ele>570</ele>
        <time>2012-09-30T09:25:09Z</time>
      </trkpt>
      <trkpt lat="42.8916" lon="1.92606">
        <ele>563</ele>
        <time>2012-09-30T09:25:14Z</time>
      </trkpt>
      <trkpt lat="42.89154" lon="1.92584">
        <ele>556</ele>
        <time>2012-09-30T09:25:20Z</time>
      </trkpt>
      <trkpt lat="42.89157" lon="1.92563">
        <ele>547</ele>
        <time>2012-09-30T09:25:25Z</time>
      </trkpt>
      <trkpt lat="42.89151" lon="1.92545">
        <ele>547</ele>
        <time>2012-09-30T09:25:30Z</time>
      </trkpt>
      <trkpt lat="42.89149" lon="1.92534">
        <ele>545</ele>
        <time>2012-09-30T09:25:33Z</time>
      </trkpt>
      <trkpt lat="42.89141" lon="1.92504">
        <ele>542</ele>
        <time>2012-09-30T09:25:39Z</time>
      </trkpt>
      <trkpt lat="42.89134" lon="1.92485">
        <ele>535</ele>
        <time>2012-09-30T09:25:43Z</time>
      </trkpt>
      <trkpt lat="42.89141" lon="1.92483">
        <ele>533</ele>
        <time>2012-09-30T09:25:46Z</time>
      </trkpt>
      <trkpt lat="42.8915" lon="1.92489">
        <ele>532</ele>
        <time>2012-09-30T09:25:51Z</time>
      </trkpt>
      <trkpt lat="42.89167" lon="1.92498">
        <ele>527</ele>
        <time>2012-09-30T09:25:59Z</time>
      </trkpt>
      <trkpt lat="42.89174" lon="1.92501">
        <ele>528</ele>
        <time>2012-09-30T09:26:02Z</time>
      </trkpt>
      <trkpt lat="42.89186" lon="1.92509">
        <ele>531</ele>
        <time>2012-09-30T09:26:09Z</time>
      </trkpt>
      <trkpt lat="42.89188" lon="1.92516">
        <ele>531</ele>
        <time>2012-09-30T09:26:14Z</time>
      </trkpt>
      <trkpt lat="42.89195" lon="1.9252">
        <ele>532</ele>
        <time>2012-09-30T09:26:18Z</time>
      </trkpt>
      <trkpt lat="42.89198" lon="1.92524">
        <ele>532</ele>
        <time>2012-09-30T09:26:20Z</time>
      </trkpt>
      <trkpt lat="42.89206" lon="1.92534">
        <ele>533</ele>
        <time>2012-09-30T09:26:24Z</time>
      </trkpt>
      <trkpt lat="42.89212" lon="1.92546">
        <ele>533</ele>
        <time>2012-09-30T09:26:28Z</time>
      </trkpt>
      <trkpt lat="42.89215" lon="1.92561">
        <ele>533</ele>
        <time>2012-09-30T09:26:33Z</time>
      </trkpt>
      <trkpt lat="42.89215" lon="1.92574">
        <ele>533</ele>
        <time>2012-09-30T09:26:38Z</time>
      </trkpt>
      <trkpt lat="42.89215" lon="1.92577">
        <ele>533</ele>
        <time>2012-09-30T09:26:39Z</time>
      </trkpt>
      <trkpt lat="42.89211" lon="1.92585">
        <ele>540</ele>
        <time>2012-09-30T09:26:44Z</time>
      </trkpt>
      <trkpt lat="42.89205" lon="1.92593">
        <ele>541</ele>
        <time>2012-09-30T09:26:49Z</time>
      </trkpt>
      <trkpt lat="42.8921" lon="1.92603">
        <ele>541</ele>
        <time>2012-09-30T09:26:53Z</time>
      </trkpt>
      <trkpt lat="42.89218" lon="1.92614">
        <ele>541</ele>
        <time>2012-09-30T09:26:57Z</time>
      </trkpt>
      <trkpt lat="42.89227" lon="1.92623">
        <ele>540</ele>
        <time>2012-09-30T09:27:01Z</time>
      </trkpt>
      <trkpt lat="42.89243" lon="1.92642">
        <ele>539</ele>
        <time>2012-09-30T09:27:08Z</time>
      </trkpt>
      <trkpt lat="42.89251" lon="1.92655">
        <ele>532</ele>
        <time>2012-09-30T09:27:12Z</time>
      </trkpt>
      <trkpt lat="42.8926" lon="1.9267">
        <ele>533</ele>
        <time>2012-09-30T09:27:17Z</time>
      </trkpt>
      <trkpt lat="42.89268" lon="1.92685">
        <ele>535</ele>
        <time>2012-09-30T09:27:22Z</time>
      </trkpt>
      <trkpt lat="42.8928" lon="1.92699">
        <ele>536</ele>
        <time>2012-09-30T09:27:28Z</time>
      </trkpt>
      <trkpt lat="42.89283" lon="1.92701">
        <ele>536</ele>
        <time>2012-09-30T09:27:29Z</time>
      </trkpt>
      <trkpt lat="42.89296" lon="1.92703">
        <ele>535</ele>
        <time>2012-09-30T09:27:34Z</time>
      </trkpt>
      <trkpt lat="42.89304" lon="1.92702">
        <ele>534</ele>
        <time>2012-09-30T09:27:38Z</time>
      </trkpt>
      <trkpt lat="42.89308" lon="1.92701">
        <ele>533</ele>
        <time>2012-09-30T09:27:40Z</time>
      </trkpt>
      <trkpt lat="42.89321" lon="1.92701">
        <ele>532</ele>
        <time>2012-09-30T09:27:46Z</time>
      </trkpt>
      <trkpt lat="42.89329" lon="1.92703">
        <ele>532</ele>
        <time>2012-09-30T09:27:51Z</time>
      </trkpt>
      <trkpt lat="42.89344" lon="1.92702">
        <ele>525</ele>
        <time>2012-09-30T09:27:57Z</time>
      </trkpt>
      <trkpt lat="42.89353" lon="1.92693">
        <ele>525</ele>
        <time>2012-09-30T09:28:02Z</time>
      </trkpt>
      <trkpt lat="42.89359" lon="1.92684">
        <ele>525</ele>
        <time>2012-09-30T09:28:06Z</time>
      </trkpt>
      <trkpt lat="42.89364" lon="1.92679">
        <ele>525</ele>
        <time>2012-09-30T09:28:08Z</time>
      </trkpt>
      <trkpt lat="42.89376" lon="1.92674">
        <ele>525</ele>
        <time>2012-09-30T09:28:13Z</time>
      </trkpt>
      <trkpt lat="42.89386" lon="1.92671">
        <ele>525</ele>
        <time>2012-09-30T09:28:17Z</time>
      </trkpt>
      <trkpt lat="42.89399" lon="1.92663">
        <ele>531</ele>
        <time>2012-09-30T09:28:24Z</time>
      </trkpt>
      <trkpt lat="42.89407" lon="1.92654">
        <ele>531</ele>
        <time>2012-09-30T09:28:28Z</time>
      </trkpt>
      <trkpt lat="42.89413" lon="1.9265">
        <ele>531</ele>
        <time>2012-09-30T09:28:32Z</time>
      </trkpt>
      <trkpt lat="42.89424" lon="1.92649">
        <ele>531</ele>
        <time>2012-09-30T09:28:36Z</time>
      </trkpt>
      <trkpt lat="42.89448" lon="1.92648">
        <ele>532</ele>
        <time>2012-09-30T09:28:44Z</time>
      </trkpt>
      <trkpt lat="42.89468" lon="1.92646">
        <ele>531</ele>
        <time>2012-09-30T09:28:50Z</time>
      </trkpt>
      <trkpt lat="42.89487" lon="1.92638">
        <ele>531</ele>
        <time>2012-09-30T09:28:54Z</time>
      </trkpt>
      <trkpt lat="42.89502" lon="1.92648">
        <ele>525</ele>
        <time>2012-09-30T09:28:59Z</time>
      </trkpt>
      <trkpt lat="42.89518" lon="1.92664">
        <ele>524</ele>
        <time>2012-09-30T09:29:05Z</time>
      </trkpt>
      <trkpt lat="42.89526" lon="1.92668">
        <ele>516</ele>
        <time>2012-09-30T09:29:08Z</time>
      </trkpt>
      <trkpt lat="42.89543" lon="1.92667">
        <ele>515</ele>
        <time>2012-09-30T09:29:14Z</time>
      </trkpt>
      <trkpt lat="42.89553" lon="1.92662">
        <ele>523</ele>
        <time>2012-09-30T09:29:18Z</time>
      </trkpt>
      <trkpt lat="42.89559" lon="1.92663">
        <ele>522</ele>
        <time>2012-09-30T09:29:21Z</time>
      </trkpt>
      <trkpt lat="42.89579" lon="1.92658">
        <ele>518</ele>
        <time>2012-09-30T09:29:27Z</time>
      </trkpt>
      <trkpt lat="42.89582" lon="1.92658">
        <ele>517</ele>
        <time>2012-09-30T09:29:28Z</time>
      </trkpt>
      <trkpt lat="42.89626" lon="1.92671">
        <ele>510</ele>
        <time>2012-09-30T09:29:35Z</time>
      </trkpt>
      <trkpt lat="42.8963" lon="1.92672">
        <ele>510</ele>
        <time>2012-09-30T09:29:36Z</time>
      </trkpt>
      <trkpt lat="42.89631" lon="1.92672">
        <ele>510</ele>
        <time>2012-09-30T09:29:41Z</time>
      </trkpt>
      <trkpt lat="42.8963" lon="1.92671">
        <ele>510</ele>
        <time>2012-09-30T09:29:42Z</time>
      </trkpt>
      <trkpt lat="42.89639" lon="1.92669">
        <ele>510</ele>
        <time>2012-09-30T09:29:46Z</time>
      </trkpt>
      <trkpt lat="42.89653" lon="1.92663">
        <ele>514</ele>
        <time>2012-09-30T09:29:51Z</time>
      </trkpt>
      <trkpt lat="42.89665" lon="1.92655">
        <ele>513</ele>
        <time>2012-09-30T09:29:56Z</time>
      </trkpt>
      <trkpt lat="42.89673" lon="1.92645">
        <ele>513</ele>
        <time>2012-09-30T09:30:00Z</time>
      </trkpt>
      <trkpt lat="42.8968" lon="1.92634">
        <ele>514</ele>
        <time>2012-09-30T09:30:05Z</time>
      </trkpt>
      <trkpt lat="42.89688" lon="1.92625">
        <ele>515</ele>
        <time>2012-09-30T09:30:10Z</time>
      </trkpt>
      <trkpt lat="42.89706" lon="1.92622">
        <ele>514</ele>
        <time>2012-09-30T09:30:15Z</time>
      </trkpt>
      <trkpt lat="42.89722" lon="1.92622">
        <ele>514</ele>
        <time>2012-09-30T09:30:20Z</time>
      </trkpt>
      <trkpt lat="42.89745" lon="1.92623">
        <ele>513</ele>
        <time>2012-09-30T09:30:25Z</time>
      </trkpt>
      <trkpt lat="42.89755" lon="1.92621">
        <ele>511</ele>
        <time>2012-09-30T09:30:29Z</time>
      </trkpt>
      <trkpt lat="42.89762" lon="1.92621">
        <ele>511</ele>
        <time>2012-09-30T09:30:31Z</time>
      </trkpt>
      <trkpt lat="42.89775" lon="1.92612">
        <ele>512</ele>
        <time>2012-09-30T09:30:37Z</time>
      </trkpt>
      <trkpt lat="42.89778" lon="1.92609">
        <ele>512</ele>
        <time>2012-09-30T09:30:38Z</time>
      </trkpt>
      <trkpt lat="42.89784" lon="1.92597">
        <ele>512</ele>
        <time>2012-09-30T09:30:43Z</time>
      </trkpt>
      <trkpt lat="42.89785" lon="1.92595">
        <ele>512</ele>
        <time>2012-09-30T09:30:44Z</time>
      </trkpt>
      <trkpt lat="42.89791" lon="1.92585">
        <ele>513</ele>
        <time>2012-09-30T09:30:50Z</time>
      </trkpt>
      <trkpt lat="42.89798" lon="1.92583">
        <ele>522</ele>
        <time>2012-09-30T09:30:54Z</time>
      </trkpt>
      <trkpt lat="42.89809" lon="1.92593">
        <ele>512</ele>
        <time>2012-09-30T09:31:00Z</time>
      </trkpt>
      <trkpt lat="42.89817" lon="1.92605">
        <ele>512</ele>
        <time>2012-09-30T09:31:04Z</time>
      </trkpt>
      <trkpt lat="42.89831" lon="1.92615">
        <ele>511</ele>
        <time>2012-09-30T09:31:09Z</time>
      </trkpt>
      <trkpt lat="42.89841" lon="1.92626">
        <ele>514</ele>
        <time>2012-09-30T09:31:13Z</time>
      </trkpt>
      <trkpt lat="42.8985" lon="1.92646">
        <ele>512</ele>
        <time>2012-09-30T09:31:19Z</time>
      </trkpt>
      <trkpt lat="42.89865" lon="1.92662">
        <ele>513</ele>
        <time>2012-09-30T09:31:24Z</time>
      </trkpt>
      <trkpt lat="42.89875" lon="1.92671">
        <ele>509</ele>
        <time>2012-09-30T09:31:28Z</time>
      </trkpt>
      <trkpt lat="42.89884" lon="1.92679">
        <ele>510</ele>
        <time>2012-09-30T09:31:32Z</time>
      </trkpt>
      <trkpt lat="42.89898" lon="1.92695">
        <ele>510</ele>
        <time>2012-09-30T09:31:37Z</time>
      </trkpt>
      <trkpt lat="42.89905" lon="1.92707">
        <ele>510</ele>
        <time>2012-09-30T09:31:41Z</time>
      </trkpt>
      <trkpt lat="42.89909" lon="1.92712">
        <ele>510</ele>
        <time>2012-09-30T09:31:43Z</time>
      </trkpt>
      <trkpt lat="42.89915" lon="1.92729">
        <ele>509</ele>
        <time>2012-09-30T09:31:49Z</time>
      </trkpt>
      <trkpt lat="42.89919" lon="1.9274">
        <ele>511</ele>
        <time>2012-09-30T09:31:53Z</time>
      </trkpt>
      <trkpt lat="42.89926" lon="1.92756">
        <ele>509</ele>
        <time>2012-09-30T09:31:58Z</time>
      </trkpt>
      <trkpt lat="42.89934" lon="1.92775">
        <ele>508</ele>
        <time>2012-09-30T09:32:04Z</time>
      </trkpt>
      <trkpt lat="42.8994" lon="1.92791">
        <ele>508</ele>
        <time>2012-09-30T09:32:08Z</time>
      </trkpt>
      <trkpt lat="42.89952" lon="1.92807">
        <ele>507</ele>
        <time>2012-09-30T09:32:13Z</time>
      </trkpt>
      <trkpt lat="42.89968" lon="1.92822">
        <ele>507</ele>
        <time>2012-09-30T09:32:19Z</time>
      </trkpt>
      <trkpt lat="42.89985" lon="1.92827">
        <ele>508</ele>
        <time>2012-09-30T09:32:24Z</time>
      </trkpt>
      <trkpt lat="42.89999" lon="1.92831">
        <ele>507</ele>
        <time>2012-09-30T09:32:29Z</time>
      </trkpt>
      <trkpt lat="42.90009" lon="1.9284">
        <ele>506</ele>
        <time>2012-09-30T09:32:34Z</time>
      </trkpt>
      <trkpt lat="42.9002" lon="1.92846">
        <ele>505</ele>
        <time>2012-09-30T09:32:38Z</time>
      </trkpt>
      <trkpt lat="42.90032" lon="1.9285">
        <ele>504</ele>
        <time>2012-09-30T09:32:42Z</time>
      </trkpt>
      <trkpt lat="42.90047" lon="1.92855">
        <ele>504</ele>
        <time>2012-09-30T09:32:47Z</time>
      </trkpt>
      <trkpt lat="42.90062" lon="1.92859">
        <ele>504</ele>
        <time>2012-09-30T09:32:52Z</time>
      </trkpt>
      <trkpt lat="42.90073" lon="1.92861">
        <ele>503</ele>
        <time>2012-09-30T09:32:56Z</time>
      </trkpt>
      <trkpt lat="42.90086" lon="1.92866">
        <ele>505</ele>
        <time>2012-09-30T09:33:01Z</time>
      </trkpt>
      <trkpt lat="42.90098" lon="1.92866">
        <ele>505</ele>
        <time>2012-09-30T09:33:06Z</time>
      </trkpt>
      <trkpt lat="42.9011" lon="1.92865">
        <ele>505</ele>
        <time>2012-09-30T09:33:11Z</time>
      </trkpt>
      <trkpt lat="42.90123" lon="1.92872">
        <ele>505</ele>
        <time>2012-09-30T09:33:15Z</time>
      </trkpt>
      <trkpt lat="42.90139" lon="1.92888">
        <ele>505</ele>
        <time>2012-09-30T09:33:21Z</time>
      </trkpt>
      <trkpt lat="42.90153" lon="1.92906">
        <ele>506</ele>
        <time>2012-09-30T09:33:27Z</time>
      </trkpt>
      <trkpt lat="42.90161" lon="1.92922">
        <ele>505</ele>
        <time>2012-09-30T09:33:31Z</time>
      </trkpt>
      <trkpt lat="42.90166" lon="1.9294">
        <ele>504</ele>
        <time>2012-09-30T09:33:36Z</time>
      </trkpt>
      <trkpt lat="42.90171" lon="1.92958">
        <ele>511</ele>
        <time>2012-09-30T09:33:41Z</time>
      </trkpt>
      <trkpt lat="42.90174" lon="1.92971">
        <ele>511</ele>
        <time>2012-09-30T09:33:45Z</time>
      </trkpt>
      <trkpt lat="42.90178" lon="1.92984">
        <ele>509</ele>
        <time>2012-09-30T09:33:49Z</time>
      </trkpt>
      <trkpt lat="42.90182" lon="1.93001">
        <ele>507</ele>
        <time>2012-09-30T09:33:54Z</time>
      </trkpt>
      <trkpt lat="42.90187" lon="1.93015">
        <ele>508</ele>
        <time>2012-09-30T09:33:58Z</time>
      </trkpt>
      <trkpt lat="42.9019" lon="1.93029">
        <ele>509</ele>
        <time>2012-09-30T09:34:02Z</time>
      </trkpt>
      <trkpt lat="42.90191" lon="1.9304">
        <ele>509</ele>
        <time>2012-09-30T09:34:05Z</time>
      </trkpt>
      <trkpt lat="42.90198" lon="1.93062">
        <ele>509</ele>
        <time>2012-09-30T09:34:11Z</time>
      </trkpt>
      <trkpt lat="42.90199" lon="1.93066">
        <ele>509</ele>
        <time>2012-09-30T09:34:12Z</time>
      </trkpt>
      <trkpt lat="42.90208" lon="1.93091">
        <ele>508</ele>
        <time>2012-09-30T09:34:19Z</time>
      </trkpt>
      <trkpt lat="42.90211" lon="1.93102">
        <ele>508</ele>
        <time>2012-09-30T09:34:22Z</time>
      </trkpt>
      <trkpt lat="42.90214" lon="1.93117">
        <ele>508</ele>
        <time>2012-09-30T09:34:26Z</time>
      </trkpt>
      <trkpt lat="42.90214" lon="1.93121">
        <ele>508</ele>
        <time>2012-09-30T09:34:27Z</time>
      </trkpt>
      <trkpt lat="42.90216" lon="1.93144">
        <ele>508</ele>
        <time>2012-09-30T09:34:33Z</time>
      </trkpt>
      <trkpt lat="42.90216" lon="1.93155">
        <ele>508</ele>
        <time>2012-09-30T09:34:36Z</time>
      </trkpt>
      <trkpt lat="42.90213" lon="1.93167">
        <ele>506</ele>
        <time>2012-09-30T09:34:39Z</time>
      </trkpt>
      <trkpt lat="42.90212" lon="1.93175">
        <ele>506</ele>
        <time>2012-09-30T09:34:41Z</time>
      </trkpt>
      <trkpt lat="42.90218" lon="1.93191">
        <ele>506</ele>
        <time>2012-09-30T09:34:46Z</time>
      </trkpt>
      <trkpt lat="42.90219" lon="1.93206">
        <ele>506</ele>
        <time>2012-09-30T09:34:50Z</time>
      </trkpt>
      <trkpt lat="42.90223" lon="1.93223">
        <ele>506</ele>
        <time>2012-09-30T09:34:55Z</time>
      </trkpt>
      <trkpt lat="42.90229" lon="1.93239">
        <ele>506</ele>
        <time>2012-09-30T09:34:59Z</time>
      </trkpt>
      <trkpt lat="42.90236" lon="1.93255">
        <ele>505</ele>
        <time>2012-09-30T09:35:04Z</time>
      </trkpt>
      <trkpt lat="42.90236" lon="1.93264">
        <ele>504</ele>
        <time>2012-09-30T09:35:07Z</time>
      </trkpt>
      <trkpt lat="42.9024" lon="1.93281">
        <ele>503</ele>
        <time>2012-09-30T09:35:12Z</time>
      </trkpt>
      <trkpt lat="42.90245" lon="1.9329">
        <ele>502</ele>
        <time>2012-09-30T09:35:14Z</time>
      </trkpt>
      <trkpt lat="42.90252" lon="1.93305">
        <ele>502</ele>
        <time>2012-09-30T09:35:18Z</time>
      </trkpt>
      <trkpt lat="42.90249" lon="1.93319">
        <ele>500</ele>
        <time>2012-09-30T09:35:22Z</time>
      </trkpt>
      <trkpt lat="42.90247" lon="1.9333">
        <ele>500</ele>
        <time>2012-09-30T09:35:26Z</time>
      </trkpt>
      <trkpt lat="42.90248" lon="1.93348">
        <ele>499</ele>
        <time>2012-09-30T09:35:31Z</time>
      </trkpt>
      <trkpt lat="42.9025" lon="1.93365">
        <ele>498</ele>
        <time>2012-09-30T09:35:35Z</time>
      </trkpt>
      <trkpt lat="42.90244" lon="1.93376">
        <ele>498</ele>
        <time>2012-09-30T09:35:38Z</time>
      </trkpt>
      <trkpt lat="42.90243" lon="1.9338">
        <ele>497</ele>
        <time>2012-09-30T09:35:40Z</time>
      </trkpt>
      <trkpt lat="42.90242" lon="1.93384">
        <ele>497</ele>
        <time>2012-09-30T09:35:44Z</time>
      </trkpt>
      <trkpt lat="42.90254" lon="1.93386">
        <ele>498</ele>
        <time>2012-09-30T09:35:48Z</time>
      </trkpt>
      <trkpt lat="42.90258" lon="1.93382">
        <ele>498</ele>
        <time>2012-09-30T09:35:55Z</time>
      </trkpt>
      <trkpt lat="42.90261" lon="1.93389">
        <ele>498</ele>
        <time>2012-09-30T09:35:59Z</time>
      </trkpt>
    </trkseg>
  </trk>
</gpx>